<?xml version="1.0" encoding="UTF-8" standalone="no" ?>
<gpx xmlns="http://www.topografix.com/GPX/1/1" xmlns:xsi="http://www.w3.org/2001/XMLSchema-instance" xsi:schemaLocation="http://www.topografix.com/GPX/1/1 http://www.topografix.com/GPX/1/1/gpx.xsd" version="1.1" creator="VisuGPX - https://www.visugpx.com">
  <metadata>
    <name>Sortie du 23 janvier 2011</name>
    <desc><![CDATA[Vers le lac du Rioutard et le lac de Meaulx]]></desc>
  </metadata>
  <trk>
    <name><![CDATA[ACTIVE LOG-F-MNT]]></name>
    <trkseg>
      <trkpt lat="43.54169" lon="6.70001">
        <ele>288.890015</ele>
        <time>2011-01-23T10:07:14Z</time>
      </trkpt>
      <trkpt lat="43.54169" lon="6.70001">
        <ele>288.890015</ele>
        <time>2011-01-23T10:07:53Z</time>
      </trkpt>
      <trkpt lat="43.54172" lon="6.69997">
        <ele>289.88208</ele>
        <time>2011-01-23T10:07:59Z</time>
      </trkpt>
      <trkpt lat="43.54172" lon="6.70005">
        <ele>289.432678</ele>
        <time>2011-01-23T10:08:02Z</time>
      </trkpt>
      <trkpt lat="43.54172" lon="6.70007">
        <ele>289.320679</ele>
        <time>2011-01-23T10:08:03Z</time>
      </trkpt>
      <trkpt lat="43.54174" lon="6.70024">
        <ele>289.092072</ele>
        <time>2011-01-23T10:08:09Z</time>
      </trkpt>
      <trkpt lat="43.54182" lon="6.70033">
        <ele>290.768219</ele>
        <time>2011-01-23T10:08:17Z</time>
      </trkpt>
      <trkpt lat="43.54193" lon="6.70035">
        <ele>292.700928</ele>
        <time>2011-01-23T10:08:23Z</time>
      </trkpt>
      <trkpt lat="43.54202" lon="6.70037">
        <ele>294.234039</ele>
        <time>2011-01-23T10:08:29Z</time>
      </trkpt>
      <trkpt lat="43.5421" lon="6.70039">
        <ele>295.776428</ele>
        <time>2011-01-23T10:08:35Z</time>
      </trkpt>
      <trkpt lat="43.54219" lon="6.70046">
        <ele>297.150421</ele>
        <time>2011-01-23T10:08:41Z</time>
      </trkpt>
      <trkpt lat="43.54236" lon="6.70046">
        <ele>299.758789</ele>
        <time>2011-01-23T10:08:53Z</time>
      </trkpt>
      <trkpt lat="43.54244" lon="6.70048">
        <ele>300.953003</ele>
        <time>2011-01-23T10:08:59Z</time>
      </trkpt>
      <trkpt lat="43.54253" lon="6.7005">
        <ele>302.156525</ele>
        <time>2011-01-23T10:09:05Z</time>
      </trkpt>
      <trkpt lat="43.54259" lon="6.70054">
        <ele>302.989288</ele>
        <time>2011-01-23T10:09:11Z</time>
      </trkpt>
      <trkpt lat="43.54266" lon="6.70057">
        <ele>303.89563</ele>
        <time>2011-01-23T10:09:16Z</time>
      </trkpt>
      <trkpt lat="43.54277" lon="6.70059">
        <ele>305.454895</ele>
        <time>2011-01-23T10:09:23Z</time>
      </trkpt>
      <trkpt lat="43.54285" lon="6.70061">
        <ele>306.701599</ele>
        <time>2011-01-23T10:09:29Z</time>
      </trkpt>
      <trkpt lat="43.54294" lon="6.70065">
        <ele>307.923889</ele>
        <time>2011-01-23T10:09:36Z</time>
      </trkpt>
      <trkpt lat="43.543" lon="6.70067">
        <ele>308.869873</ele>
        <time>2011-01-23T10:09:40Z</time>
      </trkpt>
      <trkpt lat="43.54311" lon="6.70072">
        <ele>310.246796</ele>
        <time>2011-01-23T10:09:47Z</time>
      </trkpt>
      <trkpt lat="43.54313" lon="6.70074">
        <ele>310.308502</ele>
        <time>2011-01-23T10:09:48Z</time>
      </trkpt>
      <trkpt lat="43.54332" lon="6.70084">
        <ele>311.06076</ele>
        <time>2011-01-23T10:10:00Z</time>
      </trkpt>
      <trkpt lat="43.54339" lon="6.70087">
        <ele>311.350677</ele>
        <time>2011-01-23T10:10:04Z</time>
      </trkpt>
      <trkpt lat="43.54352" lon="6.70091">
        <ele>311.930511</ele>
        <time>2011-01-23T10:10:11Z</time>
      </trkpt>
      <trkpt lat="43.5436" lon="6.70097">
        <ele>311.676514</ele>
        <time>2011-01-23T10:10:16Z</time>
      </trkpt>
      <trkpt lat="43.54369" lon="6.70115">
        <ele>311.264282</ele>
        <time>2011-01-23T10:10:22Z</time>
      </trkpt>
      <trkpt lat="43.54365" lon="6.70138">
        <ele>311.412567</ele>
        <time>2011-01-23T10:10:29Z</time>
      </trkpt>
      <trkpt lat="43.54352" lon="6.70172">
        <ele>312.332794</ele>
        <time>2011-01-23T10:10:40Z</time>
      </trkpt>
      <trkpt lat="43.54373" lon="6.7014">
        <ele>311.027313</ele>
        <time>2011-01-23T10:10:48Z</time>
      </trkpt>
      <trkpt lat="43.54401" lon="6.7008">
        <ele>309.888214</ele>
        <time>2011-01-23T10:10:59Z</time>
      </trkpt>
      <trkpt lat="43.54429" lon="6.69958">
        <ele>308.597839</ele>
        <time>2011-01-23T10:11:17Z</time>
      </trkpt>
      <trkpt lat="43.54412" lon="6.69823">
        <ele>306.888824</ele>
        <time>2011-01-23T10:11:36Z</time>
      </trkpt>
      <trkpt lat="43.54399" lon="6.69769">
        <ele>304.219788</ele>
        <time>2011-01-23T10:11:44Z</time>
      </trkpt>
      <trkpt lat="43.54393" lon="6.69741">
        <ele>302.722992</ele>
        <time>2011-01-23T10:11:48Z</time>
      </trkpt>
      <trkpt lat="43.5438" lon="6.69703">
        <ele>300.848816</ele>
        <time>2011-01-23T10:11:53Z</time>
      </trkpt>
      <trkpt lat="43.54367" lon="6.69662">
        <ele>299.015533</ele>
        <time>2011-01-23T10:11:57Z</time>
      </trkpt>
      <trkpt lat="43.54358" lon="6.6964">
        <ele>298.192261</ele>
        <time>2011-01-23T10:12:00Z</time>
      </trkpt>
      <trkpt lat="43.54356" lon="6.69634">
        <ele>298.041107</ele>
        <time>2011-01-23T10:12:04Z</time>
      </trkpt>
      <trkpt lat="43.54356" lon="6.69632">
        <ele>298.044464</ele>
        <time>2011-01-23T10:12:07Z</time>
      </trkpt>
      <trkpt lat="43.54354" lon="6.69627">
        <ele>297.868286</ele>
        <time>2011-01-23T10:12:09Z</time>
      </trkpt>
      <trkpt lat="43.54352" lon="6.69625">
        <ele>297.682648</ele>
        <time>2011-01-23T10:12:12Z</time>
      </trkpt>
      <trkpt lat="43.5435" lon="6.69621">
        <ele>297.482758</ele>
        <time>2011-01-23T10:12:17Z</time>
      </trkpt>
      <trkpt lat="43.54345" lon="6.69615">
        <ele>297.057312</ele>
        <time>2011-01-23T10:12:24Z</time>
      </trkpt>
      <trkpt lat="43.54345" lon="6.69606">
        <ele>296.993591</ele>
        <time>2011-01-23T10:12:29Z</time>
      </trkpt>
      <trkpt lat="43.54347" lon="6.69602">
        <ele>297.179779</ele>
        <time>2011-01-23T10:12:33Z</time>
      </trkpt>
      <trkpt lat="43.54362" lon="6.69563">
        <ele>298.52652</ele>
        <time>2011-01-23T10:12:53Z</time>
      </trkpt>
      <trkpt lat="43.54367" lon="6.69548">
        <ele>298.92627</ele>
        <time>2011-01-23T10:12:59Z</time>
      </trkpt>
      <trkpt lat="43.5436" lon="6.69535">
        <ele>297.976379</ele>
        <time>2011-01-23T10:13:02Z</time>
      </trkpt>
      <trkpt lat="43.54352" lon="6.6952">
        <ele>296.996277</ele>
        <time>2011-01-23T10:13:06Z</time>
      </trkpt>
      <trkpt lat="43.54345" lon="6.69509">
        <ele>296.518036</ele>
        <time>2011-01-23T10:13:09Z</time>
      </trkpt>
      <trkpt lat="43.5433" lon="6.69486">
        <ele>295.729156</ele>
        <time>2011-01-23T10:13:17Z</time>
      </trkpt>
      <trkpt lat="43.54315" lon="6.69451">
        <ele>296.198181</ele>
        <time>2011-01-23T10:13:28Z</time>
      </trkpt>
      <trkpt lat="43.54322" lon="6.69447">
        <ele>297.058197</ele>
        <time>2011-01-23T10:13:31Z</time>
      </trkpt>
      <trkpt lat="43.54324" lon="6.69447">
        <ele>297.246979</ele>
        <time>2011-01-23T10:13:32Z</time>
      </trkpt>
      <trkpt lat="43.5433" lon="6.69447">
        <ele>297.811798</ele>
        <time>2011-01-23T10:13:35Z</time>
      </trkpt>
      <trkpt lat="43.54343" lon="6.69445">
        <ele>298.862854</ele>
        <time>2011-01-23T10:13:40Z</time>
      </trkpt>
      <trkpt lat="43.54378" lon="6.69445">
        <ele>300.894745</ele>
        <time>2011-01-23T10:13:55Z</time>
      </trkpt>
      <trkpt lat="43.54403" lon="6.69443">
        <ele>300.765015</ele>
        <time>2011-01-23T10:14:04Z</time>
      </trkpt>
      <trkpt lat="43.5442" lon="6.69441">
        <ele>300.54538</ele>
        <time>2011-01-23T10:14:10Z</time>
      </trkpt>
      <trkpt lat="43.54457" lon="6.69443">
        <ele>297.977661</ele>
        <time>2011-01-23T10:14:18Z</time>
      </trkpt>
      <trkpt lat="43.54489" lon="6.69443">
        <ele>295.890503</ele>
        <time>2011-01-23T10:14:24Z</time>
      </trkpt>
      <trkpt lat="43.54504" lon="6.69436">
        <ele>294.960358</ele>
        <time>2011-01-23T10:14:27Z</time>
      </trkpt>
      <trkpt lat="43.54521" lon="6.69439">
        <ele>294.193695</ele>
        <time>2011-01-23T10:14:31Z</time>
      </trkpt>
      <trkpt lat="43.54538" lon="6.69447">
        <ele>293.92215</ele>
        <time>2011-01-23T10:14:36Z</time>
      </trkpt>
      <trkpt lat="43.54545" lon="6.69449">
        <ele>293.803925</ele>
        <time>2011-01-23T10:14:39Z</time>
      </trkpt>
      <trkpt lat="43.54547" lon="6.69451">
        <ele>293.786377</ele>
        <time>2011-01-23T10:14:40Z</time>
      </trkpt>
      <trkpt lat="43.54566" lon="6.69454">
        <ele>293.688019</ele>
        <time>2011-01-23T10:14:47Z</time>
      </trkpt>
      <trkpt lat="43.54616" lon="6.69449">
        <ele>294.803467</ele>
        <time>2011-01-23T10:15:04Z</time>
      </trkpt>
      <trkpt lat="43.54616" lon="6.69436">
        <ele>294.627258</ele>
        <time>2011-01-23T10:15:08Z</time>
      </trkpt>
      <trkpt lat="43.54599" lon="6.69351">
        <ele>293.706238</ele>
        <time>2011-01-23T10:15:28Z</time>
      </trkpt>
      <trkpt lat="43.5459" lon="6.69297">
        <ele>293.601044</ele>
        <time>2011-01-23T10:15:40Z</time>
      </trkpt>
      <trkpt lat="43.54599" lon="6.69299">
        <ele>294.203033</ele>
        <time>2011-01-23T10:15:44Z</time>
      </trkpt>
      <trkpt lat="43.54601" lon="6.69299">
        <ele>294.343414</ele>
        <time>2011-01-23T10:15:45Z</time>
      </trkpt>
      <trkpt lat="43.54607" lon="6.69301">
        <ele>294.776855</ele>
        <time>2011-01-23T10:15:48Z</time>
      </trkpt>
      <trkpt lat="43.54611" lon="6.69301">
        <ele>295.11792</ele>
        <time>2011-01-23T10:15:51Z</time>
      </trkpt>
      <trkpt lat="43.54614" lon="6.69301">
        <ele>295.358704</ele>
        <time>2011-01-23T10:15:52Z</time>
      </trkpt>
      <trkpt lat="43.54654" lon="6.69306">
        <ele>299.863281</ele>
        <time>2011-01-23T10:16:13Z</time>
      </trkpt>
      <trkpt lat="43.54684" lon="6.69308">
        <ele>303.214539</ele>
        <time>2011-01-23T10:16:29Z</time>
      </trkpt>
      <trkpt lat="43.54721" lon="6.69295">
        <ele>307.144623</ele>
        <time>2011-01-23T10:16:50Z</time>
      </trkpt>
      <trkpt lat="43.54725" lon="6.69293">
        <ele>307.582031</ele>
        <time>2011-01-23T10:16:53Z</time>
      </trkpt>
      <trkpt lat="43.54751" lon="6.6928">
        <ele>310.105316</ele>
        <time>2011-01-23T10:17:09Z</time>
      </trkpt>
      <trkpt lat="43.54753" lon="6.6928">
        <ele>310.385132</ele>
        <time>2011-01-23T10:17:11Z</time>
      </trkpt>
      <trkpt lat="43.54759" lon="6.69276">
        <ele>311.036865</ele>
        <time>2011-01-23T10:17:15Z</time>
      </trkpt>
      <trkpt lat="43.54779" lon="6.69271">
        <ele>313.518463</ele>
        <time>2011-01-23T10:17:27Z</time>
      </trkpt>
      <trkpt lat="43.54783" lon="6.69276">
        <ele>314.237457</ele>
        <time>2011-01-23T10:17:30Z</time>
      </trkpt>
      <trkpt lat="43.54789" lon="6.6928">
        <ele>315.219421</ele>
        <time>2011-01-23T10:17:35Z</time>
      </trkpt>
      <trkpt lat="43.54798" lon="6.69286">
        <ele>316.72995</ele>
        <time>2011-01-23T10:17:41Z</time>
      </trkpt>
      <trkpt lat="43.54811" lon="6.69303">
        <ele>319.120728</ele>
        <time>2011-01-23T10:17:53Z</time>
      </trkpt>
      <trkpt lat="43.5483" lon="6.69327">
        <ele>321.630402</ele>
        <time>2011-01-23T10:18:11Z</time>
      </trkpt>
      <trkpt lat="43.54837" lon="6.69336">
        <ele>322.039795</ele>
        <time>2011-01-23T10:18:17Z</time>
      </trkpt>
      <trkpt lat="43.54862" lon="6.69376">
        <ele>324.355194</ele>
        <time>2011-01-23T10:18:37Z</time>
      </trkpt>
      <trkpt lat="43.54875" lon="6.69398">
        <ele>325.808838</ele>
        <time>2011-01-23T10:18:47Z</time>
      </trkpt>
      <trkpt lat="43.54895" lon="6.69417">
        <ele>326.192444</ele>
        <time>2011-01-23T10:18:59Z</time>
      </trkpt>
      <trkpt lat="43.54927" lon="6.69443">
        <ele>326.200165</ele>
        <time>2011-01-23T10:19:16Z</time>
      </trkpt>
      <trkpt lat="43.54938" lon="6.6943">
        <ele>323.492157</ele>
        <time>2011-01-23T10:19:23Z</time>
      </trkpt>
      <trkpt lat="43.54938" lon="6.6943">
        <ele>323.492157</ele>
        <time>2011-01-23T10:19:24Z</time>
      </trkpt>
      <trkpt lat="43.54948" lon="6.69436">
        <ele>320.768829</ele>
        <time>2011-01-23T10:19:30Z</time>
      </trkpt>
      <trkpt lat="43.54961" lon="6.69443">
        <ele>317.592407</ele>
        <time>2011-01-23T10:19:38Z</time>
      </trkpt>
      <trkpt lat="43.5497" lon="6.69447">
        <ele>315.18573</ele>
        <time>2011-01-23T10:19:44Z</time>
      </trkpt>
      <trkpt lat="43.54972" lon="6.69449">
        <ele>314.557068</ele>
        <time>2011-01-23T10:19:45Z</time>
      </trkpt>
      <trkpt lat="43.54972" lon="6.69451">
        <ele>314.605286</ele>
        <time>2011-01-23T10:19:47Z</time>
      </trkpt>
      <trkpt lat="43.54974" lon="6.69449">
        <ele>313.881714</ele>
        <time>2011-01-23T10:19:53Z</time>
      </trkpt>
      <trkpt lat="43.54974" lon="6.69443">
        <ele>313.73291</ele>
        <time>2011-01-23T10:19:59Z</time>
      </trkpt>
      <trkpt lat="43.54974" lon="6.69441">
        <ele>313.683563</ele>
        <time>2011-01-23T10:20:03Z</time>
      </trkpt>
      <trkpt lat="43.54976" lon="6.69439">
        <ele>312.950531</ele>
        <time>2011-01-23T10:20:05Z</time>
      </trkpt>
      <trkpt lat="43.54978" lon="6.69441">
        <ele>312.318909</ele>
        <time>2011-01-23T10:20:10Z</time>
      </trkpt>
      <trkpt lat="43.54983" lon="6.69449">
        <ele>311.177795</ele>
        <time>2011-01-23T10:20:16Z</time>
      </trkpt>
      <trkpt lat="43.54989" lon="6.69458">
        <ele>309.209808</ele>
        <time>2011-01-23T10:20:22Z</time>
      </trkpt>
      <trkpt lat="43.54995" lon="6.69469">
        <ele>307.165039</ele>
        <time>2011-01-23T10:20:28Z</time>
      </trkpt>
      <trkpt lat="43.55004" lon="6.69477">
        <ele>304.587463</ele>
        <time>2011-01-23T10:20:34Z</time>
      </trkpt>
      <trkpt lat="43.55011" lon="6.69479">
        <ele>302.895782</ele>
        <time>2011-01-23T10:20:38Z</time>
      </trkpt>
      <trkpt lat="43.55013" lon="6.69479">
        <ele>302.443054</ele>
        <time>2011-01-23T10:20:40Z</time>
      </trkpt>
      <trkpt lat="43.55017" lon="6.69479">
        <ele>301.534607</ele>
        <time>2011-01-23T10:20:44Z</time>
      </trkpt>
      <trkpt lat="43.55023" lon="6.69482">
        <ele>300.228088</ele>
        <time>2011-01-23T10:20:49Z</time>
      </trkpt>
      <trkpt lat="43.5503" lon="6.69482">
        <ele>298.8685</ele>
        <time>2011-01-23T10:20:52Z</time>
      </trkpt>
      <trkpt lat="43.55038" lon="6.69477">
        <ele>296.822388</ele>
        <time>2011-01-23T10:20:58Z</time>
      </trkpt>
      <trkpt lat="43.55041" lon="6.69471">
        <ele>296.00531</ele>
        <time>2011-01-23T10:21:04Z</time>
      </trkpt>
      <trkpt lat="43.55043" lon="6.69462">
        <ele>295.033691</ele>
        <time>2011-01-23T10:21:10Z</time>
      </trkpt>
      <trkpt lat="43.55071" lon="6.694">
        <ele>287.872437</ele>
        <time>2011-01-23T10:21:14Z</time>
      </trkpt>
      <trkpt lat="43.55077" lon="6.69398">
        <ele>287.147797</ele>
        <time>2011-01-23T10:21:19Z</time>
      </trkpt>
      <trkpt lat="43.55081" lon="6.69385">
        <ele>285.727325</ele>
        <time>2011-01-23T10:21:24Z</time>
      </trkpt>
      <trkpt lat="43.55086" lon="6.69383">
        <ele>285.102325</ele>
        <time>2011-01-23T10:21:25Z</time>
      </trkpt>
      <trkpt lat="43.55092" lon="6.69381">
        <ele>284.228607</ele>
        <time>2011-01-23T10:21:28Z</time>
      </trkpt>
      <trkpt lat="43.55094" lon="6.69379">
        <ele>283.807495</ele>
        <time>2011-01-23T10:21:30Z</time>
      </trkpt>
      <trkpt lat="43.55094" lon="6.69379">
        <ele>283.807495</ele>
        <time>2011-01-23T10:21:59Z</time>
      </trkpt>
      <trkpt lat="43.55096" lon="6.69379">
        <ele>283.569427</ele>
        <time>2011-01-23T10:22:29Z</time>
      </trkpt>
      <trkpt lat="43.55105" lon="6.69366">
        <ele>281.62616</ele>
        <time>2011-01-23T10:22:33Z</time>
      </trkpt>
      <trkpt lat="43.55109" lon="6.69359">
        <ele>280.945862</ele>
        <time>2011-01-23T10:22:36Z</time>
      </trkpt>
      <trkpt lat="43.55114" lon="6.69355">
        <ele>280.484772</ele>
        <time>2011-01-23T10:22:38Z</time>
      </trkpt>
      <trkpt lat="43.5512" lon="6.69342">
        <ele>279.233063</ele>
        <time>2011-01-23T10:22:42Z</time>
      </trkpt>
      <trkpt lat="43.55124" lon="6.69331">
        <ele>278.465149</ele>
        <time>2011-01-23T10:22:46Z</time>
      </trkpt>
      <trkpt lat="43.55124" lon="6.69329">
        <ele>278.33078</ele>
        <time>2011-01-23T10:22:47Z</time>
      </trkpt>
      <trkpt lat="43.55131" lon="6.69291">
        <ele>275.697235</ele>
        <time>2011-01-23T10:22:59Z</time>
      </trkpt>
      <trkpt lat="43.55135" lon="6.69276">
        <ele>274.55835</ele>
        <time>2011-01-23T10:23:04Z</time>
      </trkpt>
      <trkpt lat="43.55131" lon="6.69245">
        <ele>273.362427</ele>
        <time>2011-01-23T10:23:15Z</time>
      </trkpt>
      <trkpt lat="43.55124" lon="6.6922">
        <ele>272.771759</ele>
        <time>2011-01-23T10:23:23Z</time>
      </trkpt>
      <trkpt lat="43.55129" lon="6.69218">
        <ele>272.294006</ele>
        <time>2011-01-23T10:23:25Z</time>
      </trkpt>
      <trkpt lat="43.55137" lon="6.69215">
        <ele>271.456879</ele>
        <time>2011-01-23T10:23:29Z</time>
      </trkpt>
      <trkpt lat="43.55146" lon="6.69213">
        <ele>270.656494</ele>
        <time>2011-01-23T10:23:34Z</time>
      </trkpt>
      <trkpt lat="43.5515" lon="6.69211">
        <ele>270.242798</ele>
        <time>2011-01-23T10:23:36Z</time>
      </trkpt>
      <trkpt lat="43.55161" lon="6.69205">
        <ele>269.339294</ele>
        <time>2011-01-23T10:23:41Z</time>
      </trkpt>
      <trkpt lat="43.55169" lon="6.69194">
        <ele>268.612061</ele>
        <time>2011-01-23T10:23:46Z</time>
      </trkpt>
      <trkpt lat="43.55178" lon="6.69181">
        <ele>267.855927</ele>
        <time>2011-01-23T10:23:52Z</time>
      </trkpt>
      <trkpt lat="43.55184" lon="6.69145">
        <ele>267.015381</ele>
        <time>2011-01-23T10:24:04Z</time>
      </trkpt>
      <trkpt lat="43.55182" lon="6.69134">
        <ele>267.105164</ele>
        <time>2011-01-23T10:24:07Z</time>
      </trkpt>
      <trkpt lat="43.55178" lon="6.69125">
        <ele>267.394775</ele>
        <time>2011-01-23T10:24:09Z</time>
      </trkpt>
      <trkpt lat="43.55159" lon="6.69014">
        <ele>268.824097</ele>
        <time>2011-01-23T10:24:28Z</time>
      </trkpt>
      <trkpt lat="43.55159" lon="6.69005">
        <ele>269.110779</ele>
        <time>2011-01-23T10:24:31Z</time>
      </trkpt>
      <trkpt lat="43.55161" lon="6.68994">
        <ele>269.357971</ele>
        <time>2011-01-23T10:24:35Z</time>
      </trkpt>
      <trkpt lat="43.55163" lon="6.68977">
        <ele>269.838074</ele>
        <time>2011-01-23T10:24:41Z</time>
      </trkpt>
      <trkpt lat="43.55165" lon="6.68962">
        <ele>270.359863</ele>
        <time>2011-01-23T10:24:47Z</time>
      </trkpt>
      <trkpt lat="43.55163" lon="6.68952">
        <ele>271.071838</ele>
        <time>2011-01-23T10:24:50Z</time>
      </trkpt>
      <trkpt lat="43.55163" lon="6.68947">
        <ele>271.299408</ele>
        <time>2011-01-23T10:24:52Z</time>
      </trkpt>
      <trkpt lat="43.55159" lon="6.68919">
        <ele>273.230896</ele>
        <time>2011-01-23T10:25:05Z</time>
      </trkpt>
      <trkpt lat="43.55154" lon="6.68917">
        <ele>273.78064</ele>
        <time>2011-01-23T10:25:09Z</time>
      </trkpt>
      <trkpt lat="43.55154" lon="6.68915">
        <ele>273.92038</ele>
        <time>2011-01-23T10:25:10Z</time>
      </trkpt>
      <trkpt lat="43.5515" lon="6.68911">
        <ele>274.64801</ele>
        <time>2011-01-23T10:25:14Z</time>
      </trkpt>
      <trkpt lat="43.55144" lon="6.68904">
        <ele>275.842224</ele>
        <time>2011-01-23T10:25:18Z</time>
      </trkpt>
      <trkpt lat="43.55141" lon="6.68898">
        <ele>276.653809</ele>
        <time>2011-01-23T10:25:21Z</time>
      </trkpt>
      <trkpt lat="43.55141" lon="6.68891">
        <ele>277.233856</ele>
        <time>2011-01-23T10:25:24Z</time>
      </trkpt>
      <trkpt lat="43.55141" lon="6.68883">
        <ele>278.014709</ele>
        <time>2011-01-23T10:25:28Z</time>
      </trkpt>
      <trkpt lat="43.55141" lon="6.68879">
        <ele>278.408325</ele>
        <time>2011-01-23T10:25:32Z</time>
      </trkpt>
      <trkpt lat="43.55144" lon="6.68881">
        <ele>277.902344</ele>
        <time>2011-01-23T10:25:34Z</time>
      </trkpt>
      <trkpt lat="43.55144" lon="6.68879">
        <ele>278.092834</ele>
        <time>2011-01-23T10:25:38Z</time>
      </trkpt>
      <trkpt lat="43.55144" lon="6.68876">
        <ele>278.283844</ele>
        <time>2011-01-23T10:25:42Z</time>
      </trkpt>
      <trkpt lat="43.55146" lon="6.68874">
        <ele>278.145721</ele>
        <time>2011-01-23T10:25:47Z</time>
      </trkpt>
      <trkpt lat="43.55146" lon="6.6887">
        <ele>278.517242</ele>
        <time>2011-01-23T10:25:53Z</time>
      </trkpt>
      <trkpt lat="43.55146" lon="6.68868">
        <ele>278.703796</ele>
        <time>2011-01-23T10:25:59Z</time>
      </trkpt>
      <trkpt lat="43.55146" lon="6.68872">
        <ele>278.331207</ele>
        <time>2011-01-23T10:26:01Z</time>
      </trkpt>
      <trkpt lat="43.55148" lon="6.68876">
        <ele>277.636688</ele>
        <time>2011-01-23T10:26:05Z</time>
      </trkpt>
      <trkpt lat="43.55148" lon="6.68881">
        <ele>277.281555</ele>
        <time>2011-01-23T10:26:11Z</time>
      </trkpt>
      <trkpt lat="43.55148" lon="6.68881">
        <ele>277.281555</ele>
        <time>2011-01-23T10:27:09Z</time>
      </trkpt>
      <trkpt lat="43.55148" lon="6.68881">
        <ele>277.281555</ele>
        <time>2011-01-23T10:27:35Z</time>
      </trkpt>
      <trkpt lat="43.5515" lon="6.68879">
        <ele>277.14035</ele>
        <time>2011-01-23T10:27:41Z</time>
      </trkpt>
      <trkpt lat="43.55148" lon="6.68879">
        <ele>277.458862</ele>
        <time>2011-01-23T10:27:46Z</time>
      </trkpt>
      <trkpt lat="43.55148" lon="6.68874">
        <ele>277.815033</ele>
        <time>2011-01-23T10:27:49Z</time>
      </trkpt>
      <trkpt lat="43.55148" lon="6.68874">
        <ele>277.815033</ele>
        <time>2011-01-23T10:27:50Z</time>
      </trkpt>
      <trkpt lat="43.55148" lon="6.68874">
        <ele>277.815033</ele>
        <time>2011-01-23T10:27:55Z</time>
      </trkpt>
      <trkpt lat="43.55146" lon="6.68874">
        <ele>278.145721</ele>
        <time>2011-01-23T10:27:58Z</time>
      </trkpt>
      <trkpt lat="43.55148" lon="6.68874">
        <ele>277.815033</ele>
        <time>2011-01-23T10:28:05Z</time>
      </trkpt>
      <trkpt lat="43.55146" lon="6.68874">
        <ele>278.145721</ele>
        <time>2011-01-23T10:28:22Z</time>
      </trkpt>
      <trkpt lat="43.55139" lon="6.68876">
        <ele>278.927002</ele>
        <time>2011-01-23T10:28:26Z</time>
      </trkpt>
      <trkpt lat="43.55137" lon="6.68876">
        <ele>279.24707</ele>
        <time>2011-01-23T10:28:28Z</time>
      </trkpt>
      <trkpt lat="43.55133" lon="6.68876">
        <ele>279.884155</ele>
        <time>2011-01-23T10:28:30Z</time>
      </trkpt>
      <trkpt lat="43.55116" lon="6.68879">
        <ele>281.983124</ele>
        <time>2011-01-23T10:28:41Z</time>
      </trkpt>
      <trkpt lat="43.55111" lon="6.68876">
        <ele>282.776031</ele>
        <time>2011-01-23T10:28:43Z</time>
      </trkpt>
      <trkpt lat="43.55096" lon="6.68872">
        <ele>285.198608</ele>
        <time>2011-01-23T10:28:53Z</time>
      </trkpt>
      <trkpt lat="43.5509" lon="6.6887">
        <ele>286.301453</ele>
        <time>2011-01-23T10:28:58Z</time>
      </trkpt>
      <trkpt lat="43.55081" lon="6.68861">
        <ele>288.646515</ele>
        <time>2011-01-23T10:29:05Z</time>
      </trkpt>
      <trkpt lat="43.55075" lon="6.68855">
        <ele>290.176636</ele>
        <time>2011-01-23T10:29:11Z</time>
      </trkpt>
      <trkpt lat="43.55066" lon="6.68849">
        <ele>291.467041</ele>
        <time>2011-01-23T10:29:17Z</time>
      </trkpt>
      <trkpt lat="43.5506" lon="6.68844">
        <ele>292.294373</ele>
        <time>2011-01-23T10:29:23Z</time>
      </trkpt>
      <trkpt lat="43.55051" lon="6.6884">
        <ele>293.145325</ele>
        <time>2011-01-23T10:29:29Z</time>
      </trkpt>
      <trkpt lat="43.55045" lon="6.68836">
        <ele>293.533966</ele>
        <time>2011-01-23T10:29:35Z</time>
      </trkpt>
      <trkpt lat="43.55041" lon="6.68833">
        <ele>293.727844</ele>
        <time>2011-01-23T10:29:39Z</time>
      </trkpt>
      <trkpt lat="43.55038" lon="6.68831">
        <ele>293.82605</ele>
        <time>2011-01-23T10:29:40Z</time>
      </trkpt>
      <trkpt lat="43.55051" lon="6.68818">
        <ele>293.389618</ele>
        <time>2011-01-23T10:29:48Z</time>
      </trkpt>
      <trkpt lat="43.55053" lon="6.6881">
        <ele>293.380524</ele>
        <time>2011-01-23T10:29:50Z</time>
      </trkpt>
      <trkpt lat="43.55053" lon="6.68806">
        <ele>293.414307</ele>
        <time>2011-01-23T10:29:51Z</time>
      </trkpt>
      <trkpt lat="43.5506" lon="6.68795">
        <ele>293.317535</ele>
        <time>2011-01-23T10:29:53Z</time>
      </trkpt>
      <trkpt lat="43.55064" lon="6.68791">
        <ele>293.247894</ele>
        <time>2011-01-23T10:29:54Z</time>
      </trkpt>
      <trkpt lat="43.55079" lon="6.68765">
        <ele>292.574158</ele>
        <time>2011-01-23T10:29:59Z</time>
      </trkpt>
      <trkpt lat="43.55088" lon="6.68756">
        <ele>291.911163</ele>
        <time>2011-01-23T10:30:01Z</time>
      </trkpt>
      <trkpt lat="43.55094" lon="6.68735">
        <ele>290.965088</ele>
        <time>2011-01-23T10:30:05Z</time>
      </trkpt>
      <trkpt lat="43.55103" lon="6.68707">
        <ele>289.702698</ele>
        <time>2011-01-23T10:30:10Z</time>
      </trkpt>
      <trkpt lat="43.5512" lon="6.68705">
        <ele>289.203186</ele>
        <time>2011-01-23T10:30:14Z</time>
      </trkpt>
      <trkpt lat="43.55124" lon="6.68705">
        <ele>289.108307</ele>
        <time>2011-01-23T10:30:15Z</time>
      </trkpt>
      <trkpt lat="43.55135" lon="6.68696">
        <ele>288.30954</ele>
        <time>2011-01-23T10:30:18Z</time>
      </trkpt>
      <trkpt lat="43.55144" lon="6.68685">
        <ele>287.51004</ele>
        <time>2011-01-23T10:30:21Z</time>
      </trkpt>
      <trkpt lat="43.55176" lon="6.68651">
        <ele>285.843414</ele>
        <time>2011-01-23T10:30:35Z</time>
      </trkpt>
      <trkpt lat="43.5521" lon="6.68625">
        <ele>283.839233</ele>
        <time>2011-01-23T10:30:48Z</time>
      </trkpt>
      <trkpt lat="43.55214" lon="6.68625">
        <ele>283.660492</ele>
        <time>2011-01-23T10:30:50Z</time>
      </trkpt>
      <trkpt lat="43.55219" lon="6.68623">
        <ele>283.646423</ele>
        <time>2011-01-23T10:30:52Z</time>
      </trkpt>
      <trkpt lat="43.55225" lon="6.68606">
        <ele>284.833893</ele>
        <time>2011-01-23T10:31:00Z</time>
      </trkpt>
      <trkpt lat="43.55225" lon="6.68597">
        <ele>285.670959</ele>
        <time>2011-01-23T10:31:04Z</time>
      </trkpt>
      <trkpt lat="43.55223" lon="6.68591">
        <ele>286.302582</ele>
        <time>2011-01-23T10:31:08Z</time>
      </trkpt>
      <trkpt lat="43.55223" lon="6.68589">
        <ele>286.502899</ele>
        <time>2011-01-23T10:31:09Z</time>
      </trkpt>
      <trkpt lat="43.55223" lon="6.68585">
        <ele>286.901184</ele>
        <time>2011-01-23T10:31:15Z</time>
      </trkpt>
      <trkpt lat="43.55223" lon="6.68585">
        <ele>286.901184</ele>
        <time>2011-01-23T10:31:19Z</time>
      </trkpt>
      <trkpt lat="43.55223" lon="6.6858">
        <ele>287.296265</ele>
        <time>2011-01-23T10:31:22Z</time>
      </trkpt>
      <trkpt lat="43.55223" lon="6.68576">
        <ele>287.688171</ele>
        <time>2011-01-23T10:31:29Z</time>
      </trkpt>
      <trkpt lat="43.55223" lon="6.68572">
        <ele>288.076874</ele>
        <time>2011-01-23T10:31:34Z</time>
      </trkpt>
      <trkpt lat="43.55221" lon="6.68563">
        <ele>288.637817</ele>
        <time>2011-01-23T10:31:53Z</time>
      </trkpt>
      <trkpt lat="43.55221" lon="6.68563">
        <ele>288.637817</ele>
        <time>2011-01-23T10:32:05Z</time>
      </trkpt>
      <trkpt lat="43.55219" lon="6.68557">
        <ele>288.940613</ele>
        <time>2011-01-23T10:32:10Z</time>
      </trkpt>
      <trkpt lat="43.55219" lon="6.6855">
        <ele>289.441559</ele>
        <time>2011-01-23T10:32:16Z</time>
      </trkpt>
      <trkpt lat="43.55219" lon="6.68546">
        <ele>289.771515</ele>
        <time>2011-01-23T10:32:19Z</time>
      </trkpt>
      <trkpt lat="43.55221" lon="6.68548">
        <ele>289.88147</ele>
        <time>2011-01-23T10:32:22Z</time>
      </trkpt>
      <trkpt lat="43.55223" lon="6.68529">
        <ele>290.684906</ele>
        <time>2011-01-23T10:32:40Z</time>
      </trkpt>
      <trkpt lat="43.55223" lon="6.68527">
        <ele>290.69516</ele>
        <time>2011-01-23T10:32:42Z</time>
      </trkpt>
      <trkpt lat="43.55223" lon="6.68522">
        <ele>290.71402</ele>
        <time>2011-01-23T10:32:46Z</time>
      </trkpt>
      <trkpt lat="43.55225" lon="6.6852">
        <ele>291.080872</ele>
        <time>2011-01-23T10:32:53Z</time>
      </trkpt>
      <trkpt lat="43.55229" lon="6.6852">
        <ele>291.353149</ele>
        <time>2011-01-23T10:32:59Z</time>
      </trkpt>
      <trkpt lat="43.55232" lon="6.6852">
        <ele>291.337646</ele>
        <time>2011-01-23T10:33:05Z</time>
      </trkpt>
      <trkpt lat="43.55234" lon="6.68514">
        <ele>291.412903</ele>
        <time>2011-01-23T10:33:11Z</time>
      </trkpt>
      <trkpt lat="43.55236" lon="6.68512">
        <ele>291.420898</ele>
        <time>2011-01-23T10:33:20Z</time>
      </trkpt>
      <trkpt lat="43.55238" lon="6.68507">
        <ele>291.453064</ele>
        <time>2011-01-23T10:33:24Z</time>
      </trkpt>
      <trkpt lat="43.5524" lon="6.68505">
        <ele>291.452728</ele>
        <time>2011-01-23T10:33:28Z</time>
      </trkpt>
      <trkpt lat="43.55242" lon="6.68501">
        <ele>291.473663</ele>
        <time>2011-01-23T10:33:34Z</time>
      </trkpt>
      <trkpt lat="43.55244" lon="6.68486">
        <ele>291.606689</ele>
        <time>2011-01-23T10:33:41Z</time>
      </trkpt>
      <trkpt lat="43.55244" lon="6.68484">
        <ele>291.630798</ele>
        <time>2011-01-23T10:33:42Z</time>
      </trkpt>
      <trkpt lat="43.55247" lon="6.68473">
        <ele>291.538116</ele>
        <time>2011-01-23T10:33:59Z</time>
      </trkpt>
      <trkpt lat="43.55247" lon="6.68471">
        <ele>291.524139</ele>
        <time>2011-01-23T10:34:11Z</time>
      </trkpt>
      <trkpt lat="43.55249" lon="6.68464">
        <ele>291.487274</ele>
        <time>2011-01-23T10:34:15Z</time>
      </trkpt>
      <trkpt lat="43.55251" lon="6.68462">
        <ele>291.493622</ele>
        <time>2011-01-23T10:34:16Z</time>
      </trkpt>
      <trkpt lat="43.55255" lon="6.68456">
        <ele>291.556</ele>
        <time>2011-01-23T10:34:20Z</time>
      </trkpt>
      <trkpt lat="43.55255" lon="6.68454">
        <ele>291.564148</ele>
        <time>2011-01-23T10:34:21Z</time>
      </trkpt>
      <trkpt lat="43.55259" lon="6.68452">
        <ele>291.676514</ele>
        <time>2011-01-23T10:34:24Z</time>
      </trkpt>
      <trkpt lat="43.55266" lon="6.68449">
        <ele>291.881256</ele>
        <time>2011-01-23T10:34:28Z</time>
      </trkpt>
      <trkpt lat="43.55274" lon="6.68441">
        <ele>292.40155</ele>
        <time>2011-01-23T10:34:36Z</time>
      </trkpt>
      <trkpt lat="43.55274" lon="6.68441">
        <ele>292.40155</ele>
        <time>2011-01-23T10:34:38Z</time>
      </trkpt>
      <trkpt lat="43.55272" lon="6.68439">
        <ele>292.365784</ele>
        <time>2011-01-23T10:35:22Z</time>
      </trkpt>
      <trkpt lat="43.55287" lon="6.68424">
        <ele>292.72879</ele>
        <time>2011-01-23T10:35:29Z</time>
      </trkpt>
      <trkpt lat="43.553" lon="6.68415">
        <ele>292.240387</ele>
        <time>2011-01-23T10:35:36Z</time>
      </trkpt>
      <trkpt lat="43.55307" lon="6.68413">
        <ele>292.126007</ele>
        <time>2011-01-23T10:35:40Z</time>
      </trkpt>
      <trkpt lat="43.55322" lon="6.68415">
        <ele>291.979156</ele>
        <time>2011-01-23T10:35:46Z</time>
      </trkpt>
      <trkpt lat="43.55337" lon="6.68413">
        <ele>291.476257</ele>
        <time>2011-01-23T10:35:53Z</time>
      </trkpt>
      <trkpt lat="43.55362" lon="6.68396">
        <ele>291.187378</ele>
        <time>2011-01-23T10:36:06Z</time>
      </trkpt>
      <trkpt lat="43.55371" lon="6.68389">
        <ele>291.183228</ele>
        <time>2011-01-23T10:36:10Z</time>
      </trkpt>
      <trkpt lat="43.55384" lon="6.68389">
        <ele>290.748322</ele>
        <time>2011-01-23T10:36:17Z</time>
      </trkpt>
      <trkpt lat="43.55388" lon="6.68398">
        <ele>290.185547</ele>
        <time>2011-01-23T10:36:22Z</time>
      </trkpt>
      <trkpt lat="43.55388" lon="6.68398">
        <ele>290.185547</ele>
        <time>2011-01-23T10:36:24Z</time>
      </trkpt>
      <trkpt lat="43.55388" lon="6.68396">
        <ele>290.291412</ele>
        <time>2011-01-23T10:37:15Z</time>
      </trkpt>
      <trkpt lat="43.55388" lon="6.68396">
        <ele>290.291412</ele>
        <time>2011-01-23T10:37:28Z</time>
      </trkpt>
      <trkpt lat="43.55388" lon="6.68396">
        <ele>290.291412</ele>
        <time>2011-01-23T10:37:35Z</time>
      </trkpt>
      <trkpt lat="43.5539" lon="6.68402">
        <ele>289.883575</ele>
        <time>2011-01-23T10:37:37Z</time>
      </trkpt>
      <trkpt lat="43.5539" lon="6.68404">
        <ele>289.773621</ele>
        <time>2011-01-23T10:37:40Z</time>
      </trkpt>
      <trkpt lat="43.55395" lon="6.68409">
        <ele>289.355652</ele>
        <time>2011-01-23T10:37:43Z</time>
      </trkpt>
      <trkpt lat="43.55395" lon="6.68411">
        <ele>289.238342</ele>
        <time>2011-01-23T10:37:45Z</time>
      </trkpt>
      <trkpt lat="43.55397" lon="6.68415">
        <ele>288.895081</ele>
        <time>2011-01-23T10:37:49Z</time>
      </trkpt>
      <trkpt lat="43.55397" lon="6.68417">
        <ele>288.773651</ele>
        <time>2011-01-23T10:37:50Z</time>
      </trkpt>
      <trkpt lat="43.55399" lon="6.68419">
        <ele>288.538116</ele>
        <time>2011-01-23T10:37:53Z</time>
      </trkpt>
      <trkpt lat="43.55399" lon="6.68419">
        <ele>288.538116</ele>
        <time>2011-01-23T10:37:54Z</time>
      </trkpt>
      <trkpt lat="43.55401" lon="6.68424">
        <ele>288.167389</ele>
        <time>2011-01-23T10:37:59Z</time>
      </trkpt>
      <trkpt lat="43.55403" lon="6.68428">
        <ele>287.782898</ele>
        <time>2011-01-23T10:38:01Z</time>
      </trkpt>
      <trkpt lat="43.55405" lon="6.68434">
        <ele>287.213593</ele>
        <time>2011-01-23T10:38:06Z</time>
      </trkpt>
      <trkpt lat="43.5541" lon="6.68434">
        <ele>286.96051</ele>
        <time>2011-01-23T10:38:41Z</time>
      </trkpt>
      <trkpt lat="43.55412" lon="6.68441">
        <ele>286.134277</ele>
        <time>2011-01-23T10:38:46Z</time>
      </trkpt>
      <trkpt lat="43.55412" lon="6.68458">
        <ele>284.741302</ele>
        <time>2011-01-23T10:38:53Z</time>
      </trkpt>
      <trkpt lat="43.55414" lon="6.68469">
        <ele>283.720612</ele>
        <time>2011-01-23T10:38:58Z</time>
      </trkpt>
      <trkpt lat="43.55425" lon="6.68484">
        <ele>282.139557</ele>
        <time>2011-01-23T10:39:05Z</time>
      </trkpt>
      <trkpt lat="43.55427" lon="6.68484">
        <ele>282.029358</ele>
        <time>2011-01-23T10:39:06Z</time>
      </trkpt>
      <trkpt lat="43.55444" lon="6.68492">
        <ele>281.147278</ele>
        <time>2011-01-23T10:39:13Z</time>
      </trkpt>
      <trkpt lat="43.55444" lon="6.68492">
        <ele>281.147278</ele>
        <time>2011-01-23T10:39:14Z</time>
      </trkpt>
      <trkpt lat="43.55444" lon="6.68492">
        <ele>281.147278</ele>
        <time>2011-01-23T10:39:19Z</time>
      </trkpt>
      <trkpt lat="43.5545" lon="6.68499">
        <ele>280.990479</ele>
        <time>2011-01-23T10:39:22Z</time>
      </trkpt>
      <trkpt lat="43.55455" lon="6.68512">
        <ele>278.453308</ele>
        <time>2011-01-23T10:39:26Z</time>
      </trkpt>
      <trkpt lat="43.55455" lon="6.68518">
        <ele>277.47995</ele>
        <time>2011-01-23T10:39:28Z</time>
      </trkpt>
      <trkpt lat="43.55455" lon="6.68522">
        <ele>276.834381</ele>
        <time>2011-01-23T10:39:29Z</time>
      </trkpt>
      <trkpt lat="43.55461" lon="6.68546">
        <ele>272.080841</ele>
        <time>2011-01-23T10:39:37Z</time>
      </trkpt>
      <trkpt lat="43.55461" lon="6.68548">
        <ele>271.791107</ele>
        <time>2011-01-23T10:39:38Z</time>
      </trkpt>
      <trkpt lat="43.5547" lon="6.68555">
        <ele>269.372803</ele>
        <time>2011-01-23T10:39:42Z</time>
      </trkpt>
      <trkpt lat="43.55474" lon="6.68557">
        <ele>268.351105</ele>
        <time>2011-01-23T10:39:44Z</time>
      </trkpt>
      <trkpt lat="43.55489" lon="6.6858">
        <ele>263.966309</ele>
        <time>2011-01-23T10:39:53Z</time>
      </trkpt>
      <trkpt lat="43.55502" lon="6.686">
        <ele>261.080994</ele>
        <time>2011-01-23T10:39:59Z</time>
      </trkpt>
      <trkpt lat="43.55508" lon="6.68612">
        <ele>259.871765</ele>
        <time>2011-01-23T10:40:04Z</time>
      </trkpt>
      <trkpt lat="43.55515" lon="6.68615">
        <ele>259.09201</ele>
        <time>2011-01-23T10:40:07Z</time>
      </trkpt>
      <trkpt lat="43.55515" lon="6.68615">
        <ele>259.09201</ele>
        <time>2011-01-23T10:40:08Z</time>
      </trkpt>
      <trkpt lat="43.55515" lon="6.68615">
        <ele>259.09201</ele>
        <time>2011-01-23T10:40:10Z</time>
      </trkpt>
      <trkpt lat="43.55517" lon="6.68612">
        <ele>258.847839</ele>
        <time>2011-01-23T10:40:15Z</time>
      </trkpt>
      <trkpt lat="43.55517" lon="6.6861">
        <ele>258.852814</ele>
        <time>2011-01-23T10:41:04Z</time>
      </trkpt>
      <trkpt lat="43.55521" lon="6.68612">
        <ele>258.326813</ele>
        <time>2011-01-23T10:41:07Z</time>
      </trkpt>
      <trkpt lat="43.55523" lon="6.68615">
        <ele>258.089508</ele>
        <time>2011-01-23T10:41:09Z</time>
      </trkpt>
      <trkpt lat="43.55525" lon="6.68617">
        <ele>257.871277</ele>
        <time>2011-01-23T10:41:12Z</time>
      </trkpt>
      <trkpt lat="43.55532" lon="6.68619">
        <ele>257.195313</ele>
        <time>2011-01-23T10:41:17Z</time>
      </trkpt>
      <trkpt lat="43.55532" lon="6.68619">
        <ele>257.195313</ele>
        <time>2011-01-23T10:41:23Z</time>
      </trkpt>
      <trkpt lat="43.55536" lon="6.68621">
        <ele>256.799683</ele>
        <time>2011-01-23T10:41:57Z</time>
      </trkpt>
      <trkpt lat="43.55536" lon="6.68621">
        <ele>256.799683</ele>
        <time>2011-01-23T10:42:05Z</time>
      </trkpt>
      <trkpt lat="43.55541" lon="6.68628">
        <ele>256.40033</ele>
        <time>2011-01-23T10:42:19Z</time>
      </trkpt>
      <trkpt lat="43.55541" lon="6.68628">
        <ele>256.40033</ele>
        <time>2011-01-23T10:42:22Z</time>
      </trkpt>
      <trkpt lat="43.55545" lon="6.6863">
        <ele>255.673492</ele>
        <time>2011-01-23T10:42:35Z</time>
      </trkpt>
      <trkpt lat="43.55547" lon="6.6863">
        <ele>255.302795</ele>
        <time>2011-01-23T10:42:47Z</time>
      </trkpt>
      <trkpt lat="43.55547" lon="6.68634">
        <ele>255.059464</ele>
        <time>2011-01-23T10:42:49Z</time>
      </trkpt>
      <trkpt lat="43.55547" lon="6.68634">
        <ele>255.059464</ele>
        <time>2011-01-23T10:42:53Z</time>
      </trkpt>
      <trkpt lat="43.55547" lon="6.68634">
        <ele>255.059464</ele>
        <time>2011-01-23T10:42:56Z</time>
      </trkpt>
      <trkpt lat="43.55547" lon="6.68636">
        <ele>254.93959</ele>
        <time>2011-01-23T10:43:15Z</time>
      </trkpt>
      <trkpt lat="43.55547" lon="6.68636">
        <ele>254.93959</ele>
        <time>2011-01-23T10:43:32Z</time>
      </trkpt>
      <trkpt lat="43.55549" lon="6.68638">
        <ele>254.507294</ele>
        <time>2011-01-23T10:43:41Z</time>
      </trkpt>
      <trkpt lat="43.55547" lon="6.68636">
        <ele>254.93959</ele>
        <time>2011-01-23T10:43:42Z</time>
      </trkpt>
      <trkpt lat="43.55547" lon="6.68636">
        <ele>254.93959</ele>
        <time>2011-01-23T10:43:57Z</time>
      </trkpt>
      <trkpt lat="43.55547" lon="6.68636">
        <ele>254.93959</ele>
        <time>2011-01-23T10:43:58Z</time>
      </trkpt>
      <trkpt lat="43.55566" lon="6.68651">
        <ele>252.030716</ele>
        <time>2011-01-23T10:44:08Z</time>
      </trkpt>
      <trkpt lat="43.55571" lon="6.68655">
        <ele>251.645325</ele>
        <time>2011-01-23T10:44:10Z</time>
      </trkpt>
      <trkpt lat="43.55586" lon="6.68666">
        <ele>251.79097</ele>
        <time>2011-01-23T10:44:17Z</time>
      </trkpt>
      <trkpt lat="43.55596" lon="6.68675">
        <ele>253.769333</ele>
        <time>2011-01-23T10:44:23Z</time>
      </trkpt>
      <trkpt lat="43.55603" lon="6.68683">
        <ele>255.196686</ele>
        <time>2011-01-23T10:44:28Z</time>
      </trkpt>
      <trkpt lat="43.55607" lon="6.68683">
        <ele>255.747681</ele>
        <time>2011-01-23T10:44:31Z</time>
      </trkpt>
      <trkpt lat="43.55613" lon="6.68685">
        <ele>256.724396</ele>
        <time>2011-01-23T10:44:34Z</time>
      </trkpt>
      <trkpt lat="43.55616" lon="6.68685">
        <ele>256.999878</ele>
        <time>2011-01-23T10:44:35Z</time>
      </trkpt>
      <trkpt lat="43.55618" lon="6.68694">
        <ele>257.876251</ele>
        <time>2011-01-23T10:44:38Z</time>
      </trkpt>
      <trkpt lat="43.5562" lon="6.6872">
        <ele>256.418671</ele>
        <time>2011-01-23T10:44:47Z</time>
      </trkpt>
      <trkpt lat="43.55622" lon="6.68735">
        <ele>255.26355</ele>
        <time>2011-01-23T10:44:53Z</time>
      </trkpt>
      <trkpt lat="43.55626" lon="6.6875">
        <ele>254.709488</ele>
        <time>2011-01-23T10:44:58Z</time>
      </trkpt>
      <trkpt lat="43.55631" lon="6.68748">
        <ele>255.87532</ele>
        <time>2011-01-23T10:45:00Z</time>
      </trkpt>
      <trkpt lat="43.55633" lon="6.68748">
        <ele>256.359375</ele>
        <time>2011-01-23T10:45:01Z</time>
      </trkpt>
      <trkpt lat="43.55644" lon="6.68752">
        <ele>258.287262</ele>
        <time>2011-01-23T10:45:10Z</time>
      </trkpt>
      <trkpt lat="43.55665" lon="6.68754">
        <ele>262.78125</ele>
        <time>2011-01-23T10:45:23Z</time>
      </trkpt>
      <trkpt lat="43.55671" lon="6.68761">
        <ele>263.182007</ele>
        <time>2011-01-23T10:45:28Z</time>
      </trkpt>
      <trkpt lat="43.55667" lon="6.68769">
        <ele>261.610687</ele>
        <time>2011-01-23T10:45:32Z</time>
      </trkpt>
      <trkpt lat="43.55665" lon="6.68776">
        <ele>260.880951</ele>
        <time>2011-01-23T10:45:34Z</time>
      </trkpt>
      <trkpt lat="43.55665" lon="6.68782">
        <ele>260.534088</ele>
        <time>2011-01-23T10:45:37Z</time>
      </trkpt>
      <trkpt lat="43.55665" lon="6.68788">
        <ele>260.176483</ele>
        <time>2011-01-23T10:45:41Z</time>
      </trkpt>
      <trkpt lat="43.55665" lon="6.68788">
        <ele>260.176483</ele>
        <time>2011-01-23T10:46:11Z</time>
      </trkpt>
      <trkpt lat="43.55671" lon="6.68799">
        <ele>260.341888</ele>
        <time>2011-01-23T10:46:18Z</time>
      </trkpt>
      <trkpt lat="43.5568" lon="6.68808">
        <ele>260.662689</ele>
        <time>2011-01-23T10:46:24Z</time>
      </trkpt>
      <trkpt lat="43.55684" lon="6.68812">
        <ele>260.708679</ele>
        <time>2011-01-23T10:46:27Z</time>
      </trkpt>
      <trkpt lat="43.55691" lon="6.68816">
        <ele>260.885315</ele>
        <time>2011-01-23T10:46:30Z</time>
      </trkpt>
      <trkpt lat="43.55708" lon="6.68833">
        <ele>260.721436</ele>
        <time>2011-01-23T10:46:41Z</time>
      </trkpt>
      <trkpt lat="43.5571" lon="6.68836">
        <ele>260.847687</ele>
        <time>2011-01-23T10:46:42Z</time>
      </trkpt>
      <trkpt lat="43.55716" lon="6.6884">
        <ele>261.57666</ele>
        <time>2011-01-23T10:46:46Z</time>
      </trkpt>
      <trkpt lat="43.55729" lon="6.68842">
        <ele>263.202911</ele>
        <time>2011-01-23T10:46:53Z</time>
      </trkpt>
      <trkpt lat="43.55753" lon="6.68838">
        <ele>266.509155</ele>
        <time>2011-01-23T10:47:07Z</time>
      </trkpt>
      <trkpt lat="43.55757" lon="6.68833">
        <ele>267.279175</ele>
        <time>2011-01-23T10:47:10Z</time>
      </trkpt>
      <trkpt lat="43.55762" lon="6.68831">
        <ele>267.968597</ele>
        <time>2011-01-23T10:47:13Z</time>
      </trkpt>
      <trkpt lat="43.55766" lon="6.68827">
        <ele>269.132751</ele>
        <time>2011-01-23T10:47:16Z</time>
      </trkpt>
      <trkpt lat="43.5577" lon="6.68825">
        <ele>269.990326</ele>
        <time>2011-01-23T10:47:18Z</time>
      </trkpt>
      <trkpt lat="43.55774" lon="6.68818">
        <ele>271.338165</ele>
        <time>2011-01-23T10:47:22Z</time>
      </trkpt>
      <trkpt lat="43.55789" lon="6.68797">
        <ele>275.479706</ele>
        <time>2011-01-23T10:47:34Z</time>
      </trkpt>
      <trkpt lat="43.55807" lon="6.6878">
        <ele>278.576538</ele>
        <time>2011-01-23T10:47:46Z</time>
      </trkpt>
      <trkpt lat="43.55815" lon="6.68776">
        <ele>279.426361</ele>
        <time>2011-01-23T10:47:52Z</time>
      </trkpt>
      <trkpt lat="43.5583" lon="6.68763">
        <ele>280.246582</ele>
        <time>2011-01-23T10:48:04Z</time>
      </trkpt>
      <trkpt lat="43.55837" lon="6.68752">
        <ele>280.513458</ele>
        <time>2011-01-23T10:48:10Z</time>
      </trkpt>
      <trkpt lat="43.55845" lon="6.68748">
        <ele>280.887177</ele>
        <time>2011-01-23T10:48:16Z</time>
      </trkpt>
      <trkpt lat="43.55854" lon="6.68743">
        <ele>281.72229</ele>
        <time>2011-01-23T10:48:23Z</time>
      </trkpt>
      <trkpt lat="43.5586" lon="6.68743">
        <ele>282.516357</ele>
        <time>2011-01-23T10:48:28Z</time>
      </trkpt>
      <trkpt lat="43.55869" lon="6.68743">
        <ele>283.578674</ele>
        <time>2011-01-23T10:48:34Z</time>
      </trkpt>
      <trkpt lat="43.55877" lon="6.68752">
        <ele>284.595886</ele>
        <time>2011-01-23T10:48:41Z</time>
      </trkpt>
      <trkpt lat="43.55877" lon="6.68756">
        <ele>284.570526</ele>
        <time>2011-01-23T10:48:43Z</time>
      </trkpt>
      <trkpt lat="43.5588" lon="6.68761">
        <ele>284.798676</ele>
        <time>2011-01-23T10:48:46Z</time>
      </trkpt>
      <trkpt lat="43.55882" lon="6.68767">
        <ele>285.003235</ele>
        <time>2011-01-23T10:48:49Z</time>
      </trkpt>
      <trkpt lat="43.55882" lon="6.68773">
        <ele>284.952301</ele>
        <time>2011-01-23T10:48:52Z</time>
      </trkpt>
      <trkpt lat="43.55884" lon="6.68773">
        <ele>285.19696</ele>
        <time>2011-01-23T10:48:53Z</time>
      </trkpt>
      <trkpt lat="43.55888" lon="6.68782">
        <ele>285.455841</ele>
        <time>2011-01-23T10:48:59Z</time>
      </trkpt>
      <trkpt lat="43.5589" lon="6.68788">
        <ele>285.318054</ele>
        <time>2011-01-23T10:49:03Z</time>
      </trkpt>
      <trkpt lat="43.55892" lon="6.68793">
        <ele>285.437988</ele>
        <time>2011-01-23T10:49:06Z</time>
      </trkpt>
      <trkpt lat="43.55897" lon="6.68799">
        <ele>285.991089</ele>
        <time>2011-01-23T10:49:10Z</time>
      </trkpt>
      <trkpt lat="43.55903" lon="6.68803">
        <ele>287.172577</ele>
        <time>2011-01-23T10:49:15Z</time>
      </trkpt>
      <trkpt lat="43.55905" lon="6.68806">
        <ele>287.557617</ele>
        <time>2011-01-23T10:49:17Z</time>
      </trkpt>
      <trkpt lat="43.5591" lon="6.6881">
        <ele>288.365845</ele>
        <time>2011-01-23T10:49:22Z</time>
      </trkpt>
      <trkpt lat="43.55912" lon="6.6881">
        <ele>288.842285</ele>
        <time>2011-01-23T10:49:23Z</time>
      </trkpt>
      <trkpt lat="43.55916" lon="6.68814">
        <ele>289.712524</ele>
        <time>2011-01-23T10:49:28Z</time>
      </trkpt>
      <trkpt lat="43.55922" lon="6.68823">
        <ele>291.09552</ele>
        <time>2011-01-23T10:49:35Z</time>
      </trkpt>
      <trkpt lat="43.55929" lon="6.68829">
        <ele>292.631927</ele>
        <time>2011-01-23T10:49:41Z</time>
      </trkpt>
      <trkpt lat="43.55933" lon="6.68838">
        <ele>293.757294</ele>
        <time>2011-01-23T10:49:47Z</time>
      </trkpt>
      <trkpt lat="43.55935" lon="6.68842">
        <ele>294.30014</ele>
        <time>2011-01-23T10:49:50Z</time>
      </trkpt>
      <trkpt lat="43.55937" lon="6.68846">
        <ele>294.771637</ele>
        <time>2011-01-23T10:49:53Z</time>
      </trkpt>
      <trkpt lat="43.5594" lon="6.68855">
        <ele>295.053162</ele>
        <time>2011-01-23T10:49:58Z</time>
      </trkpt>
      <trkpt lat="43.55946" lon="6.68864">
        <ele>296.298798</ele>
        <time>2011-01-23T10:50:05Z</time>
      </trkpt>
      <trkpt lat="43.55963" lon="6.68883">
        <ele>299.704041</ele>
        <time>2011-01-23T10:50:19Z</time>
      </trkpt>
      <trkpt lat="43.55968" lon="6.68887">
        <ele>300.567902</ele>
        <time>2011-01-23T10:50:22Z</time>
      </trkpt>
      <trkpt lat="43.55978" lon="6.68894">
        <ele>302.773773</ele>
        <time>2011-01-23T10:50:30Z</time>
      </trkpt>
      <trkpt lat="43.55985" lon="6.68896">
        <ele>303.92453</ele>
        <time>2011-01-23T10:50:35Z</time>
      </trkpt>
      <trkpt lat="43.55989" lon="6.689">
        <ele>304.6716</ele>
        <time>2011-01-23T10:50:41Z</time>
      </trkpt>
      <trkpt lat="43.55995" lon="6.68906">
        <ele>305.863647</ele>
        <time>2011-01-23T10:50:46Z</time>
      </trkpt>
      <trkpt lat="43.56" lon="6.68917">
        <ele>306.921143</ele>
        <time>2011-01-23T10:50:52Z</time>
      </trkpt>
      <trkpt lat="43.56" lon="6.68917">
        <ele>306.921143</ele>
        <time>2011-01-23T10:50:53Z</time>
      </trkpt>
      <trkpt lat="43.56" lon="6.68924">
        <ele>307.156738</ele>
        <time>2011-01-23T10:50:56Z</time>
      </trkpt>
      <trkpt lat="43.56002" lon="6.68928">
        <ele>307.659088</ele>
        <time>2011-01-23T10:50:59Z</time>
      </trkpt>
      <trkpt lat="43.56" lon="6.6893">
        <ele>307.385162</ele>
        <time>2011-01-23T10:51:00Z</time>
      </trkpt>
      <trkpt lat="43.55998" lon="6.68939">
        <ele>307.380219</ele>
        <time>2011-01-23T10:51:04Z</time>
      </trkpt>
      <trkpt lat="43.55995" lon="6.68945">
        <ele>307.35437</ele>
        <time>2011-01-23T10:51:07Z</time>
      </trkpt>
      <trkpt lat="43.55993" lon="6.68958">
        <ele>307.668396</ele>
        <time>2011-01-23T10:51:12Z</time>
      </trkpt>
      <trkpt lat="43.55993" lon="6.68967">
        <ele>308.038818</ele>
        <time>2011-01-23T10:51:16Z</time>
      </trkpt>
      <trkpt lat="43.55993" lon="6.68979">
        <ele>308.325806</ele>
        <time>2011-01-23T10:51:22Z</time>
      </trkpt>
      <trkpt lat="43.55991" lon="6.68994">
        <ele>308.339264</ele>
        <time>2011-01-23T10:51:28Z</time>
      </trkpt>
      <trkpt lat="43.55995" lon="6.69009">
        <ele>308.170715</ele>
        <time>2011-01-23T10:51:34Z</time>
      </trkpt>
      <trkpt lat="43.56002" lon="6.69001">
        <ele>308.132538</ele>
        <time>2011-01-23T10:51:39Z</time>
      </trkpt>
      <trkpt lat="43.56028" lon="6.6893">
        <ele>310.203857</ele>
        <time>2011-01-23T10:52:04Z</time>
      </trkpt>
      <trkpt lat="43.56064" lon="6.68821">
        <ele>313.277222</ele>
        <time>2011-01-23T10:52:32Z</time>
      </trkpt>
      <trkpt lat="43.56073" lon="6.68786">
        <ele>313.528809</ele>
        <time>2011-01-23T10:52:39Z</time>
      </trkpt>
      <trkpt lat="43.56075" lon="6.6878">
        <ele>313.190765</ele>
        <time>2011-01-23T10:52:40Z</time>
      </trkpt>
      <trkpt lat="43.56079" lon="6.6873">
        <ele>309.149841</ele>
        <time>2011-01-23T10:52:44Z</time>
      </trkpt>
      <trkpt lat="43.56079" lon="6.68718">
        <ele>308.109131</ele>
        <time>2011-01-23T10:52:45Z</time>
      </trkpt>
      <trkpt lat="43.56073" lon="6.68677">
        <ele>304.08728</ele>
        <time>2011-01-23T10:52:48Z</time>
      </trkpt>
      <trkpt lat="43.56066" lon="6.68632">
        <ele>300.699768</ele>
        <time>2011-01-23T10:52:51Z</time>
      </trkpt>
      <trkpt lat="43.56058" lon="6.68555">
        <ele>296.282349</ele>
        <time>2011-01-23T10:52:53Z</time>
      </trkpt>
      <trkpt lat="43.56053" lon="6.68512">
        <ele>295.051697</ele>
        <time>2011-01-23T10:52:56Z</time>
      </trkpt>
      <trkpt lat="43.56047" lon="6.68473">
        <ele>294.190033</ele>
        <time>2011-01-23T10:52:59Z</time>
      </trkpt>
      <trkpt lat="43.56025" lon="6.68381">
        <ele>291.863434</ele>
        <time>2011-01-23T10:53:07Z</time>
      </trkpt>
      <trkpt lat="43.55974" lon="6.68224">
        <ele>290.228088</ele>
        <time>2011-01-23T10:53:22Z</time>
      </trkpt>
      <trkpt lat="43.55963" lon="6.6817">
        <ele>289.926544</ele>
        <time>2011-01-23T10:53:27Z</time>
      </trkpt>
      <trkpt lat="43.55961" lon="6.6816">
        <ele>289.478119</ele>
        <time>2011-01-23T10:53:28Z</time>
      </trkpt>
      <trkpt lat="43.55963" lon="6.68136">
        <ele>287.553406</ele>
        <time>2011-01-23T10:53:30Z</time>
      </trkpt>
      <trkpt lat="43.56006" lon="6.67994">
        <ele>282.409698</ele>
        <time>2011-01-23T10:53:44Z</time>
      </trkpt>
      <trkpt lat="43.5603" lon="6.67913">
        <ele>281.639282</ele>
        <time>2011-01-23T10:53:53Z</time>
      </trkpt>
      <trkpt lat="43.56079" lon="6.67806">
        <ele>281.979309</ele>
        <time>2011-01-23T10:54:09Z</time>
      </trkpt>
      <trkpt lat="43.56113" lon="6.67713">
        <ele>283.426025</ele>
        <time>2011-01-23T10:54:23Z</time>
      </trkpt>
      <trkpt lat="43.56148" lon="6.67651">
        <ele>283.716675</ele>
        <time>2011-01-23T10:54:35Z</time>
      </trkpt>
      <trkpt lat="43.56135" lon="6.67587">
        <ele>283.688843</ele>
        <time>2011-01-23T10:54:47Z</time>
      </trkpt>
      <trkpt lat="43.56124" lon="6.67563">
        <ele>283.990692</ele>
        <time>2011-01-23T10:54:52Z</time>
      </trkpt>
      <trkpt lat="43.56113" lon="6.67548">
        <ele>284.559418</ele>
        <time>2011-01-23T10:54:56Z</time>
      </trkpt>
      <trkpt lat="43.56098" lon="6.6754">
        <ele>284.936432</ele>
        <time>2011-01-23T10:55:00Z</time>
      </trkpt>
      <trkpt lat="43.56088" lon="6.67535">
        <ele>285.143066</ele>
        <time>2011-01-23T10:55:03Z</time>
      </trkpt>
      <trkpt lat="43.56083" lon="6.67533">
        <ele>285.280396</ele>
        <time>2011-01-23T10:55:04Z</time>
      </trkpt>
      <trkpt lat="43.5603" lon="6.67529">
        <ele>281.765289</ele>
        <time>2011-01-23T10:55:10Z</time>
      </trkpt>
      <trkpt lat="43.56025" lon="6.6749">
        <ele>283.755707</ele>
        <time>2011-01-23T10:55:17Z</time>
      </trkpt>
      <trkpt lat="43.56025" lon="6.67419">
        <ele>280.157532</ele>
        <time>2011-01-23T10:55:27Z</time>
      </trkpt>
      <trkpt lat="43.56025" lon="6.67368">
        <ele>276.95816</ele>
        <time>2011-01-23T10:55:34Z</time>
      </trkpt>
      <trkpt lat="43.5603" lon="6.67355">
        <ele>276.861664</ele>
        <time>2011-01-23T10:55:36Z</time>
      </trkpt>
      <trkpt lat="43.56043" lon="6.67312">
        <ele>276.307251</ele>
        <time>2011-01-23T10:55:42Z</time>
      </trkpt>
      <trkpt lat="43.56047" lon="6.67301">
        <ele>276.823486</ele>
        <time>2011-01-23T10:55:44Z</time>
      </trkpt>
      <trkpt lat="43.56055" lon="6.67276">
        <ele>277.25589</ele>
        <time>2011-01-23T10:55:48Z</time>
      </trkpt>
      <trkpt lat="43.5609" lon="6.67158">
        <ele>272.827148</ele>
        <time>2011-01-23T10:56:05Z</time>
      </trkpt>
      <trkpt lat="43.56126" lon="6.67055">
        <ele>270.181549</ele>
        <time>2011-01-23T10:56:20Z</time>
      </trkpt>
      <trkpt lat="43.56165" lon="6.66954">
        <ele>267.305145</ele>
        <time>2011-01-23T10:56:35Z</time>
      </trkpt>
      <trkpt lat="43.56178" lon="6.66922">
        <ele>265.896393</ele>
        <time>2011-01-23T10:56:40Z</time>
      </trkpt>
      <trkpt lat="43.56197" lon="6.66874">
        <ele>262.853516</ele>
        <time>2011-01-23T10:56:47Z</time>
      </trkpt>
      <trkpt lat="43.56221" lon="6.66827">
        <ele>260.322418</ele>
        <time>2011-01-23T10:56:54Z</time>
      </trkpt>
      <trkpt lat="43.56225" lon="6.66823">
        <ele>260.420349</ele>
        <time>2011-01-23T10:56:55Z</time>
      </trkpt>
      <trkpt lat="43.56272" lon="6.66746">
        <ele>254.799911</ele>
        <time>2011-01-23T10:57:07Z</time>
      </trkpt>
      <trkpt lat="43.563" lon="6.66688">
        <ele>249.131943</ele>
        <time>2011-01-23T10:57:16Z</time>
      </trkpt>
      <trkpt lat="43.56309" lon="6.66662">
        <ele>246.987488</ele>
        <time>2011-01-23T10:57:22Z</time>
      </trkpt>
      <trkpt lat="43.56343" lon="6.66565">
        <ele>239.942245</ele>
        <time>2011-01-23T10:57:53Z</time>
      </trkpt>
      <trkpt lat="43.56347" lon="6.66641">
        <ele>247.245224</ele>
        <time>2011-01-23T10:58:44Z</time>
      </trkpt>
      <trkpt lat="43.56349" lon="6.66643">
        <ele>247.6064</ele>
        <time>2011-01-23T10:58:45Z</time>
      </trkpt>
      <trkpt lat="43.56354" lon="6.66645">
        <ele>248.144684</ele>
        <time>2011-01-23T10:58:48Z</time>
      </trkpt>
      <trkpt lat="43.56354" lon="6.66647">
        <ele>248.338287</ele>
        <time>2011-01-23T10:58:49Z</time>
      </trkpt>
      <trkpt lat="43.56362" lon="6.66653">
        <ele>249.808472</ele>
        <time>2011-01-23T10:58:51Z</time>
      </trkpt>
      <trkpt lat="43.56375" lon="6.66649">
        <ele>250.290466</ele>
        <time>2011-01-23T10:58:58Z</time>
      </trkpt>
      <trkpt lat="43.56382" lon="6.66643">
        <ele>250.16803</ele>
        <time>2011-01-23T10:59:02Z</time>
      </trkpt>
      <trkpt lat="43.56384" lon="6.66641">
        <ele>250.115662</ele>
        <time>2011-01-23T10:59:04Z</time>
      </trkpt>
      <trkpt lat="43.56388" lon="6.66638">
        <ele>250.20929</ele>
        <time>2011-01-23T10:59:07Z</time>
      </trkpt>
      <trkpt lat="43.5639" lon="6.66638">
        <ele>250.3638</ele>
        <time>2011-01-23T10:59:08Z</time>
      </trkpt>
      <trkpt lat="43.56395" lon="6.66638">
        <ele>250.67131</ele>
        <time>2011-01-23T10:59:11Z</time>
      </trkpt>
      <trkpt lat="43.56401" lon="6.66641">
        <ele>251.372086</ele>
        <time>2011-01-23T10:59:13Z</time>
      </trkpt>
      <trkpt lat="43.5641" lon="6.66643">
        <ele>252.244965</ele>
        <time>2011-01-23T10:59:16Z</time>
      </trkpt>
      <trkpt lat="43.56422" lon="6.66643">
        <ele>253.173965</ele>
        <time>2011-01-23T10:59:21Z</time>
      </trkpt>
      <trkpt lat="43.56427" lon="6.66641">
        <ele>253.196548</ele>
        <time>2011-01-23T10:59:23Z</time>
      </trkpt>
      <trkpt lat="43.5651" lon="6.66613">
        <ele>250.834213</ele>
        <time>2011-01-23T10:59:59Z</time>
      </trkpt>
      <trkpt lat="43.5651" lon="6.66613">
        <ele>250.834213</ele>
        <time>2011-01-23T11:00:28Z</time>
      </trkpt>
      <trkpt lat="43.5651" lon="6.66613">
        <ele>250.834213</ele>
        <time>2011-01-23T11:01:08Z</time>
      </trkpt>
      <trkpt lat="43.5651" lon="6.66613">
        <ele>250.834213</ele>
        <time>2011-01-23T11:01:23Z</time>
      </trkpt>
      <trkpt lat="43.5651" lon="6.66613">
        <ele>250.834213</ele>
        <time>2011-01-23T11:01:29Z</time>
      </trkpt>
      <trkpt lat="43.56605" lon="6.66568">
        <ele>238.416214</ele>
        <time>2011-01-23T11:01:38Z</time>
      </trkpt>
      <trkpt lat="43.56616" lon="6.66538">
        <ele>237.618729</ele>
        <time>2011-01-23T11:01:39Z</time>
      </trkpt>
      <trkpt lat="43.56648" lon="6.66578">
        <ele>234.196838</ele>
        <time>2011-01-23T11:01:40Z</time>
      </trkpt>
      <trkpt lat="43.56639" lon="6.66563">
        <ele>233.761734</ele>
        <time>2011-01-23T11:01:43Z</time>
      </trkpt>
      <trkpt lat="43.56643" lon="6.66548">
        <ele>231.722916</ele>
        <time>2011-01-23T11:01:50Z</time>
      </trkpt>
      <trkpt lat="43.56661" lon="6.66557">
        <ele>230.4599</ele>
        <time>2011-01-23T11:01:52Z</time>
      </trkpt>
      <trkpt lat="43.56658" lon="6.6654">
        <ele>228.741913</ele>
        <time>2011-01-23T11:01:54Z</time>
      </trkpt>
      <trkpt lat="43.56648" lon="6.6652">
        <ele>230.619156</ele>
        <time>2011-01-23T11:01:59Z</time>
      </trkpt>
      <trkpt lat="43.56654" lon="6.6652">
        <ele>228.950745</ele>
        <time>2011-01-23T11:02:00Z</time>
      </trkpt>
      <trkpt lat="43.56654" lon="6.66518">
        <ele>228.918793</ele>
        <time>2011-01-23T11:02:01Z</time>
      </trkpt>
      <trkpt lat="43.56663" lon="6.66512">
        <ele>227.478455</ele>
        <time>2011-01-23T11:02:05Z</time>
      </trkpt>
      <trkpt lat="43.56665" lon="6.66495">
        <ele>226.534851</ele>
        <time>2011-01-23T11:02:09Z</time>
      </trkpt>
      <trkpt lat="43.56667" lon="6.66484">
        <ele>225.889175</ele>
        <time>2011-01-23T11:02:11Z</time>
      </trkpt>
      <trkpt lat="43.56673" lon="6.66477">
        <ele>224.982101</ele>
        <time>2011-01-23T11:02:14Z</time>
      </trkpt>
      <trkpt lat="43.56676" lon="6.66477">
        <ele>224.679367</ele>
        <time>2011-01-23T11:02:15Z</time>
      </trkpt>
      <trkpt lat="43.5668" lon="6.66469">
        <ele>223.994492</ele>
        <time>2011-01-23T11:02:18Z</time>
      </trkpt>
      <trkpt lat="43.56682" lon="6.66467">
        <ele>223.654968</ele>
        <time>2011-01-23T11:02:22Z</time>
      </trkpt>
      <trkpt lat="43.56684" lon="6.66462">
        <ele>223.283737</ele>
        <time>2011-01-23T11:02:25Z</time>
      </trkpt>
      <trkpt lat="43.56684" lon="6.6646">
        <ele>223.259125</ele>
        <time>2011-01-23T11:02:28Z</time>
      </trkpt>
      <trkpt lat="43.56686" lon="6.66456">
        <ele>222.872498</ele>
        <time>2011-01-23T11:02:31Z</time>
      </trkpt>
      <trkpt lat="43.56688" lon="6.66454">
        <ele>222.503387</ele>
        <time>2011-01-23T11:02:33Z</time>
      </trkpt>
      <trkpt lat="43.56693" lon="6.6645">
        <ele>221.744705</ele>
        <time>2011-01-23T11:02:37Z</time>
      </trkpt>
      <trkpt lat="43.56693" lon="6.66447">
        <ele>221.708496</ele>
        <time>2011-01-23T11:02:38Z</time>
      </trkpt>
      <trkpt lat="43.56691" lon="6.66445">
        <ele>222.028732</ele>
        <time>2011-01-23T11:02:41Z</time>
      </trkpt>
      <trkpt lat="43.56691" lon="6.66441">
        <ele>221.964233</ele>
        <time>2011-01-23T11:02:43Z</time>
      </trkpt>
      <trkpt lat="43.56688" lon="6.66439">
        <ele>222.297943</ele>
        <time>2011-01-23T11:02:48Z</time>
      </trkpt>
      <trkpt lat="43.56688" lon="6.66435">
        <ele>222.241623</ele>
        <time>2011-01-23T11:02:51Z</time>
      </trkpt>
      <trkpt lat="43.56682" lon="6.66413">
        <ele>223.915665</ele>
        <time>2011-01-23T11:03:04Z</time>
      </trkpt>
      <trkpt lat="43.56682" lon="6.66411">
        <ele>224.023849</ele>
        <time>2011-01-23T11:03:05Z</time>
      </trkpt>
      <trkpt lat="43.56684" lon="6.66407">
        <ele>223.822403</ele>
        <time>2011-01-23T11:03:07Z</time>
      </trkpt>
      <trkpt lat="43.56686" lon="6.66402">
        <ele>223.60202</ele>
        <time>2011-01-23T11:03:10Z</time>
      </trkpt>
      <trkpt lat="43.56688" lon="6.66398">
        <ele>223.362701</ele>
        <time>2011-01-23T11:03:11Z</time>
      </trkpt>
      <trkpt lat="43.56693" lon="6.66389">
        <ele>222.827255</ele>
        <time>2011-01-23T11:03:14Z</time>
      </trkpt>
      <trkpt lat="43.56701" lon="6.66377">
        <ele>221.387817</ele>
        <time>2011-01-23T11:03:21Z</time>
      </trkpt>
      <trkpt lat="43.56725" lon="6.66355">
        <ele>219.276917</ele>
        <time>2011-01-23T11:03:59Z</time>
      </trkpt>
      <trkpt lat="43.56725" lon="6.66351">
        <ele>219.28302</ele>
        <time>2011-01-23T11:04:01Z</time>
      </trkpt>
      <trkpt lat="43.56729" lon="6.66344">
        <ele>218.997772</ele>
        <time>2011-01-23T11:04:11Z</time>
      </trkpt>
      <trkpt lat="43.56736" lon="6.66332">
        <ele>218.43277</ele>
        <time>2011-01-23T11:04:29Z</time>
      </trkpt>
      <trkpt lat="43.56736" lon="6.66332">
        <ele>218.43277</ele>
        <time>2011-01-23T11:05:18Z</time>
      </trkpt>
      <trkpt lat="43.56736" lon="6.66332">
        <ele>218.43277</ele>
        <time>2011-01-23T11:05:20Z</time>
      </trkpt>
      <trkpt lat="43.56787" lon="6.66265">
        <ele>209.979385</ele>
        <time>2011-01-23T11:06:01Z</time>
      </trkpt>
      <trkpt lat="43.56852" lon="6.66254">
        <ele>201.261917</ele>
        <time>2011-01-23T11:06:05Z</time>
      </trkpt>
      <trkpt lat="43.56901" lon="6.66248">
        <ele>199.736588</ele>
        <time>2011-01-23T11:06:33Z</time>
      </trkpt>
      <trkpt lat="43.56933" lon="6.66246">
        <ele>199.283112</ele>
        <time>2011-01-23T11:06:47Z</time>
      </trkpt>
      <trkpt lat="43.56937" lon="6.66248">
        <ele>199.199722</ele>
        <time>2011-01-23T11:06:48Z</time>
      </trkpt>
      <trkpt lat="43.56959" lon="6.66252">
        <ele>199.932037</ele>
        <time>2011-01-23T11:06:57Z</time>
      </trkpt>
      <trkpt lat="43.56961" lon="6.66254">
        <ele>200.017578</ele>
        <time>2011-01-23T11:06:58Z</time>
      </trkpt>
      <trkpt lat="43.5697" lon="6.66254">
        <ele>200.352081</ele>
        <time>2011-01-23T11:07:03Z</time>
      </trkpt>
      <trkpt lat="43.56976" lon="6.66256">
        <ele>200.624985</ele>
        <time>2011-01-23T11:07:06Z</time>
      </trkpt>
      <trkpt lat="43.57" lon="6.66269">
        <ele>202.947403</ele>
        <time>2011-01-23T11:07:22Z</time>
      </trkpt>
      <trkpt lat="43.57017" lon="6.6628">
        <ele>206.018158</ele>
        <time>2011-01-23T11:07:35Z</time>
      </trkpt>
      <trkpt lat="43.57038" lon="6.66218">
        <ele>203.039825</ele>
        <time>2011-01-23T11:07:43Z</time>
      </trkpt>
      <trkpt lat="43.57023" lon="6.6622">
        <ele>202.424713</ele>
        <time>2011-01-23T11:07:44Z</time>
      </trkpt>
      <trkpt lat="43.57023" lon="6.66196">
        <ele>202.550323</ele>
        <time>2011-01-23T11:07:49Z</time>
      </trkpt>
      <trkpt lat="43.57021" lon="6.66168">
        <ele>205.541519</ele>
        <time>2011-01-23T11:07:57Z</time>
      </trkpt>
      <trkpt lat="43.57021" lon="6.66158">
        <ele>206.735733</ele>
        <time>2011-01-23T11:08:02Z</time>
      </trkpt>
      <trkpt lat="43.57019" lon="6.66153">
        <ele>207.09967</ele>
        <time>2011-01-23T11:08:04Z</time>
      </trkpt>
      <trkpt lat="43.57015" lon="6.66145">
        <ele>207.827576</ele>
        <time>2011-01-23T11:08:08Z</time>
      </trkpt>
      <trkpt lat="43.56967" lon="6.66078">
        <ele>212.251877</ele>
        <time>2011-01-23T11:08:39Z</time>
      </trkpt>
      <trkpt lat="43.56965" lon="6.66074">
        <ele>212.609802</ele>
        <time>2011-01-23T11:08:41Z</time>
      </trkpt>
      <trkpt lat="43.56933" lon="6.66087">
        <ele>209.954498</ele>
        <time>2011-01-23T11:08:48Z</time>
      </trkpt>
      <trkpt lat="43.56933" lon="6.66087">
        <ele>209.954498</ele>
        <time>2011-01-23T11:08:49Z</time>
      </trkpt>
      <trkpt lat="43.56888" lon="6.66085">
        <ele>206.944778</ele>
        <time>2011-01-23T11:09:06Z</time>
      </trkpt>
      <trkpt lat="43.56877" lon="6.66074">
        <ele>206.511139</ele>
        <time>2011-01-23T11:09:12Z</time>
      </trkpt>
      <trkpt lat="43.56875" lon="6.66072">
        <ele>206.395813</ele>
        <time>2011-01-23T11:09:13Z</time>
      </trkpt>
      <trkpt lat="43.56875" lon="6.66059">
        <ele>208.489182</ele>
        <time>2011-01-23T11:09:17Z</time>
      </trkpt>
      <trkpt lat="43.56873" lon="6.6604">
        <ele>211.920258</ele>
        <time>2011-01-23T11:09:23Z</time>
      </trkpt>
      <trkpt lat="43.56871" lon="6.66023">
        <ele>215.122879</ele>
        <time>2011-01-23T11:09:28Z</time>
      </trkpt>
      <trkpt lat="43.5686" lon="6.66029">
        <ele>212.994705</ele>
        <time>2011-01-23T11:09:32Z</time>
      </trkpt>
      <trkpt lat="43.56849" lon="6.66031">
        <ele>211.333542</ele>
        <time>2011-01-23T11:09:36Z</time>
      </trkpt>
      <trkpt lat="43.56845" lon="6.66031">
        <ele>210.812012</ele>
        <time>2011-01-23T11:09:38Z</time>
      </trkpt>
      <trkpt lat="43.56822" lon="6.66023">
        <ele>209.572372</ele>
        <time>2011-01-23T11:09:47Z</time>
      </trkpt>
      <trkpt lat="43.56807" lon="6.6599">
        <ele>212.30278</ele>
        <time>2011-01-23T11:09:55Z</time>
      </trkpt>
      <trkpt lat="43.56796" lon="6.65984">
        <ele>211.074646</ele>
        <time>2011-01-23T11:09:57Z</time>
      </trkpt>
      <trkpt lat="43.56774" lon="6.65956">
        <ele>209.390854</ele>
        <time>2011-01-23T11:10:02Z</time>
      </trkpt>
      <trkpt lat="43.56759" lon="6.65898">
        <ele>210.584549</ele>
        <time>2011-01-23T11:10:08Z</time>
      </trkpt>
      <trkpt lat="43.56755" lon="6.6589">
        <ele>210.109955</ele>
        <time>2011-01-23T11:10:09Z</time>
      </trkpt>
      <trkpt lat="43.56729" lon="6.65857">
        <ele>205.294922</ele>
        <time>2011-01-23T11:10:13Z</time>
      </trkpt>
      <trkpt lat="43.56688" lon="6.65808">
        <ele>201.429688</ele>
        <time>2011-01-23T11:10:19Z</time>
      </trkpt>
      <trkpt lat="43.56656" lon="6.65776">
        <ele>200.029816</ele>
        <time>2011-01-23T11:10:25Z</time>
      </trkpt>
      <trkpt lat="43.56613" lon="6.65741">
        <ele>197.990463</ele>
        <time>2011-01-23T11:10:32Z</time>
      </trkpt>
      <trkpt lat="43.56613" lon="6.6572">
        <ele>198.273148</ele>
        <time>2011-01-23T11:10:35Z</time>
      </trkpt>
      <trkpt lat="43.56613" lon="6.65714">
        <ele>198.374222</ele>
        <time>2011-01-23T11:10:36Z</time>
      </trkpt>
      <trkpt lat="43.56626" lon="6.6569">
        <ele>198.947968</ele>
        <time>2011-01-23T11:10:44Z</time>
      </trkpt>
      <trkpt lat="43.56631" lon="6.65688">
        <ele>198.998795</ele>
        <time>2011-01-23T11:10:46Z</time>
      </trkpt>
      <trkpt lat="43.56646" lon="6.65684">
        <ele>199.051498</ele>
        <time>2011-01-23T11:10:55Z</time>
      </trkpt>
      <trkpt lat="43.56652" lon="6.65681">
        <ele>199.682831</ele>
        <time>2011-01-23T11:10:59Z</time>
      </trkpt>
      <trkpt lat="43.56656" lon="6.65681">
        <ele>200.154617</ele>
        <time>2011-01-23T11:11:02Z</time>
      </trkpt>
      <trkpt lat="43.56663" lon="6.65679">
        <ele>200.96582</ele>
        <time>2011-01-23T11:11:06Z</time>
      </trkpt>
      <trkpt lat="43.56686" lon="6.65671">
        <ele>203.714996</ele>
        <time>2011-01-23T11:11:19Z</time>
      </trkpt>
      <trkpt lat="43.56708" lon="6.65664">
        <ele>206.608887</ele>
        <time>2011-01-23T11:11:32Z</time>
      </trkpt>
      <trkpt lat="43.56714" lon="6.65662">
        <ele>207.502014</ele>
        <time>2011-01-23T11:11:35Z</time>
      </trkpt>
      <trkpt lat="43.56716" lon="6.65666">
        <ele>207.830414</ele>
        <time>2011-01-23T11:11:42Z</time>
      </trkpt>
      <trkpt lat="43.56723" lon="6.65668">
        <ele>208.765259</ele>
        <time>2011-01-23T11:11:45Z</time>
      </trkpt>
      <trkpt lat="43.56727" lon="6.65664">
        <ele>209.310944</ele>
        <time>2011-01-23T11:11:48Z</time>
      </trkpt>
      <trkpt lat="43.56731" lon="6.65653">
        <ele>209.7164</ele>
        <time>2011-01-23T11:11:53Z</time>
      </trkpt>
      <trkpt lat="43.56734" lon="6.65649">
        <ele>209.916107</ele>
        <time>2011-01-23T11:11:55Z</time>
      </trkpt>
      <trkpt lat="43.56738" lon="6.65643">
        <ele>210.313583</ele>
        <time>2011-01-23T11:11:58Z</time>
      </trkpt>
      <trkpt lat="43.5674" lon="6.65641">
        <ele>210.470245</ele>
        <time>2011-01-23T11:11:59Z</time>
      </trkpt>
      <trkpt lat="43.5674" lon="6.65638">
        <ele>210.425705</ele>
        <time>2011-01-23T11:12:00Z</time>
      </trkpt>
      <trkpt lat="43.56746" lon="6.6563">
        <ele>210.821701</ele>
        <time>2011-01-23T11:12:04Z</time>
      </trkpt>
      <trkpt lat="43.56749" lon="6.65628">
        <ele>210.961685</ele>
        <time>2011-01-23T11:12:05Z</time>
      </trkpt>
      <trkpt lat="43.56755" lon="6.65621">
        <ele>211.534409</ele>
        <time>2011-01-23T11:12:09Z</time>
      </trkpt>
      <trkpt lat="43.56764" lon="6.65613">
        <ele>212.317535</ele>
        <time>2011-01-23T11:12:14Z</time>
      </trkpt>
      <trkpt lat="43.56772" lon="6.65604">
        <ele>213.046051</ele>
        <time>2011-01-23T11:12:20Z</time>
      </trkpt>
      <trkpt lat="43.56815" lon="6.65531">
        <ele>217.192734</ele>
        <time>2011-01-23T11:12:52Z</time>
      </trkpt>
      <trkpt lat="43.56847" lon="6.65458">
        <ele>217.861786</ele>
        <time>2011-01-23T11:13:17Z</time>
      </trkpt>
      <trkpt lat="43.56849" lon="6.65443">
        <ele>217.769852</ele>
        <time>2011-01-23T11:13:23Z</time>
      </trkpt>
      <trkpt lat="43.56839" lon="6.65439">
        <ele>218.068283</ele>
        <time>2011-01-23T11:13:27Z</time>
      </trkpt>
      <trkpt lat="43.56837" lon="6.65439">
        <ele>218.113342</ele>
        <time>2011-01-23T11:13:28Z</time>
      </trkpt>
      <trkpt lat="43.56813" lon="6.65426">
        <ele>220.699417</ele>
        <time>2011-01-23T11:13:40Z</time>
      </trkpt>
      <trkpt lat="43.56802" lon="6.6542">
        <ele>222.057343</ele>
        <time>2011-01-23T11:13:46Z</time>
      </trkpt>
      <trkpt lat="43.56796" lon="6.65417">
        <ele>222.829254</ele>
        <time>2011-01-23T11:13:50Z</time>
      </trkpt>
      <trkpt lat="43.5677" lon="6.65405">
        <ele>225.982605</ele>
        <time>2011-01-23T11:14:08Z</time>
      </trkpt>
      <trkpt lat="43.56768" lon="6.65405">
        <ele>226.180115</ele>
        <time>2011-01-23T11:14:09Z</time>
      </trkpt>
      <trkpt lat="43.56768" lon="6.65405">
        <ele>226.180115</ele>
        <time>2011-01-23T11:14:10Z</time>
      </trkpt>
      <trkpt lat="43.56757" lon="6.65398">
        <ele>227.814377</ele>
        <time>2011-01-23T11:14:17Z</time>
      </trkpt>
      <trkpt lat="43.56749" lon="6.65392">
        <ele>229.399078</ele>
        <time>2011-01-23T11:14:25Z</time>
      </trkpt>
      <trkpt lat="43.56744" lon="6.65387">
        <ele>230.454468</ele>
        <time>2011-01-23T11:14:28Z</time>
      </trkpt>
      <trkpt lat="43.56738" lon="6.65381">
        <ele>232.167313</ele>
        <time>2011-01-23T11:14:35Z</time>
      </trkpt>
      <trkpt lat="43.56731" lon="6.65377">
        <ele>233.628723</ele>
        <time>2011-01-23T11:14:41Z</time>
      </trkpt>
      <trkpt lat="43.56727" lon="6.65368">
        <ele>234.685486</ele>
        <time>2011-01-23T11:14:47Z</time>
      </trkpt>
      <trkpt lat="43.56725" lon="6.65366">
        <ele>235.104797</ele>
        <time>2011-01-23T11:14:50Z</time>
      </trkpt>
      <trkpt lat="43.56719" lon="6.65357">
        <ele>236.437088</ele>
        <time>2011-01-23T11:14:57Z</time>
      </trkpt>
      <trkpt lat="43.56714" lon="6.65351">
        <ele>237.333267</ele>
        <time>2011-01-23T11:15:04Z</time>
      </trkpt>
      <trkpt lat="43.56691" lon="6.65321">
        <ele>242.204788</ele>
        <time>2011-01-23T11:15:34Z</time>
      </trkpt>
      <trkpt lat="43.56684" lon="6.65308">
        <ele>244.006485</ele>
        <time>2011-01-23T11:15:44Z</time>
      </trkpt>
      <trkpt lat="43.56682" lon="6.65304">
        <ele>244.590561</ele>
        <time>2011-01-23T11:15:47Z</time>
      </trkpt>
      <trkpt lat="43.56676" lon="6.65289">
        <ele>246.493134</ele>
        <time>2011-01-23T11:15:58Z</time>
      </trkpt>
      <trkpt lat="43.56671" lon="6.65284">
        <ele>247.501221</ele>
        <time>2011-01-23T11:16:02Z</time>
      </trkpt>
      <trkpt lat="43.56669" lon="6.65284">
        <ele>247.895569</ele>
        <time>2011-01-23T11:16:04Z</time>
      </trkpt>
      <trkpt lat="43.56665" lon="6.65278">
        <ele>249.03717</ele>
        <time>2011-01-23T11:16:10Z</time>
      </trkpt>
      <trkpt lat="43.56661" lon="6.65274">
        <ele>250.107254</ele>
        <time>2011-01-23T11:16:16Z</time>
      </trkpt>
      <trkpt lat="43.56656" lon="6.65269">
        <ele>251.224243</ele>
        <time>2011-01-23T11:16:20Z</time>
      </trkpt>
      <trkpt lat="43.56652" lon="6.65263">
        <ele>252.441986</ele>
        <time>2011-01-23T11:16:24Z</time>
      </trkpt>
      <trkpt lat="43.56648" lon="6.65252">
        <ele>253.858963</ele>
        <time>2011-01-23T11:16:30Z</time>
      </trkpt>
      <trkpt lat="43.56646" lon="6.65246">
        <ele>254.516785</ele>
        <time>2011-01-23T11:16:34Z</time>
      </trkpt>
      <trkpt lat="43.56641" lon="6.65239">
        <ele>255.228897</ele>
        <time>2011-01-23T11:16:40Z</time>
      </trkpt>
      <trkpt lat="43.56637" lon="6.65233">
        <ele>255.940994</ele>
        <time>2011-01-23T11:16:46Z</time>
      </trkpt>
      <trkpt lat="43.56652" lon="6.65233">
        <ele>252.900635</ele>
        <time>2011-01-23T11:16:58Z</time>
      </trkpt>
      <trkpt lat="43.56654" lon="6.65231">
        <ele>252.414108</ele>
        <time>2011-01-23T11:16:59Z</time>
      </trkpt>
      <trkpt lat="43.56658" lon="6.65224">
        <ele>251.38887</ele>
        <time>2011-01-23T11:17:04Z</time>
      </trkpt>
      <trkpt lat="43.56661" lon="6.65214">
        <ele>250.693588</ele>
        <time>2011-01-23T11:17:10Z</time>
      </trkpt>
      <trkpt lat="43.56654" lon="6.65211">
        <ele>251.944412</ele>
        <time>2011-01-23T11:17:15Z</time>
      </trkpt>
      <trkpt lat="43.56654" lon="6.65214">
        <ele>251.996597</ele>
        <time>2011-01-23T11:17:28Z</time>
      </trkpt>
      <trkpt lat="43.56654" lon="6.65216">
        <ele>252.048782</ele>
        <time>2011-01-23T11:17:35Z</time>
      </trkpt>
      <trkpt lat="43.56654" lon="6.65214">
        <ele>251.996597</ele>
        <time>2011-01-23T11:17:40Z</time>
      </trkpt>
      <trkpt lat="43.56648" lon="6.65237">
        <ele>253.873688</ele>
        <time>2011-01-23T11:17:48Z</time>
      </trkpt>
      <trkpt lat="43.56633" lon="6.65237">
        <ele>256.914063</ele>
        <time>2011-01-23T11:17:53Z</time>
      </trkpt>
      <trkpt lat="43.56628" lon="6.65237">
        <ele>257.782715</ele>
        <time>2011-01-23T11:17:54Z</time>
      </trkpt>
      <trkpt lat="43.56616" lon="6.65224">
        <ele>259.667175</ele>
        <time>2011-01-23T11:18:00Z</time>
      </trkpt>
      <trkpt lat="43.56613" lon="6.65222">
        <ele>259.801392</ele>
        <time>2011-01-23T11:18:01Z</time>
      </trkpt>
      <trkpt lat="43.56609" lon="6.65209">
        <ele>259.822998</ele>
        <time>2011-01-23T11:18:04Z</time>
      </trkpt>
      <trkpt lat="43.56601" lon="6.65156">
        <ele>257.380493</ele>
        <time>2011-01-23T11:18:16Z</time>
      </trkpt>
      <trkpt lat="43.56607" lon="6.65138">
        <ele>255.158096</ele>
        <time>2011-01-23T11:18:19Z</time>
      </trkpt>
      <trkpt lat="43.56609" lon="6.65117">
        <ele>252.763992</ele>
        <time>2011-01-23T11:18:22Z</time>
      </trkpt>
      <trkpt lat="43.56618" lon="6.6507">
        <ele>245.086029</ele>
        <time>2011-01-23T11:18:28Z</time>
      </trkpt>
      <trkpt lat="43.5662" lon="6.65061">
        <ele>243.668823</ele>
        <time>2011-01-23T11:18:29Z</time>
      </trkpt>
      <trkpt lat="43.56626" lon="6.64971">
        <ele>242.701889</ele>
        <time>2011-01-23T11:18:40Z</time>
      </trkpt>
      <trkpt lat="43.5662" lon="6.64948">
        <ele>242.963135</ele>
        <time>2011-01-23T11:18:43Z</time>
      </trkpt>
      <trkpt lat="43.56607" lon="6.64913">
        <ele>241.762741</ele>
        <time>2011-01-23T11:18:47Z</time>
      </trkpt>
      <trkpt lat="43.56603" lon="6.64905">
        <ele>241.522186</ele>
        <time>2011-01-23T11:18:48Z</time>
      </trkpt>
      <trkpt lat="43.56596" lon="6.6489">
        <ele>241.467239</ele>
        <time>2011-01-23T11:18:50Z</time>
      </trkpt>
      <trkpt lat="43.56601" lon="6.64855">
        <ele>239.927368</ele>
        <time>2011-01-23T11:18:55Z</time>
      </trkpt>
      <trkpt lat="43.56607" lon="6.64838">
        <ele>238.262772</ele>
        <time>2011-01-23T11:18:58Z</time>
      </trkpt>
      <trkpt lat="43.56611" lon="6.64823">
        <ele>236.938751</ele>
        <time>2011-01-23T11:19:00Z</time>
      </trkpt>
      <trkpt lat="43.56616" lon="6.64804">
        <ele>235.10434</ele>
        <time>2011-01-23T11:19:03Z</time>
      </trkpt>
      <trkpt lat="43.56616" lon="6.64795">
        <ele>234.222427</ele>
        <time>2011-01-23T11:19:04Z</time>
      </trkpt>
      <trkpt lat="43.56616" lon="6.64757">
        <ele>230.227707</ele>
        <time>2011-01-23T11:19:09Z</time>
      </trkpt>
      <trkpt lat="43.56633" lon="6.64754">
        <ele>229.465332</ele>
        <time>2011-01-23T11:19:14Z</time>
      </trkpt>
      <trkpt lat="43.56639" lon="6.64759">
        <ele>229.459824</ele>
        <time>2011-01-23T11:19:16Z</time>
      </trkpt>
      <trkpt lat="43.5665" lon="6.64761">
        <ele>227.529907</ele>
        <time>2011-01-23T11:19:19Z</time>
      </trkpt>
      <trkpt lat="43.56663" lon="6.6475">
        <ele>224.664734</ele>
        <time>2011-01-23T11:19:22Z</time>
      </trkpt>
      <trkpt lat="43.56676" lon="6.64737">
        <ele>223.00592</ele>
        <time>2011-01-23T11:19:25Z</time>
      </trkpt>
      <trkpt lat="43.56686" lon="6.64724">
        <ele>222.098114</ele>
        <time>2011-01-23T11:19:28Z</time>
      </trkpt>
      <trkpt lat="43.56693" lon="6.6472">
        <ele>221.18866</ele>
        <time>2011-01-23T11:19:29Z</time>
      </trkpt>
      <trkpt lat="43.56701" lon="6.64714">
        <ele>219.940552</ele>
        <time>2011-01-23T11:19:31Z</time>
      </trkpt>
      <trkpt lat="43.56721" lon="6.64705">
        <ele>216.641388</ele>
        <time>2011-01-23T11:19:35Z</time>
      </trkpt>
      <trkpt lat="43.56731" lon="6.64703">
        <ele>214.578934</ele>
        <time>2011-01-23T11:19:37Z</time>
      </trkpt>
      <trkpt lat="43.56734" lon="6.64703">
        <ele>214.080994</ele>
        <time>2011-01-23T11:19:38Z</time>
      </trkpt>
      <trkpt lat="43.56742" lon="6.64705">
        <ele>212.068878</ele>
        <time>2011-01-23T11:19:40Z</time>
      </trkpt>
      <trkpt lat="43.56751" lon="6.64703">
        <ele>210.052475</ele>
        <time>2011-01-23T11:19:43Z</time>
      </trkpt>
      <trkpt lat="43.56766" lon="6.64703">
        <ele>206.462036</ele>
        <time>2011-01-23T11:19:48Z</time>
      </trkpt>
      <trkpt lat="43.56772" lon="6.64714">
        <ele>205.4487</ele>
        <time>2011-01-23T11:19:53Z</time>
      </trkpt>
      <trkpt lat="43.56779" lon="6.64718">
        <ele>204.430908</ele>
        <time>2011-01-23T11:19:55Z</time>
      </trkpt>
      <trkpt lat="43.56796" lon="6.64731">
        <ele>201.815704</ele>
        <time>2011-01-23T11:20:01Z</time>
      </trkpt>
      <trkpt lat="43.56813" lon="6.64742">
        <ele>198.729141</ele>
        <time>2011-01-23T11:20:06Z</time>
      </trkpt>
      <trkpt lat="43.5683" lon="6.64752">
        <ele>198.282135</ele>
        <time>2011-01-23T11:20:11Z</time>
      </trkpt>
      <trkpt lat="43.56841" lon="6.64752">
        <ele>198.74231</ele>
        <time>2011-01-23T11:20:14Z</time>
      </trkpt>
      <trkpt lat="43.56841" lon="6.64737">
        <ele>198.951752</ele>
        <time>2011-01-23T11:20:18Z</time>
      </trkpt>
      <trkpt lat="43.56841" lon="6.64729">
        <ele>199.05983</ele>
        <time>2011-01-23T11:20:20Z</time>
      </trkpt>
      <trkpt lat="43.56841" lon="6.6472">
        <ele>199.15947</ele>
        <time>2011-01-23T11:20:22Z</time>
      </trkpt>
      <trkpt lat="43.56841" lon="6.64709">
        <ele>199.272125</ele>
        <time>2011-01-23T11:20:25Z</time>
      </trkpt>
      <trkpt lat="43.56845" lon="6.64694">
        <ele>198.873718</ele>
        <time>2011-01-23T11:20:29Z</time>
      </trkpt>
      <trkpt lat="43.56847" lon="6.64684">
        <ele>198.295029</ele>
        <time>2011-01-23T11:20:32Z</time>
      </trkpt>
      <trkpt lat="43.56852" lon="6.64626">
        <ele>195.263092</ele>
        <time>2011-01-23T11:20:50Z</time>
      </trkpt>
      <trkpt lat="43.56856" lon="6.64593">
        <ele>195.148071</ele>
        <time>2011-01-23T11:21:00Z</time>
      </trkpt>
      <trkpt lat="43.56856" lon="6.64585">
        <ele>194.764206</ele>
        <time>2011-01-23T11:21:03Z</time>
      </trkpt>
      <trkpt lat="43.56856" lon="6.64583">
        <ele>194.668243</ele>
        <time>2011-01-23T11:21:04Z</time>
      </trkpt>
      <trkpt lat="43.56858" lon="6.64574">
        <ele>195.76149</ele>
        <time>2011-01-23T11:21:07Z</time>
      </trkpt>
      <trkpt lat="43.5686" lon="6.6457">
        <ele>196.674149</ele>
        <time>2011-01-23T11:21:09Z</time>
      </trkpt>
      <trkpt lat="43.56877" lon="6.64548">
        <ele>203.540588</ele>
        <time>2011-01-23T11:21:18Z</time>
      </trkpt>
      <trkpt lat="43.56884" lon="6.6454">
        <ele>206.232544</ele>
        <time>2011-01-23T11:21:22Z</time>
      </trkpt>
      <trkpt lat="43.56877" lon="6.64531">
        <ele>204.262253</ele>
        <time>2011-01-23T11:21:27Z</time>
      </trkpt>
      <trkpt lat="43.56871" lon="6.64523">
        <ele>202.512741</ele>
        <time>2011-01-23T11:21:31Z</time>
      </trkpt>
      <trkpt lat="43.56867" lon="6.64512">
        <ele>202.921753</ele>
        <time>2011-01-23T11:21:36Z</time>
      </trkpt>
      <trkpt lat="43.56867" lon="6.64508">
        <ele>203.675812</ele>
        <time>2011-01-23T11:21:37Z</time>
      </trkpt>
      <trkpt lat="43.56867" lon="6.64503">
        <ele>204.431961</ele>
        <time>2011-01-23T11:21:39Z</time>
      </trkpt>
      <trkpt lat="43.56867" lon="6.64497">
        <ele>205.57016</ele>
        <time>2011-01-23T11:21:41Z</time>
      </trkpt>
      <trkpt lat="43.56862" lon="6.64441">
        <ele>209.617126</ele>
        <time>2011-01-23T11:21:59Z</time>
      </trkpt>
      <trkpt lat="43.56867" lon="6.64435">
        <ele>209.649643</ele>
        <time>2011-01-23T11:22:01Z</time>
      </trkpt>
      <trkpt lat="43.56873" lon="6.6442">
        <ele>208.966034</ele>
        <time>2011-01-23T11:22:05Z</time>
      </trkpt>
      <trkpt lat="43.56875" lon="6.64415">
        <ele>208.778992</ele>
        <time>2011-01-23T11:22:06Z</time>
      </trkpt>
      <trkpt lat="43.56877" lon="6.64407">
        <ele>208.110764</ele>
        <time>2011-01-23T11:22:08Z</time>
      </trkpt>
      <trkpt lat="43.56892" lon="6.6439">
        <ele>208.953598</ele>
        <time>2011-01-23T11:22:14Z</time>
      </trkpt>
      <trkpt lat="43.56931" lon="6.6436">
        <ele>207.902878</ele>
        <time>2011-01-23T11:22:28Z</time>
      </trkpt>
      <trkpt lat="43.56937" lon="6.64357">
        <ele>207.774323</ele>
        <time>2011-01-23T11:22:30Z</time>
      </trkpt>
      <trkpt lat="43.5695" lon="6.64362">
        <ele>209.54126</ele>
        <time>2011-01-23T11:22:34Z</time>
      </trkpt>
      <trkpt lat="43.56955" lon="6.64364">
        <ele>210.209839</ele>
        <time>2011-01-23T11:22:35Z</time>
      </trkpt>
      <trkpt lat="43.57043" lon="6.64289">
        <ele>213.907104</ele>
        <time>2011-01-23T11:23:18Z</time>
      </trkpt>
      <trkpt lat="43.57049" lon="6.64284">
        <ele>214.809937</ele>
        <time>2011-01-23T11:23:19Z</time>
      </trkpt>
      <trkpt lat="43.57081" lon="6.64289">
        <ele>216.152634</ele>
        <time>2011-01-23T11:23:26Z</time>
      </trkpt>
      <trkpt lat="43.57088" lon="6.64291">
        <ele>215.985916</ele>
        <time>2011-01-23T11:23:28Z</time>
      </trkpt>
      <trkpt lat="43.57092" lon="6.64265">
        <ele>216.757294</ele>
        <time>2011-01-23T11:23:32Z</time>
      </trkpt>
      <trkpt lat="43.57088" lon="6.64261">
        <ele>216.935974</ele>
        <time>2011-01-23T11:23:34Z</time>
      </trkpt>
      <trkpt lat="43.57083" lon="6.64259">
        <ele>217.000885</ele>
        <time>2011-01-23T11:23:36Z</time>
      </trkpt>
      <trkpt lat="43.57075" lon="6.64252">
        <ele>217.097504</ele>
        <time>2011-01-23T11:23:41Z</time>
      </trkpt>
      <trkpt lat="43.57064" lon="6.64246">
        <ele>217.011215</ele>
        <time>2011-01-23T11:23:46Z</time>
      </trkpt>
      <trkpt lat="43.57032" lon="6.64231">
        <ele>215.729462</ele>
        <time>2011-01-23T11:23:59Z</time>
      </trkpt>
      <trkpt lat="43.57019" lon="6.64229">
        <ele>215.34761</ele>
        <time>2011-01-23T11:24:04Z</time>
      </trkpt>
      <trkpt lat="43.57" lon="6.64237">
        <ele>212.732574</ele>
        <time>2011-01-23T11:24:11Z</time>
      </trkpt>
      <trkpt lat="43.56985" lon="6.64242">
        <ele>210.829254</ele>
        <time>2011-01-23T11:24:16Z</time>
      </trkpt>
      <trkpt lat="43.5698" lon="6.64227">
        <ele>212.499954</ele>
        <time>2011-01-23T11:24:20Z</time>
      </trkpt>
      <trkpt lat="43.5698" lon="6.64222">
        <ele>213.093048</ele>
        <time>2011-01-23T11:24:21Z</time>
      </trkpt>
      <trkpt lat="43.56982" lon="6.64186">
        <ele>215.675644</ele>
        <time>2011-01-23T11:24:29Z</time>
      </trkpt>
      <trkpt lat="43.56991" lon="6.6416">
        <ele>217.885162</ele>
        <time>2011-01-23T11:24:34Z</time>
      </trkpt>
      <trkpt lat="43.57006" lon="6.64136">
        <ele>216.457611</ele>
        <time>2011-01-23T11:24:38Z</time>
      </trkpt>
      <trkpt lat="43.57015" lon="6.64102">
        <ele>213.49118</ele>
        <time>2011-01-23T11:24:43Z</time>
      </trkpt>
      <trkpt lat="43.57017" lon="6.64087">
        <ele>210.864151</ele>
        <time>2011-01-23T11:24:45Z</time>
      </trkpt>
      <trkpt lat="43.57021" lon="6.64074">
        <ele>208.434265</ele>
        <time>2011-01-23T11:24:47Z</time>
      </trkpt>
      <trkpt lat="43.5703" lon="6.64066">
        <ele>206.773834</ele>
        <time>2011-01-23T11:24:49Z</time>
      </trkpt>
      <trkpt lat="43.5704" lon="6.64059">
        <ele>205.150192</ele>
        <time>2011-01-23T11:24:51Z</time>
      </trkpt>
      <trkpt lat="43.57079" lon="6.64076">
        <ele>208.788315</ele>
        <time>2011-01-23T11:24:57Z</time>
      </trkpt>
      <trkpt lat="43.57096" lon="6.64066">
        <ele>207.429153</ele>
        <time>2011-01-23T11:25:02Z</time>
      </trkpt>
      <trkpt lat="43.57094" lon="6.64059">
        <ele>206.091232</ele>
        <time>2011-01-23T11:25:03Z</time>
      </trkpt>
      <trkpt lat="43.57094" lon="6.64055">
        <ele>205.284668</ele>
        <time>2011-01-23T11:25:04Z</time>
      </trkpt>
      <trkpt lat="43.57094" lon="6.64031">
        <ele>200.605621</ele>
        <time>2011-01-23T11:25:08Z</time>
      </trkpt>
      <trkpt lat="43.571" lon="6.64018">
        <ele>198.645935</ele>
        <time>2011-01-23T11:25:10Z</time>
      </trkpt>
      <trkpt lat="43.57118" lon="6.64003">
        <ele>197.281693</ele>
        <time>2011-01-23T11:25:14Z</time>
      </trkpt>
      <trkpt lat="43.57124" lon="6.63999">
        <ele>195.75914</ele>
        <time>2011-01-23T11:25:15Z</time>
      </trkpt>
      <trkpt lat="43.57154" lon="6.64016">
        <ele>195.78775</ele>
        <time>2011-01-23T11:25:21Z</time>
      </trkpt>
      <trkpt lat="43.57161" lon="6.64027">
        <ele>197.093307</ele>
        <time>2011-01-23T11:25:23Z</time>
      </trkpt>
      <trkpt lat="43.57169" lon="6.64033">
        <ele>198.007889</ele>
        <time>2011-01-23T11:25:26Z</time>
      </trkpt>
      <trkpt lat="43.57193" lon="6.64046">
        <ele>198.104279</ele>
        <time>2011-01-23T11:25:34Z</time>
      </trkpt>
      <trkpt lat="43.57212" lon="6.64048">
        <ele>197.227325</ele>
        <time>2011-01-23T11:25:41Z</time>
      </trkpt>
      <trkpt lat="43.57212" lon="6.64046">
        <ele>197.370377</ele>
        <time>2011-01-23T11:25:42Z</time>
      </trkpt>
      <trkpt lat="43.57214" lon="6.64038">
        <ele>198.040298</ele>
        <time>2011-01-23T11:25:44Z</time>
      </trkpt>
      <trkpt lat="43.5721" lon="6.64018">
        <ele>198.881424</ele>
        <time>2011-01-23T11:25:50Z</time>
      </trkpt>
      <trkpt lat="43.5721" lon="6.64016">
        <ele>198.993057</ele>
        <time>2011-01-23T11:25:51Z</time>
      </trkpt>
      <trkpt lat="43.57208" lon="6.64008">
        <ele>199.114685</ele>
        <time>2011-01-23T11:25:54Z</time>
      </trkpt>
      <trkpt lat="43.57199" lon="6.63975">
        <ele>197.695221</ele>
        <time>2011-01-23T11:26:05Z</time>
      </trkpt>
      <trkpt lat="43.57197" lon="6.63958">
        <ele>197.095245</ele>
        <time>2011-01-23T11:26:10Z</time>
      </trkpt>
      <trkpt lat="43.57203" lon="6.63945">
        <ele>198.82312</ele>
        <time>2011-01-23T11:26:15Z</time>
      </trkpt>
      <trkpt lat="43.57208" lon="6.63939">
        <ele>200.031937</ele>
        <time>2011-01-23T11:26:17Z</time>
      </trkpt>
      <trkpt lat="43.57236" lon="6.63918">
        <ele>202.129181</ele>
        <time>2011-01-23T11:26:28Z</time>
      </trkpt>
      <trkpt lat="43.57264" lon="6.63907">
        <ele>203.394028</ele>
        <time>2011-01-23T11:26:40Z</time>
      </trkpt>
      <trkpt lat="43.57276" lon="6.63896">
        <ele>202.477768</ele>
        <time>2011-01-23T11:26:46Z</time>
      </trkpt>
      <trkpt lat="43.57276" lon="6.63898">
        <ele>203.097839</ele>
        <time>2011-01-23T11:26:47Z</time>
      </trkpt>
      <trkpt lat="43.5727" lon="6.63907">
        <ele>204.487869</ele>
        <time>2011-01-23T11:26:51Z</time>
      </trkpt>
      <trkpt lat="43.57268" lon="6.63907">
        <ele>204.123505</ele>
        <time>2011-01-23T11:26:52Z</time>
      </trkpt>
      <trkpt lat="43.57266" lon="6.63909">
        <ele>204.371384</ele>
        <time>2011-01-23T11:26:53Z</time>
      </trkpt>
      <trkpt lat="43.57259" lon="6.6392">
        <ele>206.310867</ele>
        <time>2011-01-23T11:26:58Z</time>
      </trkpt>
      <trkpt lat="43.57257" lon="6.63922">
        <ele>206.542068</ele>
        <time>2011-01-23T11:26:59Z</time>
      </trkpt>
      <trkpt lat="43.57253" lon="6.6393">
        <ele>208.271225</ele>
        <time>2011-01-23T11:27:03Z</time>
      </trkpt>
      <trkpt lat="43.57242" lon="6.63963">
        <ele>206.627243</ele>
        <time>2011-01-23T11:27:18Z</time>
      </trkpt>
      <trkpt lat="43.57242" lon="6.63969">
        <ele>206.647446</ele>
        <time>2011-01-23T11:27:21Z</time>
      </trkpt>
      <trkpt lat="43.57244" lon="6.63973">
        <ele>207.076736</ele>
        <time>2011-01-23T11:27:23Z</time>
      </trkpt>
      <trkpt lat="43.57249" lon="6.63984">
        <ele>207.968658</ele>
        <time>2011-01-23T11:27:28Z</time>
      </trkpt>
      <trkpt lat="43.57268" lon="6.63999">
        <ele>210.318787</ele>
        <time>2011-01-23T11:27:40Z</time>
      </trkpt>
      <trkpt lat="43.57279" lon="6.64001">
        <ele>211.741577</ele>
        <time>2011-01-23T11:27:46Z</time>
      </trkpt>
      <trkpt lat="43.57285" lon="6.63993">
        <ele>213.974716</ele>
        <time>2011-01-23T11:27:52Z</time>
      </trkpt>
      <trkpt lat="43.57287" lon="6.6398">
        <ele>214.54277</ele>
        <time>2011-01-23T11:27:59Z</time>
      </trkpt>
      <trkpt lat="43.57287" lon="6.63969">
        <ele>214.723969</ele>
        <time>2011-01-23T11:28:04Z</time>
      </trkpt>
      <trkpt lat="43.57291" lon="6.63958">
        <ele>215.689377</ele>
        <time>2011-01-23T11:28:10Z</time>
      </trkpt>
      <trkpt lat="43.573" lon="6.6395">
        <ele>217.490967</ele>
        <time>2011-01-23T11:28:17Z</time>
      </trkpt>
      <trkpt lat="43.57309" lon="6.63945">
        <ele>218.530502</ele>
        <time>2011-01-23T11:28:23Z</time>
      </trkpt>
      <trkpt lat="43.57317" lon="6.63943">
        <ele>219.43251</ele>
        <time>2011-01-23T11:28:29Z</time>
      </trkpt>
      <trkpt lat="43.57322" lon="6.63943">
        <ele>219.85994</ele>
        <time>2011-01-23T11:28:31Z</time>
      </trkpt>
      <trkpt lat="43.57337" lon="6.63948">
        <ele>221.426086</ele>
        <time>2011-01-23T11:28:41Z</time>
      </trkpt>
      <trkpt lat="43.57364" lon="6.63945">
        <ele>223.545731</ele>
        <time>2011-01-23T11:28:58Z</time>
      </trkpt>
      <trkpt lat="43.57384" lon="6.63943">
        <ele>224.694046</ele>
        <time>2011-01-23T11:29:11Z</time>
      </trkpt>
      <trkpt lat="43.57401" lon="6.63945">
        <ele>224.365631</ele>
        <time>2011-01-23T11:29:23Z</time>
      </trkpt>
      <trkpt lat="43.57412" lon="6.6395">
        <ele>223.936676</ele>
        <time>2011-01-23T11:29:29Z</time>
      </trkpt>
      <trkpt lat="43.5742" lon="6.63956">
        <ele>224.198563</ele>
        <time>2011-01-23T11:29:35Z</time>
      </trkpt>
      <trkpt lat="43.57427" lon="6.63965">
        <ele>225.224213</ele>
        <time>2011-01-23T11:29:41Z</time>
      </trkpt>
      <trkpt lat="43.57433" lon="6.63975">
        <ele>226.973969</ele>
        <time>2011-01-23T11:29:46Z</time>
      </trkpt>
      <trkpt lat="43.57435" lon="6.63986">
        <ele>229.033295</ele>
        <time>2011-01-23T11:29:51Z</time>
      </trkpt>
      <trkpt lat="43.5744" lon="6.64033">
        <ele>234.666199</ele>
        <time>2011-01-23T11:30:13Z</time>
      </trkpt>
      <trkpt lat="43.5744" lon="6.64038">
        <ele>234.919098</ele>
        <time>2011-01-23T11:30:14Z</time>
      </trkpt>
      <trkpt lat="43.57457" lon="6.641">
        <ele>236.178528</ele>
        <time>2011-01-23T11:30:40Z</time>
      </trkpt>
      <trkpt lat="43.57472" lon="6.64121">
        <ele>238.033356</ele>
        <time>2011-01-23T11:30:52Z</time>
      </trkpt>
      <trkpt lat="43.57495" lon="6.64134">
        <ele>239.45993</ele>
        <time>2011-01-23T11:31:05Z</time>
      </trkpt>
      <trkpt lat="43.57504" lon="6.64141">
        <ele>239.600586</ele>
        <time>2011-01-23T11:31:10Z</time>
      </trkpt>
      <trkpt lat="43.57512" lon="6.64166">
        <ele>238.829559</ele>
        <time>2011-01-23T11:31:21Z</time>
      </trkpt>
      <trkpt lat="43.57519" lon="6.64186">
        <ele>238.823288</ele>
        <time>2011-01-23T11:31:28Z</time>
      </trkpt>
      <trkpt lat="43.57527" lon="6.64194">
        <ele>239.026382</ele>
        <time>2011-01-23T11:31:34Z</time>
      </trkpt>
      <trkpt lat="43.57543" lon="6.64196">
        <ele>239.966721</ele>
        <time>2011-01-23T11:31:41Z</time>
      </trkpt>
      <trkpt lat="43.57555" lon="6.64196">
        <ele>240.839371</ele>
        <time>2011-01-23T11:31:47Z</time>
      </trkpt>
      <trkpt lat="43.57581" lon="6.64196">
        <ele>241.789749</ele>
        <time>2011-01-23T11:31:59Z</time>
      </trkpt>
      <trkpt lat="43.5759" lon="6.6419">
        <ele>242.393188</ele>
        <time>2011-01-23T11:32:04Z</time>
      </trkpt>
      <trkpt lat="43.57607" lon="6.64173">
        <ele>244.124695</ele>
        <time>2011-01-23T11:32:16Z</time>
      </trkpt>
      <trkpt lat="43.57618" lon="6.64166">
        <ele>244.989212</ele>
        <time>2011-01-23T11:32:21Z</time>
      </trkpt>
      <trkpt lat="43.5762" lon="6.64166">
        <ele>245.079956</ele>
        <time>2011-01-23T11:32:23Z</time>
      </trkpt>
      <trkpt lat="43.57628" lon="6.64169">
        <ele>245.336197</ele>
        <time>2011-01-23T11:32:28Z</time>
      </trkpt>
      <trkpt lat="43.57639" lon="6.64173">
        <ele>245.619186</ele>
        <time>2011-01-23T11:32:34Z</time>
      </trkpt>
      <trkpt lat="43.57682" lon="6.64214">
        <ele>246.46582</ele>
        <time>2011-01-23T11:32:58Z</time>
      </trkpt>
      <trkpt lat="43.57727" lon="6.64242">
        <ele>247.019958</ele>
        <time>2011-01-23T11:33:20Z</time>
      </trkpt>
      <trkpt lat="43.57729" lon="6.64244">
        <ele>247.049561</ele>
        <time>2011-01-23T11:33:21Z</time>
      </trkpt>
      <trkpt lat="43.57757" lon="6.64269">
        <ele>247.574829</ele>
        <time>2011-01-23T11:33:38Z</time>
      </trkpt>
      <trkpt lat="43.57761" lon="6.64276">
        <ele>247.84848</ele>
        <time>2011-01-23T11:33:41Z</time>
      </trkpt>
      <trkpt lat="43.57794" lon="6.6433">
        <ele>252.477127</ele>
        <time>2011-01-23T11:34:05Z</time>
      </trkpt>
      <trkpt lat="43.578" lon="6.64342">
        <ele>254.162979</ele>
        <time>2011-01-23T11:34:10Z</time>
      </trkpt>
      <trkpt lat="43.57811" lon="6.64357">
        <ele>256.29837</ele>
        <time>2011-01-23T11:34:17Z</time>
      </trkpt>
      <trkpt lat="43.57813" lon="6.64368">
        <ele>257.238464</ele>
        <time>2011-01-23T11:34:22Z</time>
      </trkpt>
      <trkpt lat="43.57815" lon="6.6442">
        <ele>260.167206</ele>
        <time>2011-01-23T11:34:41Z</time>
      </trkpt>
      <trkpt lat="43.57815" lon="6.64435">
        <ele>260.27594</ele>
        <time>2011-01-23T11:34:47Z</time>
      </trkpt>
      <trkpt lat="43.57813" lon="6.64437">
        <ele>260.028473</ele>
        <time>2011-01-23T11:34:50Z</time>
      </trkpt>
      <trkpt lat="43.57813" lon="6.64445">
        <ele>260.093781</ele>
        <time>2011-01-23T11:34:55Z</time>
      </trkpt>
      <trkpt lat="43.57813" lon="6.64448">
        <ele>260.109772</ele>
        <time>2011-01-23T11:34:56Z</time>
      </trkpt>
      <trkpt lat="43.57811" lon="6.6445">
        <ele>259.873291</ele>
        <time>2011-01-23T11:34:59Z</time>
      </trkpt>
      <trkpt lat="43.57811" lon="6.6445">
        <ele>259.873291</ele>
        <time>2011-01-23T11:35:04Z</time>
      </trkpt>
      <trkpt lat="43.57813" lon="6.64458">
        <ele>260.187775</ele>
        <time>2011-01-23T11:35:10Z</time>
      </trkpt>
      <trkpt lat="43.57824" lon="6.64486">
        <ele>260.502594</ele>
        <time>2011-01-23T11:35:22Z</time>
      </trkpt>
      <trkpt lat="43.57832" lon="6.64497">
        <ele>260.614716</ele>
        <time>2011-01-23T11:35:28Z</time>
      </trkpt>
      <trkpt lat="43.57843" lon="6.64503">
        <ele>261.074249</ele>
        <time>2011-01-23T11:35:34Z</time>
      </trkpt>
      <trkpt lat="43.57843" lon="6.64503">
        <ele>261.074249</ele>
        <time>2011-01-23T11:35:37Z</time>
      </trkpt>
      <trkpt lat="43.57841" lon="6.64499">
        <ele>261.119934</ele>
        <time>2011-01-23T11:35:40Z</time>
      </trkpt>
      <trkpt lat="43.57841" lon="6.64493">
        <ele>261.414764</ele>
        <time>2011-01-23T11:35:44Z</time>
      </trkpt>
      <trkpt lat="43.57843" lon="6.6449">
        <ele>261.66394</ele>
        <time>2011-01-23T11:35:46Z</time>
      </trkpt>
      <trkpt lat="43.57843" lon="6.64486">
        <ele>261.860474</ele>
        <time>2011-01-23T11:35:53Z</time>
      </trkpt>
      <trkpt lat="43.57843" lon="6.6448">
        <ele>262.155334</ele>
        <time>2011-01-23T11:35:59Z</time>
      </trkpt>
      <trkpt lat="43.57845" lon="6.64475">
        <ele>262.502747</ele>
        <time>2011-01-23T11:36:11Z</time>
      </trkpt>
      <trkpt lat="43.57845" lon="6.64469">
        <ele>262.720337</ele>
        <time>2011-01-23T11:36:16Z</time>
      </trkpt>
      <trkpt lat="43.57852" lon="6.64458">
        <ele>263.252136</ele>
        <time>2011-01-23T11:36:22Z</time>
      </trkpt>
      <trkpt lat="43.57856" lon="6.64454">
        <ele>263.605347</ele>
        <time>2011-01-23T11:36:28Z</time>
      </trkpt>
      <trkpt lat="43.5786" lon="6.6445">
        <ele>263.972229</ele>
        <time>2011-01-23T11:36:35Z</time>
      </trkpt>
      <trkpt lat="43.57864" lon="6.64448">
        <ele>264.325439</ele>
        <time>2011-01-23T11:36:40Z</time>
      </trkpt>
      <trkpt lat="43.57867" lon="6.64448">
        <ele>264.480103</ele>
        <time>2011-01-23T11:36:47Z</time>
      </trkpt>
      <trkpt lat="43.57871" lon="6.64452">
        <ele>264.713501</ele>
        <time>2011-01-23T11:36:52Z</time>
      </trkpt>
      <trkpt lat="43.57875" lon="6.64456">
        <ele>264.946869</ele>
        <time>2011-01-23T11:36:58Z</time>
      </trkpt>
      <trkpt lat="43.57879" lon="6.64458">
        <ele>265.209198</ele>
        <time>2011-01-23T11:37:07Z</time>
      </trkpt>
      <trkpt lat="43.57884" lon="6.64458">
        <ele>265.500488</ele>
        <time>2011-01-23T11:37:11Z</time>
      </trkpt>
      <trkpt lat="43.57892" lon="6.64465">
        <ele>265.996216</ele>
        <time>2011-01-23T11:37:16Z</time>
      </trkpt>
      <trkpt lat="43.57907" lon="6.64469">
        <ele>266.957825</ele>
        <time>2011-01-23T11:37:24Z</time>
      </trkpt>
      <trkpt lat="43.57914" lon="6.64467">
        <ele>267.28241</ele>
        <time>2011-01-23T11:37:28Z</time>
      </trkpt>
      <trkpt lat="43.57922" lon="6.64463">
        <ele>267.699829</ele>
        <time>2011-01-23T11:37:34Z</time>
      </trkpt>
      <trkpt lat="43.57957" lon="6.64437">
        <ele>270.799408</ele>
        <time>2011-01-23T11:37:52Z</time>
      </trkpt>
      <trkpt lat="43.57978" lon="6.6443">
        <ele>272.649689</ele>
        <time>2011-01-23T11:38:00Z</time>
      </trkpt>
      <trkpt lat="43.57993" lon="6.64428">
        <ele>273.840088</ele>
        <time>2011-01-23T11:38:04Z</time>
      </trkpt>
      <trkpt lat="43.58" lon="6.64426">
        <ele>274.456177</ele>
        <time>2011-01-23T11:38:07Z</time>
      </trkpt>
      <trkpt lat="43.58" lon="6.64413">
        <ele>275.076843</ele>
        <time>2011-01-23T11:38:14Z</time>
      </trkpt>
      <trkpt lat="43.58" lon="6.64413">
        <ele>275.076843</ele>
        <time>2011-01-23T11:38:15Z</time>
      </trkpt>
      <trkpt lat="43.57997" lon="6.64409">
        <ele>275.016937</ele>
        <time>2011-01-23T11:38:17Z</time>
      </trkpt>
      <trkpt lat="43.57993" lon="6.64383">
        <ele>275.147522</ele>
        <time>2011-01-23T11:38:29Z</time>
      </trkpt>
      <trkpt lat="43.57991" lon="6.64372">
        <ele>275.073273</ele>
        <time>2011-01-23T11:38:34Z</time>
      </trkpt>
      <trkpt lat="43.57995" lon="6.64351">
        <ele>275.438202</ele>
        <time>2011-01-23T11:38:41Z</time>
      </trkpt>
      <trkpt lat="43.57995" lon="6.64336">
        <ele>274.630493</ele>
        <time>2011-01-23T11:38:46Z</time>
      </trkpt>
      <trkpt lat="43.57993" lon="6.64308">
        <ele>272.852264</ele>
        <time>2011-01-23T11:38:53Z</time>
      </trkpt>
      <trkpt lat="43.57991" lon="6.64291">
        <ele>271.455841</ele>
        <time>2011-01-23T11:38:58Z</time>
      </trkpt>
      <trkpt lat="43.57976" lon="6.64278">
        <ele>268.864044</ele>
        <time>2011-01-23T11:39:05Z</time>
      </trkpt>
      <trkpt lat="43.57974" lon="6.64274">
        <ele>268.407745</ele>
        <time>2011-01-23T11:39:06Z</time>
      </trkpt>
      <trkpt lat="43.57967" lon="6.64263">
        <ele>267.338226</ele>
        <time>2011-01-23T11:39:11Z</time>
      </trkpt>
      <trkpt lat="43.57959" lon="6.6425">
        <ele>265.991119</ele>
        <time>2011-01-23T11:39:15Z</time>
      </trkpt>
      <trkpt lat="43.57957" lon="6.64246">
        <ele>265.548828</ele>
        <time>2011-01-23T11:39:16Z</time>
      </trkpt>
      <trkpt lat="43.57944" lon="6.64227">
        <ele>263.099823</ele>
        <time>2011-01-23T11:39:22Z</time>
      </trkpt>
      <trkpt lat="43.57931" lon="6.64212">
        <ele>260.814392</ele>
        <time>2011-01-23T11:39:30Z</time>
      </trkpt>
      <trkpt lat="43.57931" lon="6.64209">
        <ele>260.725739</ele>
        <time>2011-01-23T11:39:34Z</time>
      </trkpt>
      <trkpt lat="43.57931" lon="6.64205">
        <ele>260.548889</ele>
        <time>2011-01-23T11:39:42Z</time>
      </trkpt>
      <trkpt lat="43.57931" lon="6.64203">
        <ele>260.460632</ele>
        <time>2011-01-23T11:39:47Z</time>
      </trkpt>
      <trkpt lat="43.57927" lon="6.6419">
        <ele>259.434204</ele>
        <time>2011-01-23T11:39:54Z</time>
      </trkpt>
      <trkpt lat="43.57922" lon="6.64184">
        <ele>258.691681</ele>
        <time>2011-01-23T11:39:58Z</time>
      </trkpt>
      <trkpt lat="43.57922" lon="6.64179">
        <ele>258.531158</ele>
        <time>2011-01-23T11:39:59Z</time>
      </trkpt>
      <trkpt lat="43.5792" lon="6.64173">
        <ele>257.927826</ele>
        <time>2011-01-23T11:40:02Z</time>
      </trkpt>
      <trkpt lat="43.57918" lon="6.64169">
        <ele>257.279266</ele>
        <time>2011-01-23T11:40:04Z</time>
      </trkpt>
      <trkpt lat="43.57918" lon="6.64166">
        <ele>257.160034</ele>
        <time>2011-01-23T11:40:05Z</time>
      </trkpt>
      <trkpt lat="43.57918" lon="6.64151">
        <ele>255.661804</ele>
        <time>2011-01-23T11:40:10Z</time>
      </trkpt>
      <trkpt lat="43.57907" lon="6.64132">
        <ele>251.986053</ele>
        <time>2011-01-23T11:40:17Z</time>
      </trkpt>
      <trkpt lat="43.57903" lon="6.64124">
        <ele>250.623077</ele>
        <time>2011-01-23T11:40:19Z</time>
      </trkpt>
      <trkpt lat="43.57901" lon="6.64109">
        <ele>249.231567</ele>
        <time>2011-01-23T11:40:23Z</time>
      </trkpt>
      <trkpt lat="43.57897" lon="6.64078">
        <ele>246.249664</ele>
        <time>2011-01-23T11:40:30Z</time>
      </trkpt>
      <trkpt lat="43.57892" lon="6.64057">
        <ele>244.340546</ele>
        <time>2011-01-23T11:40:35Z</time>
      </trkpt>
      <trkpt lat="43.57888" lon="6.64048">
        <ele>243.606598</ele>
        <time>2011-01-23T11:40:37Z</time>
      </trkpt>
      <trkpt lat="43.57882" lon="6.64033">
        <ele>242.512131</ele>
        <time>2011-01-23T11:40:41Z</time>
      </trkpt>
      <trkpt lat="43.57869" lon="6.6401">
        <ele>239.664551</ele>
        <time>2011-01-23T11:40:47Z</time>
      </trkpt>
      <trkpt lat="43.57847" lon="6.63978">
        <ele>235.809525</ele>
        <time>2011-01-23T11:40:54Z</time>
      </trkpt>
      <trkpt lat="43.57836" lon="6.63965">
        <ele>234.11644</ele>
        <time>2011-01-23T11:40:58Z</time>
      </trkpt>
      <trkpt lat="43.57828" lon="6.63948">
        <ele>232.711411</ele>
        <time>2011-01-23T11:41:02Z</time>
      </trkpt>
      <trkpt lat="43.57826" lon="6.63941">
        <ele>232.096924</ele>
        <time>2011-01-23T11:41:03Z</time>
      </trkpt>
      <trkpt lat="43.57824" lon="6.63939">
        <ele>231.926468</ele>
        <time>2011-01-23T11:41:04Z</time>
      </trkpt>
      <trkpt lat="43.57819" lon="6.63924">
        <ele>230.364746</ele>
        <time>2011-01-23T11:41:07Z</time>
      </trkpt>
      <trkpt lat="43.57815" lon="6.63903">
        <ele>227.9207</ele>
        <time>2011-01-23T11:41:12Z</time>
      </trkpt>
      <trkpt lat="43.57813" lon="6.6389">
        <ele>226.316711</ele>
        <time>2011-01-23T11:41:15Z</time>
      </trkpt>
      <trkpt lat="43.57811" lon="6.63866">
        <ele>223.222427</ele>
        <time>2011-01-23T11:41:20Z</time>
      </trkpt>
      <trkpt lat="43.57811" lon="6.63857">
        <ele>222.098328</ele>
        <time>2011-01-23T11:41:22Z</time>
      </trkpt>
      <trkpt lat="43.57802" lon="6.63851">
        <ele>220.599228</ele>
        <time>2011-01-23T11:41:25Z</time>
      </trkpt>
      <trkpt lat="43.57794" lon="6.63845">
        <ele>220.278976</ele>
        <time>2011-01-23T11:41:28Z</time>
      </trkpt>
      <trkpt lat="43.57789" lon="6.63842">
        <ele>220.442535</ele>
        <time>2011-01-23T11:41:29Z</time>
      </trkpt>
      <trkpt lat="43.57785" lon="6.6384">
        <ele>220.577469</ele>
        <time>2011-01-23T11:41:31Z</time>
      </trkpt>
      <trkpt lat="43.57774" lon="6.63825">
        <ele>220.505432</ele>
        <time>2011-01-23T11:41:36Z</time>
      </trkpt>
      <trkpt lat="43.57753" lon="6.63787">
        <ele>217.926208</ele>
        <time>2011-01-23T11:41:45Z</time>
      </trkpt>
      <trkpt lat="43.57746" lon="6.63776">
        <ele>216.210648</ele>
        <time>2011-01-23T11:41:47Z</time>
      </trkpt>
      <trkpt lat="43.57729" lon="6.63752">
        <ele>211.992691</ele>
        <time>2011-01-23T11:41:52Z</time>
      </trkpt>
      <trkpt lat="43.57718" lon="6.63752">
        <ele>211.243561</ele>
        <time>2011-01-23T11:41:54Z</time>
      </trkpt>
      <trkpt lat="43.57695" lon="6.63761">
        <ele>210.009232</ele>
        <time>2011-01-23T11:42:00Z</time>
      </trkpt>
      <trkpt lat="43.57688" lon="6.63765">
        <ele>209.564941</ele>
        <time>2011-01-23T11:42:02Z</time>
      </trkpt>
      <trkpt lat="43.57676" lon="6.63774">
        <ele>208.225174</ele>
        <time>2011-01-23T11:42:05Z</time>
      </trkpt>
      <trkpt lat="43.57648" lon="6.63785">
        <ele>206.896164</ele>
        <time>2011-01-23T11:42:11Z</time>
      </trkpt>
      <trkpt lat="43.5762" lon="6.63789">
        <ele>205.436783</ele>
        <time>2011-01-23T11:42:20Z</time>
      </trkpt>
      <trkpt lat="43.57611" lon="6.63793">
        <ele>205.475769</ele>
        <time>2011-01-23T11:42:24Z</time>
      </trkpt>
      <trkpt lat="43.57605" lon="6.638">
        <ele>205.785233</ele>
        <time>2011-01-23T11:42:28Z</time>
      </trkpt>
      <trkpt lat="43.57575" lon="6.63812">
        <ele>205.40419</ele>
        <time>2011-01-23T11:42:40Z</time>
      </trkpt>
      <trkpt lat="43.57527" lon="6.63847">
        <ele>205.91008</ele>
        <time>2011-01-23T11:42:59Z</time>
      </trkpt>
      <trkpt lat="43.5751" lon="6.63857">
        <ele>205.217224</ele>
        <time>2011-01-23T11:43:05Z</time>
      </trkpt>
      <trkpt lat="43.57491" lon="6.63864">
        <ele>203.675674</ele>
        <time>2011-01-23T11:43:13Z</time>
      </trkpt>
      <trkpt lat="43.5748" lon="6.63866">
        <ele>202.938538</ele>
        <time>2011-01-23T11:43:17Z</time>
      </trkpt>
      <trkpt lat="43.5747" lon="6.63868">
        <ele>202.877396</ele>
        <time>2011-01-23T11:43:22Z</time>
      </trkpt>
      <trkpt lat="43.57463" lon="6.6387">
        <ele>202.8909</ele>
        <time>2011-01-23T11:43:25Z</time>
      </trkpt>
      <trkpt lat="43.57455" lon="6.63868">
        <ele>202.482895</ele>
        <time>2011-01-23T11:43:28Z</time>
      </trkpt>
      <trkpt lat="43.57444" lon="6.63862">
        <ele>201.737915</ele>
        <time>2011-01-23T11:43:35Z</time>
      </trkpt>
      <trkpt lat="43.57444" lon="6.63862">
        <ele>201.737915</ele>
        <time>2011-01-23T11:43:38Z</time>
      </trkpt>
      <trkpt lat="43.57444" lon="6.6386">
        <ele>201.589035</ele>
        <time>2011-01-23T11:43:40Z</time>
      </trkpt>
      <trkpt lat="43.57444" lon="6.6386">
        <ele>201.589035</ele>
        <time>2011-01-23T11:43:44Z</time>
      </trkpt>
      <trkpt lat="43.57444" lon="6.6386">
        <ele>201.589035</ele>
        <time>2011-01-23T11:43:46Z</time>
      </trkpt>
      <trkpt lat="43.57444" lon="6.63857">
        <ele>201.440414</ele>
        <time>2011-01-23T11:43:53Z</time>
      </trkpt>
      <trkpt lat="43.57442" lon="6.63855">
        <ele>201.250977</ele>
        <time>2011-01-23T11:43:59Z</time>
      </trkpt>
      <trkpt lat="43.5744" lon="6.63855">
        <ele>201.209412</ele>
        <time>2011-01-23T11:44:11Z</time>
      </trkpt>
      <trkpt lat="43.57437" lon="6.63853">
        <ele>201.068207</ele>
        <time>2011-01-23T11:44:17Z</time>
      </trkpt>
      <trkpt lat="43.57431" lon="6.63853">
        <ele>201.107147</ele>
        <time>2011-01-23T11:44:22Z</time>
      </trkpt>
      <trkpt lat="43.57427" lon="6.63849">
        <ele>200.81987</ele>
        <time>2011-01-23T11:44:25Z</time>
      </trkpt>
      <trkpt lat="43.57424" lon="6.63847">
        <ele>200.666687</ele>
        <time>2011-01-23T11:44:26Z</time>
      </trkpt>
      <trkpt lat="43.57409" lon="6.63847">
        <ele>200.716248</ele>
        <time>2011-01-23T11:44:32Z</time>
      </trkpt>
      <trkpt lat="43.57394" lon="6.6384">
        <ele>200.163864</ele>
        <time>2011-01-23T11:44:37Z</time>
      </trkpt>
      <trkpt lat="43.57362" lon="6.63832">
        <ele>198.655365</ele>
        <time>2011-01-23T11:44:48Z</time>
      </trkpt>
      <trkpt lat="43.57349" lon="6.63825">
        <ele>197.833801</ele>
        <time>2011-01-23T11:44:54Z</time>
      </trkpt>
      <trkpt lat="43.57343" lon="6.63819">
        <ele>197.055557</ele>
        <time>2011-01-23T11:44:58Z</time>
      </trkpt>
      <trkpt lat="43.57341" lon="6.63819">
        <ele>196.973267</ele>
        <time>2011-01-23T11:44:59Z</time>
      </trkpt>
      <trkpt lat="43.57315" lon="6.63804">
        <ele>197.880585</ele>
        <time>2011-01-23T11:45:14Z</time>
      </trkpt>
      <trkpt lat="43.57311" lon="6.63804">
        <ele>197.543411</ele>
        <time>2011-01-23T11:45:16Z</time>
      </trkpt>
      <trkpt lat="43.573" lon="6.638">
        <ele>197.808243</ele>
        <time>2011-01-23T11:45:22Z</time>
      </trkpt>
      <trkpt lat="43.57298" lon="6.63791">
        <ele>199.983124</ele>
        <time>2011-01-23T11:45:25Z</time>
      </trkpt>
      <trkpt lat="43.57296" lon="6.63763">
        <ele>207.407745</ele>
        <time>2011-01-23T11:45:36Z</time>
      </trkpt>
      <trkpt lat="43.57296" lon="6.63752">
        <ele>210.335495</ele>
        <time>2011-01-23T11:45:41Z</time>
      </trkpt>
      <trkpt lat="43.57298" lon="6.63737">
        <ele>212.082855</ele>
        <time>2011-01-23T11:45:47Z</time>
      </trkpt>
      <trkpt lat="43.57296" lon="6.63722">
        <ele>212.354065</ele>
        <time>2011-01-23T11:45:52Z</time>
      </trkpt>
      <trkpt lat="43.57285" lon="6.63729">
        <ele>210.570023</ele>
        <time>2011-01-23T11:45:59Z</time>
      </trkpt>
      <trkpt lat="43.57274" lon="6.63761">
        <ele>205.005493</ele>
        <time>2011-01-23T11:46:07Z</time>
      </trkpt>
      <trkpt lat="43.57268" lon="6.63769">
        <ele>202.032791</ele>
        <time>2011-01-23T11:46:09Z</time>
      </trkpt>
      <trkpt lat="43.57259" lon="6.6378">
        <ele>198.714996</ele>
        <time>2011-01-23T11:46:12Z</time>
      </trkpt>
      <trkpt lat="43.57244" lon="6.63793">
        <ele>195.793732</ele>
        <time>2011-01-23T11:46:16Z</time>
      </trkpt>
      <trkpt lat="43.57221" lon="6.63793">
        <ele>196.145493</ele>
        <time>2011-01-23T11:46:21Z</time>
      </trkpt>
      <trkpt lat="43.57135" lon="6.63812">
        <ele>191.736374</ele>
        <time>2011-01-23T11:46:40Z</time>
      </trkpt>
      <trkpt lat="43.57124" lon="6.63782">
        <ele>194.091202</ele>
        <time>2011-01-23T11:46:45Z</time>
      </trkpt>
      <trkpt lat="43.57126" lon="6.6375">
        <ele>195.800842</ele>
        <time>2011-01-23T11:46:49Z</time>
      </trkpt>
      <trkpt lat="43.57135" lon="6.63737">
        <ele>197.643311</ele>
        <time>2011-01-23T11:46:51Z</time>
      </trkpt>
      <trkpt lat="43.57154" lon="6.63724">
        <ele>199.051422</ele>
        <time>2011-01-23T11:46:55Z</time>
      </trkpt>
      <trkpt lat="43.57158" lon="6.63722">
        <ele>199.240784</ele>
        <time>2011-01-23T11:46:56Z</time>
      </trkpt>
      <trkpt lat="43.57156" lon="6.63694">
        <ele>197.439713</ele>
        <time>2011-01-23T11:47:02Z</time>
      </trkpt>
      <trkpt lat="43.57156" lon="6.6369">
        <ele>197.198334</ele>
        <time>2011-01-23T11:47:03Z</time>
      </trkpt>
      <trkpt lat="43.57139" lon="6.63688">
        <ele>197.050018</ele>
        <time>2011-01-23T11:47:10Z</time>
      </trkpt>
      <trkpt lat="43.57135" lon="6.63688">
        <ele>197.027878</ele>
        <time>2011-01-23T11:47:12Z</time>
      </trkpt>
      <trkpt lat="43.57126" lon="6.63686">
        <ele>196.597687</ele>
        <time>2011-01-23T11:47:15Z</time>
      </trkpt>
      <trkpt lat="43.57116" lon="6.63684">
        <ele>195.691238</ele>
        <time>2011-01-23T11:47:19Z</time>
      </trkpt>
      <trkpt lat="43.57096" lon="6.63682">
        <ele>194.118134</ele>
        <time>2011-01-23T11:47:26Z</time>
      </trkpt>
      <trkpt lat="43.57088" lon="6.63682">
        <ele>193.293381</ele>
        <time>2011-01-23T11:47:29Z</time>
      </trkpt>
      <trkpt lat="43.57045" lon="6.63703">
        <ele>196.071106</ele>
        <time>2011-01-23T11:47:48Z</time>
      </trkpt>
      <trkpt lat="43.57021" lon="6.6372">
        <ele>198.676926</ele>
        <time>2011-01-23T11:48:00Z</time>
      </trkpt>
      <trkpt lat="43.57019" lon="6.63722">
        <ele>198.848694</ele>
        <time>2011-01-23T11:48:02Z</time>
      </trkpt>
      <trkpt lat="43.56987" lon="6.63752">
        <ele>202.035309</ele>
        <time>2011-01-23T11:48:20Z</time>
      </trkpt>
      <trkpt lat="43.56944" lon="6.63793">
        <ele>203.799545</ele>
        <time>2011-01-23T11:48:49Z</time>
      </trkpt>
      <trkpt lat="43.56925" lon="6.63812">
        <ele>203.128769</ele>
        <time>2011-01-23T11:49:05Z</time>
      </trkpt>
      <trkpt lat="43.56916" lon="6.63815">
        <ele>205.081711</ele>
        <time>2011-01-23T11:49:11Z</time>
      </trkpt>
      <trkpt lat="43.56912" lon="6.63817">
        <ele>205.660126</ele>
        <time>2011-01-23T11:49:14Z</time>
      </trkpt>
      <trkpt lat="43.56897" lon="6.63823">
        <ele>206.90448</ele>
        <time>2011-01-23T11:49:23Z</time>
      </trkpt>
      <trkpt lat="43.56888" lon="6.63825">
        <ele>206.250565</ele>
        <time>2011-01-23T11:49:28Z</time>
      </trkpt>
      <trkpt lat="43.56877" lon="6.63823">
        <ele>206.956207</ele>
        <time>2011-01-23T11:49:35Z</time>
      </trkpt>
      <trkpt lat="43.56864" lon="6.638">
        <ele>211.521133</ele>
        <time>2011-01-23T11:49:47Z</time>
      </trkpt>
      <trkpt lat="43.56864" lon="6.63795">
        <ele>212.296127</ele>
        <time>2011-01-23T11:49:48Z</time>
      </trkpt>
      <trkpt lat="43.56854" lon="6.63757">
        <ele>212.101456</ele>
        <time>2011-01-23T11:49:56Z</time>
      </trkpt>
      <trkpt lat="43.56849" lon="6.63729">
        <ele>210.423782</ele>
        <time>2011-01-23T11:50:01Z</time>
      </trkpt>
      <trkpt lat="43.56847" lon="6.63724">
        <ele>209.706238</ele>
        <time>2011-01-23T11:50:02Z</time>
      </trkpt>
      <trkpt lat="43.56847" lon="6.63712">
        <ele>209.929947</ele>
        <time>2011-01-23T11:50:04Z</time>
      </trkpt>
      <trkpt lat="43.56847" lon="6.63669">
        <ele>210.112122</ele>
        <time>2011-01-23T11:50:11Z</time>
      </trkpt>
      <trkpt lat="43.56826" lon="6.63656">
        <ele>208.871048</ele>
        <time>2011-01-23T11:50:17Z</time>
      </trkpt>
      <trkpt lat="43.56824" lon="6.63664">
        <ele>207.635483</ele>
        <time>2011-01-23T11:50:20Z</time>
      </trkpt>
      <trkpt lat="43.56822" lon="6.63666">
        <ele>207.099976</ele>
        <time>2011-01-23T11:50:21Z</time>
      </trkpt>
      <trkpt lat="43.56819" lon="6.63673">
        <ele>205.914078</ele>
        <time>2011-01-23T11:50:24Z</time>
      </trkpt>
      <trkpt lat="43.56817" lon="6.63679">
        <ele>204.611816</ele>
        <time>2011-01-23T11:50:27Z</time>
      </trkpt>
      <trkpt lat="43.56813" lon="6.63686">
        <ele>204.181808</ele>
        <time>2011-01-23T11:50:30Z</time>
      </trkpt>
      <trkpt lat="43.56807" lon="6.63694">
        <ele>204.777786</ele>
        <time>2011-01-23T11:50:34Z</time>
      </trkpt>
      <trkpt lat="43.568" lon="6.63707">
        <ele>204.560654</ele>
        <time>2011-01-23T11:50:40Z</time>
      </trkpt>
      <trkpt lat="43.56789" lon="6.63712">
        <ele>207.300797</ele>
        <time>2011-01-23T11:50:46Z</time>
      </trkpt>
      <trkpt lat="43.56787" lon="6.63722">
        <ele>206.820145</ele>
        <time>2011-01-23T11:50:49Z</time>
      </trkpt>
      <trkpt lat="43.56787" lon="6.63731">
        <ele>205.860764</ele>
        <time>2011-01-23T11:50:52Z</time>
      </trkpt>
      <trkpt lat="43.56785" lon="6.63746">
        <ele>204.993317</ele>
        <time>2011-01-23T11:50:57Z</time>
      </trkpt>
      <trkpt lat="43.56783" lon="6.63752">
        <ele>205.140564</ele>
        <time>2011-01-23T11:51:00Z</time>
      </trkpt>
      <trkpt lat="43.56779" lon="6.63761">
        <ele>206.005493</ele>
        <time>2011-01-23T11:51:04Z</time>
      </trkpt>
      <trkpt lat="43.56772" lon="6.6378">
        <ele>206.218384</ele>
        <time>2011-01-23T11:51:11Z</time>
      </trkpt>
      <trkpt lat="43.5677" lon="6.63795">
        <ele>204.515701</ele>
        <time>2011-01-23T11:51:16Z</time>
      </trkpt>
      <trkpt lat="43.56766" lon="6.6381">
        <ele>203.55127</ele>
        <time>2011-01-23T11:51:22Z</time>
      </trkpt>
      <trkpt lat="43.56725" lon="6.63864">
        <ele>208.666351</ele>
        <time>2011-01-23T11:51:49Z</time>
      </trkpt>
      <trkpt lat="43.5671" lon="6.63879">
        <ele>209.980499</ele>
        <time>2011-01-23T11:51:58Z</time>
      </trkpt>
      <trkpt lat="43.56688" lon="6.63894">
        <ele>213.781754</ele>
        <time>2011-01-23T11:52:11Z</time>
      </trkpt>
      <trkpt lat="43.5668" lon="6.63903">
        <ele>214.095383</ele>
        <time>2011-01-23T11:52:17Z</time>
      </trkpt>
      <trkpt lat="43.56673" lon="6.63905">
        <ele>215.785706</ele>
        <time>2011-01-23T11:52:21Z</time>
      </trkpt>
      <trkpt lat="43.56669" lon="6.63909">
        <ele>215.528702</ele>
        <time>2011-01-23T11:52:24Z</time>
      </trkpt>
      <trkpt lat="43.56663" lon="6.63913">
        <ele>215.655579</ele>
        <time>2011-01-23T11:52:29Z</time>
      </trkpt>
      <trkpt lat="43.56641" lon="6.63933">
        <ele>217.100647</ele>
        <time>2011-01-23T11:52:45Z</time>
      </trkpt>
      <trkpt lat="43.56613" lon="6.63956">
        <ele>218.342148</ele>
        <time>2011-01-23T11:53:04Z</time>
      </trkpt>
      <trkpt lat="43.56607" lon="6.63937">
        <ele>222.371552</ele>
        <time>2011-01-23T11:53:12Z</time>
      </trkpt>
      <trkpt lat="43.56607" lon="6.63935">
        <ele>222.530197</ele>
        <time>2011-01-23T11:53:13Z</time>
      </trkpt>
      <trkpt lat="43.56605" lon="6.63928">
        <ele>223.011658</ele>
        <time>2011-01-23T11:53:15Z</time>
      </trkpt>
      <trkpt lat="43.56605" lon="6.63922">
        <ele>223.446045</ele>
        <time>2011-01-23T11:53:18Z</time>
      </trkpt>
      <trkpt lat="43.56605" lon="6.63911">
        <ele>224.154205</ele>
        <time>2011-01-23T11:53:22Z</time>
      </trkpt>
      <trkpt lat="43.56611" lon="6.63905">
        <ele>224.869492</ele>
        <time>2011-01-23T11:53:26Z</time>
      </trkpt>
      <trkpt lat="43.56618" lon="6.63898">
        <ele>225.769089</ele>
        <time>2011-01-23T11:53:30Z</time>
      </trkpt>
      <trkpt lat="43.56626" lon="6.63892">
        <ele>227.024246</ele>
        <time>2011-01-23T11:53:36Z</time>
      </trkpt>
      <trkpt lat="43.56631" lon="6.63885">
        <ele>227.462128</ele>
        <time>2011-01-23T11:53:39Z</time>
      </trkpt>
      <trkpt lat="43.56624" lon="6.63881">
        <ele>227.520355</ele>
        <time>2011-01-23T11:53:42Z</time>
      </trkpt>
      <trkpt lat="43.5662" lon="6.63881">
        <ele>227.132584</ele>
        <time>2011-01-23T11:53:43Z</time>
      </trkpt>
      <trkpt lat="43.5659" lon="6.63875">
        <ele>223.659531</ele>
        <time>2011-01-23T11:53:50Z</time>
      </trkpt>
      <trkpt lat="43.56586" lon="6.63875">
        <ele>223.258331</ele>
        <time>2011-01-23T11:53:51Z</time>
      </trkpt>
      <trkpt lat="43.56577" lon="6.63875">
        <ele>221.507462</ele>
        <time>2011-01-23T11:53:53Z</time>
      </trkpt>
      <trkpt lat="43.56553" lon="6.63883">
        <ele>216.236053</ele>
        <time>2011-01-23T11:53:59Z</time>
      </trkpt>
      <trkpt lat="43.56534" lon="6.63894">
        <ele>211.205917</ele>
        <time>2011-01-23T11:54:04Z</time>
      </trkpt>
      <trkpt lat="43.5653" lon="6.63918">
        <ele>210.719162</ele>
        <time>2011-01-23T11:54:08Z</time>
      </trkpt>
      <trkpt lat="43.56521" lon="6.63952">
        <ele>208.491028</ele>
        <time>2011-01-23T11:54:13Z</time>
      </trkpt>
      <trkpt lat="43.56513" lon="6.63984">
        <ele>206.185699</ele>
        <time>2011-01-23T11:54:18Z</time>
      </trkpt>
      <trkpt lat="43.56506" lon="6.6401">
        <ele>203.45018</ele>
        <time>2011-01-23T11:54:22Z</time>
      </trkpt>
      <trkpt lat="43.56493" lon="6.64036">
        <ele>198.597519</ele>
        <time>2011-01-23T11:54:27Z</time>
      </trkpt>
      <trkpt lat="43.56489" lon="6.6404">
        <ele>197.937683</ele>
        <time>2011-01-23T11:54:28Z</time>
      </trkpt>
      <trkpt lat="43.56478" lon="6.64038">
        <ele>196.398926</ele>
        <time>2011-01-23T11:54:30Z</time>
      </trkpt>
      <trkpt lat="43.56474" lon="6.6404">
        <ele>195.437881</ele>
        <time>2011-01-23T11:54:31Z</time>
      </trkpt>
      <trkpt lat="43.56474" lon="6.64059">
        <ele>194.069748</ele>
        <time>2011-01-23T11:54:36Z</time>
      </trkpt>
      <trkpt lat="43.56483" lon="6.64063">
        <ele>193.887451</ele>
        <time>2011-01-23T11:54:38Z</time>
      </trkpt>
      <trkpt lat="43.56489" lon="6.64063">
        <ele>194.334595</ele>
        <time>2011-01-23T11:54:39Z</time>
      </trkpt>
      <trkpt lat="43.56498" lon="6.64072">
        <ele>191.623291</ele>
        <time>2011-01-23T11:54:41Z</time>
      </trkpt>
      <trkpt lat="43.56504" lon="6.64111">
        <ele>181.167084</ele>
        <time>2011-01-23T11:54:47Z</time>
      </trkpt>
      <trkpt lat="43.56504" lon="6.64117">
        <ele>179.442001</ele>
        <time>2011-01-23T11:54:48Z</time>
      </trkpt>
      <trkpt lat="43.56502" lon="6.64136">
        <ele>181.374817</ele>
        <time>2011-01-23T11:54:52Z</time>
      </trkpt>
      <trkpt lat="43.565" lon="6.6419">
        <ele>195.842499</ele>
        <time>2011-01-23T11:55:04Z</time>
      </trkpt>
      <trkpt lat="43.56508" lon="6.64194">
        <ele>196.999649</ele>
        <time>2011-01-23T11:55:08Z</time>
      </trkpt>
      <trkpt lat="43.5651" lon="6.64194">
        <ele>196.90036</ele>
        <time>2011-01-23T11:55:09Z</time>
      </trkpt>
      <trkpt lat="43.56521" lon="6.64196">
        <ele>197.192719</ele>
        <time>2011-01-23T11:55:13Z</time>
      </trkpt>
      <trkpt lat="43.56523" lon="6.64196">
        <ele>197.093582</ele>
        <time>2011-01-23T11:55:14Z</time>
      </trkpt>
      <trkpt lat="43.56549" lon="6.64207">
        <ele>195.746506</ele>
        <time>2011-01-23T11:55:23Z</time>
      </trkpt>
      <trkpt lat="43.56564" lon="6.64216">
        <ele>194.448105</ele>
        <time>2011-01-23T11:55:28Z</time>
      </trkpt>
      <trkpt lat="43.56581" lon="6.64235">
        <ele>193.209549</ele>
        <time>2011-01-23T11:55:34Z</time>
      </trkpt>
      <trkpt lat="43.56581" lon="6.64248">
        <ele>194.837341</ele>
        <time>2011-01-23T11:55:37Z</time>
      </trkpt>
      <trkpt lat="43.56594" lon="6.64349">
        <ele>196.999283</ele>
        <time>2011-01-23T11:55:59Z</time>
      </trkpt>
      <trkpt lat="43.56605" lon="6.64385">
        <ele>197.201675</ele>
        <time>2011-01-23T11:56:07Z</time>
      </trkpt>
      <trkpt lat="43.56611" lon="6.644">
        <ele>197.578156</ele>
        <time>2011-01-23T11:56:10Z</time>
      </trkpt>
      <trkpt lat="43.56624" lon="6.64405">
        <ele>196.041794</ele>
        <time>2011-01-23T11:56:14Z</time>
      </trkpt>
      <trkpt lat="43.56631" lon="6.64405">
        <ele>194.928955</ele>
        <time>2011-01-23T11:56:16Z</time>
      </trkpt>
      <trkpt lat="43.56635" lon="6.64409">
        <ele>195.077988</ele>
        <time>2011-01-23T11:56:18Z</time>
      </trkpt>
      <trkpt lat="43.56641" lon="6.64411">
        <ele>194.494003</ele>
        <time>2011-01-23T11:56:20Z</time>
      </trkpt>
      <trkpt lat="43.56646" lon="6.64415">
        <ele>194.815674</ele>
        <time>2011-01-23T11:56:22Z</time>
      </trkpt>
      <trkpt lat="43.56708" lon="6.6449">
        <ele>199.238098</ele>
        <time>2011-01-23T11:56:48Z</time>
      </trkpt>
      <trkpt lat="43.56759" lon="6.64527">
        <ele>194.079895</ele>
        <time>2011-01-23T11:57:04Z</time>
      </trkpt>
      <trkpt lat="43.56776" lon="6.64551">
        <ele>193.282944</ele>
        <time>2011-01-23T11:57:10Z</time>
      </trkpt>
      <trkpt lat="43.568" lon="6.646">
        <ele>192.711533</ele>
        <time>2011-01-23T11:57:20Z</time>
      </trkpt>
      <trkpt lat="43.56819" lon="6.64711">
        <ele>197.190628</ele>
        <time>2011-01-23T11:57:41Z</time>
      </trkpt>
      <trkpt lat="43.56832" lon="6.64765">
        <ele>198.330261</ele>
        <time>2011-01-23T11:57:52Z</time>
      </trkpt>
      <trkpt lat="43.56843" lon="6.64778">
        <ele>199.087753</ele>
        <time>2011-01-23T11:57:57Z</time>
      </trkpt>
      <trkpt lat="43.56845" lon="6.6478">
        <ele>199.132172</ele>
        <time>2011-01-23T11:57:58Z</time>
      </trkpt>
      <trkpt lat="43.56847" lon="6.64789">
        <ele>199.335724</ele>
        <time>2011-01-23T11:58:01Z</time>
      </trkpt>
      <trkpt lat="43.56849" lon="6.64793">
        <ele>199.319061</ele>
        <time>2011-01-23T11:58:02Z</time>
      </trkpt>
      <trkpt lat="43.56867" lon="6.64879">
        <ele>200.384705</ele>
        <time>2011-01-23T11:58:26Z</time>
      </trkpt>
      <trkpt lat="43.56869" lon="6.64887">
        <ele>200.920425</ele>
        <time>2011-01-23T11:58:29Z</time>
      </trkpt>
      <trkpt lat="43.56877" lon="6.6492">
        <ele>204.030136</ele>
        <time>2011-01-23T11:58:38Z</time>
      </trkpt>
      <trkpt lat="43.56875" lon="6.6493">
        <ele>204.311279</ele>
        <time>2011-01-23T11:58:41Z</time>
      </trkpt>
      <trkpt lat="43.56873" lon="6.64932">
        <ele>204.12114</ele>
        <time>2011-01-23T11:58:42Z</time>
      </trkpt>
      <trkpt lat="43.56873" lon="6.64941">
        <ele>204.619308</ele>
        <time>2011-01-23T11:58:44Z</time>
      </trkpt>
      <trkpt lat="43.56873" lon="6.6495">
        <ele>205.113251</ele>
        <time>2011-01-23T11:58:47Z</time>
      </trkpt>
      <trkpt lat="43.56873" lon="6.64956">
        <ele>205.498947</ele>
        <time>2011-01-23T11:58:49Z</time>
      </trkpt>
      <trkpt lat="43.56873" lon="6.64963">
        <ele>205.949219</ele>
        <time>2011-01-23T11:58:51Z</time>
      </trkpt>
      <trkpt lat="43.56875" lon="6.64969">
        <ele>206.675095</ele>
        <time>2011-01-23T11:58:54Z</time>
      </trkpt>
      <trkpt lat="43.56882" lon="6.65003">
        <ele>209.90332</ele>
        <time>2011-01-23T11:59:04Z</time>
      </trkpt>
      <trkpt lat="43.56873" lon="6.65051">
        <ele>211.289368</ele>
        <time>2011-01-23T11:59:17Z</time>
      </trkpt>
      <trkpt lat="43.56873" lon="6.6507">
        <ele>212.162064</ele>
        <time>2011-01-23T11:59:23Z</time>
      </trkpt>
      <trkpt lat="43.56867" lon="6.65117">
        <ele>213.516022</ele>
        <time>2011-01-23T11:59:40Z</time>
      </trkpt>
      <trkpt lat="43.56869" lon="6.65138">
        <ele>214.413483</ele>
        <time>2011-01-23T11:59:47Z</time>
      </trkpt>
      <trkpt lat="43.56858" lon="6.65216">
        <ele>217.007446</ele>
        <time>2011-01-23T12:00:07Z</time>
      </trkpt>
      <trkpt lat="43.56858" lon="6.65229">
        <ele>217.271118</ele>
        <time>2011-01-23T12:00:11Z</time>
      </trkpt>
      <trkpt lat="43.5686" lon="6.65241">
        <ele>217.519348</ele>
        <time>2011-01-23T12:00:16Z</time>
      </trkpt>
      <trkpt lat="43.56862" lon="6.65257">
        <ele>217.841141</ele>
        <time>2011-01-23T12:00:23Z</time>
      </trkpt>
      <trkpt lat="43.56867" lon="6.65272">
        <ele>218.184616</ele>
        <time>2011-01-23T12:00:29Z</time>
      </trkpt>
      <trkpt lat="43.56869" lon="6.65284">
        <ele>218.465179</ele>
        <time>2011-01-23T12:00:34Z</time>
      </trkpt>
      <trkpt lat="43.56869" lon="6.65299">
        <ele>218.797836</ele>
        <time>2011-01-23T12:00:40Z</time>
      </trkpt>
      <trkpt lat="43.56852" lon="6.65329">
        <ele>219.663147</ele>
        <time>2011-01-23T12:00:52Z</time>
      </trkpt>
      <trkpt lat="43.56847" lon="6.65357">
        <ele>219.277817</ele>
        <time>2011-01-23T12:00:59Z</time>
      </trkpt>
      <trkpt lat="43.56843" lon="6.65375">
        <ele>219.075348</ele>
        <time>2011-01-23T12:01:04Z</time>
      </trkpt>
      <trkpt lat="43.56832" lon="6.65441">
        <ele>218.402039</ele>
        <time>2011-01-23T12:01:23Z</time>
      </trkpt>
      <trkpt lat="43.56826" lon="6.6546">
        <ele>218.572296</ele>
        <time>2011-01-23T12:01:29Z</time>
      </trkpt>
      <trkpt lat="43.56824" lon="6.65478">
        <ele>218.340332</ele>
        <time>2011-01-23T12:01:34Z</time>
      </trkpt>
      <trkpt lat="43.56815" lon="6.65501">
        <ele>217.801926</ele>
        <time>2011-01-23T12:01:39Z</time>
      </trkpt>
      <trkpt lat="43.56813" lon="6.6551">
        <ele>217.505234</ele>
        <time>2011-01-23T12:01:41Z</time>
      </trkpt>
      <trkpt lat="43.56807" lon="6.65529">
        <ele>216.819458</ele>
        <time>2011-01-23T12:01:45Z</time>
      </trkpt>
      <trkpt lat="43.56794" lon="6.65565">
        <ele>214.800995</ele>
        <time>2011-01-23T12:01:53Z</time>
      </trkpt>
      <trkpt lat="43.56785" lon="6.65581">
        <ele>214.004837</ele>
        <time>2011-01-23T12:01:57Z</time>
      </trkpt>
      <trkpt lat="43.56774" lon="6.65598">
        <ele>213.22139</ele>
        <time>2011-01-23T12:02:02Z</time>
      </trkpt>
      <trkpt lat="43.56746" lon="6.65628">
        <ele>210.772873</ele>
        <time>2011-01-23T12:02:10Z</time>
      </trkpt>
      <trkpt lat="43.56727" lon="6.6566">
        <ele>209.247528</ele>
        <time>2011-01-23T12:02:15Z</time>
      </trkpt>
      <trkpt lat="43.56712" lon="6.65671">
        <ele>207.240723</ele>
        <time>2011-01-23T12:02:18Z</time>
      </trkpt>
      <trkpt lat="43.56693" lon="6.65675">
        <ele>204.378769</ele>
        <time>2011-01-23T12:02:21Z</time>
      </trkpt>
      <trkpt lat="43.5668" lon="6.65679">
        <ele>202.866165</ele>
        <time>2011-01-23T12:02:23Z</time>
      </trkpt>
      <trkpt lat="43.56658" lon="6.65686">
        <ele>200.459763</ele>
        <time>2011-01-23T12:02:26Z</time>
      </trkpt>
      <trkpt lat="43.56626" lon="6.65699">
        <ele>198.915192</ele>
        <time>2011-01-23T12:02:31Z</time>
      </trkpt>
      <trkpt lat="43.56601" lon="6.65709">
        <ele>197.977005</ele>
        <time>2011-01-23T12:02:35Z</time>
      </trkpt>
      <trkpt lat="43.56588" lon="6.65709">
        <ele>197.921356</ele>
        <time>2011-01-23T12:02:38Z</time>
      </trkpt>
      <trkpt lat="43.56588" lon="6.65707">
        <ele>197.990692</ele>
        <time>2011-01-23T12:02:39Z</time>
      </trkpt>
      <trkpt lat="43.56579" lon="6.65714">
        <ele>197.761688</ele>
        <time>2011-01-23T12:02:44Z</time>
      </trkpt>
      <trkpt lat="43.56579" lon="6.65714">
        <ele>197.761688</ele>
        <time>2011-01-23T12:02:45Z</time>
      </trkpt>
      <trkpt lat="43.56586" lon="6.65711">
        <ele>197.846771</ele>
        <time>2011-01-23T12:02:52Z</time>
      </trkpt>
      <trkpt lat="43.5659" lon="6.65716">
        <ele>197.718582</ele>
        <time>2011-01-23T12:02:54Z</time>
      </trkpt>
      <trkpt lat="43.56592" lon="6.65718">
        <ele>197.654495</ele>
        <time>2011-01-23T12:02:55Z</time>
      </trkpt>
      <trkpt lat="43.56594" lon="6.65722">
        <ele>197.521072</ele>
        <time>2011-01-23T12:02:57Z</time>
      </trkpt>
      <trkpt lat="43.56605" lon="6.65735">
        <ele>197.505859</ele>
        <time>2011-01-23T12:03:12Z</time>
      </trkpt>
      <trkpt lat="43.56607" lon="6.65735">
        <ele>197.643326</ele>
        <time>2011-01-23T12:03:29Z</time>
      </trkpt>
      <trkpt lat="43.56605" lon="6.65739">
        <ele>197.414505</ele>
        <time>2011-01-23T12:03:34Z</time>
      </trkpt>
      <trkpt lat="43.5659" lon="6.65726">
        <ele>197.371902</ele>
        <time>2011-01-23T12:03:39Z</time>
      </trkpt>
      <trkpt lat="43.56573" lon="6.65716">
        <ele>197.67662</ele>
        <time>2011-01-23T12:03:45Z</time>
      </trkpt>
      <trkpt lat="43.5654" lon="6.65707">
        <ele>198.096161</ele>
        <time>2011-01-23T12:03:53Z</time>
      </trkpt>
      <trkpt lat="43.56489" lon="6.6566">
        <ele>197.557831</ele>
        <time>2011-01-23T12:04:11Z</time>
      </trkpt>
      <trkpt lat="43.56487" lon="6.6566">
        <ele>197.489624</ele>
        <time>2011-01-23T12:04:12Z</time>
      </trkpt>
      <trkpt lat="43.56487" lon="6.6566">
        <ele>197.489624</ele>
        <time>2011-01-23T12:04:14Z</time>
      </trkpt>
      <trkpt lat="43.56489" lon="6.6566">
        <ele>197.557831</ele>
        <time>2011-01-23T12:04:17Z</time>
      </trkpt>
      <trkpt lat="43.56491" lon="6.65662">
        <ele>197.607803</ele>
        <time>2011-01-23T12:05:13Z</time>
      </trkpt>
      <trkpt lat="43.56491" lon="6.65662">
        <ele>197.607803</ele>
        <time>2011-01-23T12:05:40Z</time>
      </trkpt>
      <trkpt lat="43.56483" lon="6.65658">
        <ele>197.354279</ele>
        <time>2011-01-23T12:05:46Z</time>
      </trkpt>
      <trkpt lat="43.56455" lon="6.65632">
        <ele>196.158539</ele>
        <time>2011-01-23T12:05:58Z</time>
      </trkpt>
      <trkpt lat="43.56412" lon="6.65608">
        <ele>195.361084</ele>
        <time>2011-01-23T12:06:02Z</time>
      </trkpt>
      <trkpt lat="43.56386" lon="6.656">
        <ele>195.85228</ele>
        <time>2011-01-23T12:06:11Z</time>
      </trkpt>
      <trkpt lat="43.56377" lon="6.65598">
        <ele>195.993286</ele>
        <time>2011-01-23T12:06:16Z</time>
      </trkpt>
      <trkpt lat="43.56362" lon="6.65596">
        <ele>195.968658</ele>
        <time>2011-01-23T12:06:24Z</time>
      </trkpt>
      <trkpt lat="43.56354" lon="6.65604">
        <ele>196.070908</ele>
        <time>2011-01-23T12:06:30Z</time>
      </trkpt>
      <trkpt lat="43.56349" lon="6.65615">
        <ele>196.197281</ele>
        <time>2011-01-23T12:06:35Z</time>
      </trkpt>
      <trkpt lat="43.56347" lon="6.65628">
        <ele>196.352203</ele>
        <time>2011-01-23T12:06:41Z</time>
      </trkpt>
      <trkpt lat="43.56345" lon="6.65636">
        <ele>196.475021</ele>
        <time>2011-01-23T12:06:46Z</time>
      </trkpt>
      <trkpt lat="43.56339" lon="6.65645">
        <ele>196.689774</ele>
        <time>2011-01-23T12:06:52Z</time>
      </trkpt>
      <trkpt lat="43.5633" lon="6.65653">
        <ele>196.992249</ele>
        <time>2011-01-23T12:06:58Z</time>
      </trkpt>
      <trkpt lat="43.56315" lon="6.65675">
        <ele>198.104858</ele>
        <time>2011-01-23T12:07:10Z</time>
      </trkpt>
      <trkpt lat="43.56309" lon="6.65681">
        <ele>198.564774</ele>
        <time>2011-01-23T12:07:16Z</time>
      </trkpt>
      <trkpt lat="43.56304" lon="6.65684">
        <ele>198.80162</ele>
        <time>2011-01-23T12:07:19Z</time>
      </trkpt>
      <trkpt lat="43.56298" lon="6.65684">
        <ele>199.033295</ele>
        <time>2011-01-23T12:07:24Z</time>
      </trkpt>
      <trkpt lat="43.56292" lon="6.65686">
        <ele>199.363922</ele>
        <time>2011-01-23T12:07:29Z</time>
      </trkpt>
      <trkpt lat="43.56285" lon="6.65694">
        <ele>200.01033</ele>
        <time>2011-01-23T12:07:35Z</time>
      </trkpt>
      <trkpt lat="43.56277" lon="6.65699">
        <ele>200.622955</ele>
        <time>2011-01-23T12:07:41Z</time>
      </trkpt>
      <trkpt lat="43.56272" lon="6.65703">
        <ele>201.113464</ele>
        <time>2011-01-23T12:07:46Z</time>
      </trkpt>
      <trkpt lat="43.56261" lon="6.65709">
        <ele>202.238663</ele>
        <time>2011-01-23T12:07:54Z</time>
      </trkpt>
      <trkpt lat="43.56257" lon="6.65711">
        <ele>202.71315</ele>
        <time>2011-01-23T12:07:58Z</time>
      </trkpt>
      <trkpt lat="43.56257" lon="6.65711">
        <ele>202.71315</ele>
        <time>2011-01-23T12:07:59Z</time>
      </trkpt>
      <trkpt lat="43.56251" lon="6.65714">
        <ele>203.30809</ele>
        <time>2011-01-23T12:08:05Z</time>
      </trkpt>
      <trkpt lat="43.56246" lon="6.65718">
        <ele>203.822372</ele>
        <time>2011-01-23T12:08:10Z</time>
      </trkpt>
      <trkpt lat="43.56242" lon="6.65724">
        <ele>204.535751</ele>
        <time>2011-01-23T12:08:16Z</time>
      </trkpt>
      <trkpt lat="43.56244" lon="6.65731">
        <ele>204.642624</ele>
        <time>2011-01-23T12:08:21Z</time>
      </trkpt>
      <trkpt lat="43.56246" lon="6.65737">
        <ele>204.684525</ele>
        <time>2011-01-23T12:08:27Z</time>
      </trkpt>
      <trkpt lat="43.56246" lon="6.65741">
        <ele>204.867386</ele>
        <time>2011-01-23T12:08:30Z</time>
      </trkpt>
      <trkpt lat="43.56251" lon="6.65748">
        <ele>204.505325</ele>
        <time>2011-01-23T12:08:35Z</time>
      </trkpt>
      <trkpt lat="43.56253" lon="6.65756">
        <ele>204.42041</ele>
        <time>2011-01-23T12:08:41Z</time>
      </trkpt>
      <trkpt lat="43.56251" lon="6.65763">
        <ele>204.96524</ele>
        <time>2011-01-23T12:08:46Z</time>
      </trkpt>
      <trkpt lat="43.56244" lon="6.65776">
        <ele>206.332138</ele>
        <time>2011-01-23T12:08:58Z</time>
      </trkpt>
      <trkpt lat="43.56238" lon="6.65784">
        <ele>206.370651</ele>
        <time>2011-01-23T12:09:05Z</time>
      </trkpt>
      <trkpt lat="43.56225" lon="6.65789">
        <ele>208.898941</ele>
        <time>2011-01-23T12:09:16Z</time>
      </trkpt>
      <trkpt lat="43.56216" lon="6.65793">
        <ele>210.417892</ele>
        <time>2011-01-23T12:09:23Z</time>
      </trkpt>
      <trkpt lat="43.56212" lon="6.65795">
        <ele>211.166183</ele>
        <time>2011-01-23T12:09:28Z</time>
      </trkpt>
      <trkpt lat="43.56195" lon="6.65802">
        <ele>214.415604</ele>
        <time>2011-01-23T12:09:41Z</time>
      </trkpt>
      <trkpt lat="43.56189" lon="6.65804">
        <ele>215.486328</ele>
        <time>2011-01-23T12:09:47Z</time>
      </trkpt>
      <trkpt lat="43.56182" lon="6.65804">
        <ele>216.632538</ele>
        <time>2011-01-23T12:09:53Z</time>
      </trkpt>
      <trkpt lat="43.56154" lon="6.65808">
        <ele>221.601486</ele>
        <time>2011-01-23T12:10:16Z</time>
      </trkpt>
      <trkpt lat="43.56154" lon="6.65806">
        <ele>221.705048</ele>
        <time>2011-01-23T12:10:17Z</time>
      </trkpt>
      <trkpt lat="43.56135" lon="6.65806">
        <ele>225.359802</ele>
        <time>2011-01-23T12:10:32Z</time>
      </trkpt>
      <trkpt lat="43.56124" lon="6.65806">
        <ele>227.357864</ele>
        <time>2011-01-23T12:10:40Z</time>
      </trkpt>
      <trkpt lat="43.56116" lon="6.65808">
        <ele>229.127991</ele>
        <time>2011-01-23T12:10:46Z</time>
      </trkpt>
      <trkpt lat="43.56109" lon="6.65799">
        <ele>229.70723</ele>
        <time>2011-01-23T12:10:53Z</time>
      </trkpt>
      <trkpt lat="43.56103" lon="6.65797">
        <ele>230.63446</ele>
        <time>2011-01-23T12:10:59Z</time>
      </trkpt>
      <trkpt lat="43.56096" lon="6.65795">
        <ele>231.215317</ele>
        <time>2011-01-23T12:11:05Z</time>
      </trkpt>
      <trkpt lat="43.56094" lon="6.65795">
        <ele>231.460129</ele>
        <time>2011-01-23T12:11:07Z</time>
      </trkpt>
      <trkpt lat="43.56092" lon="6.65797">
        <ele>231.990372</ele>
        <time>2011-01-23T12:11:09Z</time>
      </trkpt>
      <trkpt lat="43.5609" lon="6.65799">
        <ele>232.544495</ele>
        <time>2011-01-23T12:11:11Z</time>
      </trkpt>
      <trkpt lat="43.56083" lon="6.65806">
        <ele>234.350281</ele>
        <time>2011-01-23T12:11:17Z</time>
      </trkpt>
      <trkpt lat="43.56081" lon="6.65817">
        <ele>236.337601</ele>
        <time>2011-01-23T12:11:23Z</time>
      </trkpt>
      <trkpt lat="43.56079" lon="6.65821">
        <ele>237.396347</ele>
        <time>2011-01-23T12:11:26Z</time>
      </trkpt>
      <trkpt lat="43.56079" lon="6.65823">
        <ele>237.738129</ele>
        <time>2011-01-23T12:11:28Z</time>
      </trkpt>
      <trkpt lat="43.56075" lon="6.65832">
        <ele>236.984161</ele>
        <time>2011-01-23T12:11:34Z</time>
      </trkpt>
      <trkpt lat="43.56071" lon="6.65838">
        <ele>236.84462</ele>
        <time>2011-01-23T12:11:41Z</time>
      </trkpt>
      <trkpt lat="43.5606" lon="6.65847">
        <ele>238.405106</ele>
        <time>2011-01-23T12:11:52Z</time>
      </trkpt>
      <trkpt lat="43.56053" lon="6.65847">
        <ele>240.115326</ele>
        <time>2011-01-23T12:11:58Z</time>
      </trkpt>
      <trkpt lat="43.56047" lon="6.65844">
        <ele>241.436371</ele>
        <time>2011-01-23T12:12:04Z</time>
      </trkpt>
      <trkpt lat="43.56043" lon="6.6584">
        <ele>242.386765</ele>
        <time>2011-01-23T12:12:10Z</time>
      </trkpt>
      <trkpt lat="43.56034" lon="6.65838">
        <ele>243.83577</ele>
        <time>2011-01-23T12:12:17Z</time>
      </trkpt>
      <trkpt lat="43.5603" lon="6.65838">
        <ele>244.533707</ele>
        <time>2011-01-23T12:12:20Z</time>
      </trkpt>
      <trkpt lat="43.56025" lon="6.6584">
        <ele>245.301498</ele>
        <time>2011-01-23T12:12:23Z</time>
      </trkpt>
      <trkpt lat="43.56019" lon="6.65847">
        <ele>246.770935</ele>
        <time>2011-01-23T12:12:28Z</time>
      </trkpt>
      <trkpt lat="43.56013" lon="6.65849">
        <ele>248.259109</ele>
        <time>2011-01-23T12:12:35Z</time>
      </trkpt>
      <trkpt lat="43.56006" lon="6.65853">
        <ele>249.720642</ele>
        <time>2011-01-23T12:12:41Z</time>
      </trkpt>
      <trkpt lat="43.55993" lon="6.65857">
        <ele>251.660568</ele>
        <time>2011-01-23T12:12:54Z</time>
      </trkpt>
      <trkpt lat="43.55989" lon="6.65859">
        <ele>252.467804</ele>
        <time>2011-01-23T12:12:59Z</time>
      </trkpt>
      <trkpt lat="43.55983" lon="6.65859">
        <ele>253.284744</ele>
        <time>2011-01-23T12:13:04Z</time>
      </trkpt>
      <trkpt lat="43.55976" lon="6.65859">
        <ele>254.115204</ele>
        <time>2011-01-23T12:13:10Z</time>
      </trkpt>
      <trkpt lat="43.5597" lon="6.65862">
        <ele>255.33725</ele>
        <time>2011-01-23T12:13:16Z</time>
      </trkpt>
      <trkpt lat="43.55957" lon="6.65866">
        <ele>256.926758</ele>
        <time>2011-01-23T12:13:28Z</time>
      </trkpt>
      <trkpt lat="43.5595" lon="6.65868">
        <ele>257.286133</ele>
        <time>2011-01-23T12:13:34Z</time>
      </trkpt>
      <trkpt lat="43.55942" lon="6.65866">
        <ele>256.76944</ele>
        <time>2011-01-23T12:13:40Z</time>
      </trkpt>
      <trkpt lat="43.55935" lon="6.6587">
        <ele>257.585297</ele>
        <time>2011-01-23T12:13:46Z</time>
      </trkpt>
      <trkpt lat="43.55927" lon="6.6587">
        <ele>257.51709</ele>
        <time>2011-01-23T12:13:52Z</time>
      </trkpt>
      <trkpt lat="43.55918" lon="6.65879">
        <ele>257.905121</ele>
        <time>2011-01-23T12:13:59Z</time>
      </trkpt>
      <trkpt lat="43.55901" lon="6.65905">
        <ele>258.458588</ele>
        <time>2011-01-23T12:14:11Z</time>
      </trkpt>
      <trkpt lat="43.5588" lon="6.6592">
        <ele>261.467712</ele>
        <time>2011-01-23T12:14:22Z</time>
      </trkpt>
      <trkpt lat="43.55869" lon="6.65926">
        <ele>263.248169</ele>
        <time>2011-01-23T12:14:28Z</time>
      </trkpt>
      <trkpt lat="43.55854" lon="6.65937">
        <ele>262.734192</ele>
        <time>2011-01-23T12:14:38Z</time>
      </trkpt>
      <trkpt lat="43.55847" lon="6.65943">
        <ele>262.217499</ele>
        <time>2011-01-23T12:14:42Z</time>
      </trkpt>
      <trkpt lat="43.55845" lon="6.65945">
        <ele>262.10672</ele>
        <time>2011-01-23T12:14:44Z</time>
      </trkpt>
      <trkpt lat="43.55839" lon="6.65954">
        <ele>261.894897</ele>
        <time>2011-01-23T12:14:47Z</time>
      </trkpt>
      <trkpt lat="43.5583" lon="6.65971">
        <ele>262.13327</ele>
        <time>2011-01-23T12:14:51Z</time>
      </trkpt>
      <trkpt lat="43.55817" lon="6.66031">
        <ele>266.625214</ele>
        <time>2011-01-23T12:15:11Z</time>
      </trkpt>
      <trkpt lat="43.55811" lon="6.6607">
        <ele>271.930115</ele>
        <time>2011-01-23T12:15:27Z</time>
      </trkpt>
      <trkpt lat="43.55811" lon="6.66074">
        <ele>272.777557</ele>
        <time>2011-01-23T12:15:29Z</time>
      </trkpt>
      <trkpt lat="43.55807" lon="6.66083">
        <ele>274.153992</ele>
        <time>2011-01-23T12:15:34Z</time>
      </trkpt>
      <trkpt lat="43.558" lon="6.66091">
        <ele>275.371216</ele>
        <time>2011-01-23T12:15:39Z</time>
      </trkpt>
      <trkpt lat="43.558" lon="6.66095">
        <ele>276.218658</ele>
        <time>2011-01-23T12:15:41Z</time>
      </trkpt>
      <trkpt lat="43.55785" lon="6.66134">
        <ele>279.885345</ele>
        <time>2011-01-23T12:15:59Z</time>
      </trkpt>
      <trkpt lat="43.55777" lon="6.66149">
        <ele>280.912476</ele>
        <time>2011-01-23T12:16:10Z</time>
      </trkpt>
      <trkpt lat="43.55774" lon="6.6616">
        <ele>281.884552</ele>
        <time>2011-01-23T12:16:17Z</time>
      </trkpt>
      <trkpt lat="43.55772" lon="6.66168">
        <ele>282.721069</ele>
        <time>2011-01-23T12:16:22Z</time>
      </trkpt>
      <trkpt lat="43.55772" lon="6.66177">
        <ele>283.227356</ele>
        <time>2011-01-23T12:16:28Z</time>
      </trkpt>
      <trkpt lat="43.55774" lon="6.66188">
        <ele>283.462585</ele>
        <time>2011-01-23T12:16:34Z</time>
      </trkpt>
      <trkpt lat="43.55777" lon="6.66198">
        <ele>283.48288</ele>
        <time>2011-01-23T12:16:41Z</time>
      </trkpt>
      <trkpt lat="43.55779" lon="6.66207">
        <ele>283.274261</ele>
        <time>2011-01-23T12:16:47Z</time>
      </trkpt>
      <trkpt lat="43.55781" lon="6.66216">
        <ele>282.900055</ele>
        <time>2011-01-23T12:16:52Z</time>
      </trkpt>
      <trkpt lat="43.55777" lon="6.66239">
        <ele>283.596954</ele>
        <time>2011-01-23T12:17:04Z</time>
      </trkpt>
      <trkpt lat="43.55768" lon="6.66256">
        <ele>285.18927</ele>
        <time>2011-01-23T12:17:16Z</time>
      </trkpt>
      <trkpt lat="43.55762" lon="6.66263">
        <ele>285.607025</ele>
        <time>2011-01-23T12:17:21Z</time>
      </trkpt>
      <trkpt lat="43.55742" lon="6.66271">
        <ele>287.97113</ele>
        <time>2011-01-23T12:17:35Z</time>
      </trkpt>
      <trkpt lat="43.55727" lon="6.6628">
        <ele>290.832184</ele>
        <time>2011-01-23T12:17:47Z</time>
      </trkpt>
      <trkpt lat="43.55719" lon="6.6628">
        <ele>291.961578</ele>
        <time>2011-01-23T12:17:53Z</time>
      </trkpt>
      <trkpt lat="43.55714" lon="6.66282">
        <ele>292.536835</ele>
        <time>2011-01-23T12:17:58Z</time>
      </trkpt>
      <trkpt lat="43.55706" lon="6.66284">
        <ele>293.532135</ele>
        <time>2011-01-23T12:18:04Z</time>
      </trkpt>
      <trkpt lat="43.55699" lon="6.66293">
        <ele>295.267548</ele>
        <time>2011-01-23T12:18:11Z</time>
      </trkpt>
      <trkpt lat="43.55697" lon="6.66299">
        <ele>296.05072</ele>
        <time>2011-01-23T12:18:16Z</time>
      </trkpt>
      <trkpt lat="43.55693" lon="6.66306">
        <ele>297.149719</ele>
        <time>2011-01-23T12:18:22Z</time>
      </trkpt>
      <trkpt lat="43.55682" lon="6.66325">
        <ele>300.681549</ele>
        <time>2011-01-23T12:18:35Z</time>
      </trkpt>
      <trkpt lat="43.5568" lon="6.66334">
        <ele>302.009003</ele>
        <time>2011-01-23T12:18:41Z</time>
      </trkpt>
      <trkpt lat="43.5568" lon="6.6634">
        <ele>302.733093</ele>
        <time>2011-01-23T12:18:46Z</time>
      </trkpt>
      <trkpt lat="43.55678" lon="6.66351">
        <ele>304.101501</ele>
        <time>2011-01-23T12:18:53Z</time>
      </trkpt>
      <trkpt lat="43.55669" lon="6.66368">
        <ele>303.025818</ele>
        <time>2011-01-23T12:19:04Z</time>
      </trkpt>
      <trkpt lat="43.55663" lon="6.66381">
        <ele>301.910889</ele>
        <time>2011-01-23T12:19:10Z</time>
      </trkpt>
      <trkpt lat="43.55648" lon="6.66392">
        <ele>301.715485</ele>
        <time>2011-01-23T12:19:15Z</time>
      </trkpt>
      <trkpt lat="43.55618" lon="6.66404">
        <ele>301.716827</ele>
        <time>2011-01-23T12:19:22Z</time>
      </trkpt>
      <trkpt lat="43.55598" lon="6.66413">
        <ele>299.914948</ele>
        <time>2011-01-23T12:19:27Z</time>
      </trkpt>
      <trkpt lat="43.55594" lon="6.66413">
        <ele>299.748627</ele>
        <time>2011-01-23T12:19:28Z</time>
      </trkpt>
      <trkpt lat="43.55577" lon="6.66443">
        <ele>296.658264</ele>
        <time>2011-01-23T12:19:34Z</time>
      </trkpt>
      <trkpt lat="43.55575" lon="6.6645">
        <ele>296.038086</ele>
        <time>2011-01-23T12:19:35Z</time>
      </trkpt>
      <trkpt lat="43.55573" lon="6.6646">
        <ele>295.09903</ele>
        <time>2011-01-23T12:19:37Z</time>
      </trkpt>
      <trkpt lat="43.55571" lon="6.6648">
        <ele>293.41687</ele>
        <time>2011-01-23T12:19:40Z</time>
      </trkpt>
      <trkpt lat="43.55564" lon="6.6652">
        <ele>290.077911</ele>
        <time>2011-01-23T12:19:46Z</time>
      </trkpt>
      <trkpt lat="43.55553" lon="6.6654">
        <ele>289.036011</ele>
        <time>2011-01-23T12:19:49Z</time>
      </trkpt>
      <trkpt lat="43.55536" lon="6.66555">
        <ele>289.49646</ele>
        <time>2011-01-23T12:19:53Z</time>
      </trkpt>
      <trkpt lat="43.5547" lon="6.66595">
        <ele>287.439362</ele>
        <time>2011-01-23T12:20:10Z</time>
      </trkpt>
      <trkpt lat="43.55463" lon="6.66621">
        <ele>284.331146</ele>
        <time>2011-01-23T12:20:15Z</time>
      </trkpt>
      <trkpt lat="43.55461" lon="6.66625">
        <ele>283.81427</ele>
        <time>2011-01-23T12:20:16Z</time>
      </trkpt>
      <trkpt lat="43.5545" lon="6.66636">
        <ele>282.531677</ele>
        <time>2011-01-23T12:20:19Z</time>
      </trkpt>
      <trkpt lat="43.55446" lon="6.66638">
        <ele>282.2836</ele>
        <time>2011-01-23T12:20:20Z</time>
      </trkpt>
      <trkpt lat="43.55433" lon="6.66647">
        <ele>280.766052</ele>
        <time>2011-01-23T12:20:23Z</time>
      </trkpt>
      <trkpt lat="43.55418" lon="6.66662">
        <ele>277.831757</ele>
        <time>2011-01-23T12:20:27Z</time>
      </trkpt>
      <trkpt lat="43.5541" lon="6.66673">
        <ele>276.323212</ele>
        <time>2011-01-23T12:20:29Z</time>
      </trkpt>
      <trkpt lat="43.55405" lon="6.66677">
        <ele>275.790222</ele>
        <time>2011-01-23T12:20:30Z</time>
      </trkpt>
      <trkpt lat="43.55386" lon="6.66698">
        <ele>273.756042</ele>
        <time>2011-01-23T12:20:35Z</time>
      </trkpt>
      <trkpt lat="43.55371" lon="6.66718">
        <ele>272.52829</ele>
        <time>2011-01-23T12:20:39Z</time>
      </trkpt>
      <trkpt lat="43.55367" lon="6.66726">
        <ele>272.275787</ele>
        <time>2011-01-23T12:20:41Z</time>
      </trkpt>
      <trkpt lat="43.55358" lon="6.66744">
        <ele>271.998108</ele>
        <time>2011-01-23T12:20:46Z</time>
      </trkpt>
      <trkpt lat="43.55356" lon="6.66746">
        <ele>271.970032</ele>
        <time>2011-01-23T12:20:47Z</time>
      </trkpt>
      <trkpt lat="43.5535" lon="6.66752">
        <ele>271.947235</ele>
        <time>2011-01-23T12:20:50Z</time>
      </trkpt>
      <trkpt lat="43.5535" lon="6.66754">
        <ele>271.966888</ele>
        <time>2011-01-23T12:20:51Z</time>
      </trkpt>
      <trkpt lat="43.55328" lon="6.66767">
        <ele>270.902283</ele>
        <time>2011-01-23T12:20:58Z</time>
      </trkpt>
      <trkpt lat="43.55289" lon="6.6675">
        <ele>267.467163</ele>
        <time>2011-01-23T12:21:10Z</time>
      </trkpt>
      <trkpt lat="43.55285" lon="6.66752">
        <ele>267.159027</ele>
        <time>2011-01-23T12:21:11Z</time>
      </trkpt>
      <trkpt lat="43.55272" lon="6.66761">
        <ele>266.732697</ele>
        <time>2011-01-23T12:21:15Z</time>
      </trkpt>
      <trkpt lat="43.55257" lon="6.66776">
        <ele>266.555054</ele>
        <time>2011-01-23T12:21:22Z</time>
      </trkpt>
      <trkpt lat="43.55251" lon="6.66776">
        <ele>266.09082</ele>
        <time>2011-01-23T12:21:25Z</time>
      </trkpt>
      <trkpt lat="43.55247" lon="6.66774">
        <ele>265.480164</ele>
        <time>2011-01-23T12:21:26Z</time>
      </trkpt>
      <trkpt lat="43.55234" lon="6.66793">
        <ele>264.889771</ele>
        <time>2011-01-23T12:21:34Z</time>
      </trkpt>
      <trkpt lat="43.55232" lon="6.66797">
        <ele>264.824219</ele>
        <time>2011-01-23T12:21:35Z</time>
      </trkpt>
      <trkpt lat="43.55227" lon="6.66814">
        <ele>264.79538</ele>
        <time>2011-01-23T12:21:41Z</time>
      </trkpt>
      <trkpt lat="43.55225" lon="6.66825">
        <ele>264.260925</ele>
        <time>2011-01-23T12:21:44Z</time>
      </trkpt>
      <trkpt lat="43.55219" lon="6.66836">
        <ele>263.358856</ele>
        <time>2011-01-23T12:21:47Z</time>
      </trkpt>
      <trkpt lat="43.5521" lon="6.66851">
        <ele>262.453003</ele>
        <time>2011-01-23T12:21:50Z</time>
      </trkpt>
      <trkpt lat="43.55199" lon="6.66872">
        <ele>262.017029</ele>
        <time>2011-01-23T12:21:53Z</time>
      </trkpt>
      <trkpt lat="43.55163" lon="6.66934">
        <ele>260.754181</ele>
        <time>2011-01-23T12:22:04Z</time>
      </trkpt>
      <trkpt lat="43.55159" lon="6.66939">
        <ele>260.843079</ele>
        <time>2011-01-23T12:22:06Z</time>
      </trkpt>
      <trkpt lat="43.55154" lon="6.66947">
        <ele>260.61087</ele>
        <time>2011-01-23T12:22:09Z</time>
      </trkpt>
      <trkpt lat="43.55148" lon="6.66956">
        <ele>260.81604</ele>
        <time>2011-01-23T12:22:13Z</time>
      </trkpt>
      <trkpt lat="43.55141" lon="6.66965">
        <ele>261.100616</ele>
        <time>2011-01-23T12:22:17Z</time>
      </trkpt>
      <trkpt lat="43.55137" lon="6.66973">
        <ele>261.11911</ele>
        <time>2011-01-23T12:22:21Z</time>
      </trkpt>
      <trkpt lat="43.55124" lon="6.6699">
        <ele>262.118561</ele>
        <time>2011-01-23T12:22:29Z</time>
      </trkpt>
      <trkpt lat="43.55114" lon="6.67001">
        <ele>263.592407</ele>
        <time>2011-01-23T12:22:35Z</time>
      </trkpt>
      <trkpt lat="43.55105" lon="6.67014">
        <ele>264.375916</ele>
        <time>2011-01-23T12:22:41Z</time>
      </trkpt>
      <trkpt lat="43.55096" lon="6.67022">
        <ele>264.877594</ele>
        <time>2011-01-23T12:22:46Z</time>
      </trkpt>
      <trkpt lat="43.55083" lon="6.67029">
        <ele>265.813629</ele>
        <time>2011-01-23T12:22:53Z</time>
      </trkpt>
      <trkpt lat="43.55075" lon="6.67029">
        <ele>266.604309</ele>
        <time>2011-01-23T12:22:59Z</time>
      </trkpt>
      <trkpt lat="43.55066" lon="6.67027">
        <ele>267.499725</ele>
        <time>2011-01-23T12:23:05Z</time>
      </trkpt>
      <trkpt lat="43.55045" lon="6.67025">
        <ele>268.349792</ele>
        <time>2011-01-23T12:23:17Z</time>
      </trkpt>
      <trkpt lat="43.55015" lon="6.67014">
        <ele>268.948639</ele>
        <time>2011-01-23T12:23:26Z</time>
      </trkpt>
      <trkpt lat="43.54976" lon="6.67001">
        <ele>267.86142</ele>
        <time>2011-01-23T12:23:36Z</time>
      </trkpt>
      <trkpt lat="43.54957" lon="6.66992">
        <ele>267.97229</ele>
        <time>2011-01-23T12:23:47Z</time>
      </trkpt>
      <trkpt lat="43.54957" lon="6.66992">
        <ele>267.97229</ele>
        <time>2011-01-23T12:23:50Z</time>
      </trkpt>
      <trkpt lat="43.5495" lon="6.67005">
        <ele>268.240204</ele>
        <time>2011-01-23T12:23:57Z</time>
      </trkpt>
      <trkpt lat="43.54923" lon="6.67108">
        <ele>268.339294</ele>
        <time>2011-01-23T12:24:29Z</time>
      </trkpt>
      <trkpt lat="43.5491" lon="6.67175">
        <ele>269.596954</ele>
        <time>2011-01-23T12:24:47Z</time>
      </trkpt>
      <trkpt lat="43.54908" lon="6.67186">
        <ele>269.719727</ele>
        <time>2011-01-23T12:24:50Z</time>
      </trkpt>
      <trkpt lat="43.54899" lon="6.67269">
        <ele>271.008118</ele>
        <time>2011-01-23T12:25:13Z</time>
      </trkpt>
      <trkpt lat="43.54897" lon="6.67284">
        <ele>271.117188</ele>
        <time>2011-01-23T12:25:17Z</time>
      </trkpt>
      <trkpt lat="43.54886" lon="6.67325">
        <ele>270.925232</ele>
        <time>2011-01-23T12:25:29Z</time>
      </trkpt>
      <trkpt lat="43.54871" lon="6.67398">
        <ele>270.744141</ele>
        <time>2011-01-23T12:25:47Z</time>
      </trkpt>
      <trkpt lat="43.54862" lon="6.67437">
        <ele>270.379272</ele>
        <time>2011-01-23T12:25:52Z</time>
      </trkpt>
      <trkpt lat="43.54852" lon="6.67482">
        <ele>269.613678</ele>
        <time>2011-01-23T12:25:57Z</time>
      </trkpt>
      <trkpt lat="43.5485" lon="6.67492">
        <ele>269.373047</ele>
        <time>2011-01-23T12:25:58Z</time>
      </trkpt>
      <trkpt lat="43.54841" lon="6.67522">
        <ele>268.567535</ele>
        <time>2011-01-23T12:26:01Z</time>
      </trkpt>
      <trkpt lat="43.5482" lon="6.67613">
        <ele>270.585724</ele>
        <time>2011-01-23T12:26:11Z</time>
      </trkpt>
      <trkpt lat="43.54805" lon="6.6764">
        <ele>271.462708</ele>
        <time>2011-01-23T12:26:18Z</time>
      </trkpt>
      <trkpt lat="43.54777" lon="6.67668">
        <ele>271.716309</ele>
        <time>2011-01-23T12:26:29Z</time>
      </trkpt>
      <trkpt lat="43.5477" lon="6.67673">
        <ele>271.669678</ele>
        <time>2011-01-23T12:26:31Z</time>
      </trkpt>
      <trkpt lat="43.54759" lon="6.67681">
        <ele>271.846375</ele>
        <time>2011-01-23T12:26:35Z</time>
      </trkpt>
      <trkpt lat="43.54732" lon="6.67709">
        <ele>272.658875</ele>
        <time>2011-01-23T12:26:46Z</time>
      </trkpt>
      <trkpt lat="43.54734" lon="6.67724">
        <ele>273.440308</ele>
        <time>2011-01-23T12:26:50Z</time>
      </trkpt>
      <trkpt lat="43.54736" lon="6.67731">
        <ele>273.797943</ele>
        <time>2011-01-23T12:26:52Z</time>
      </trkpt>
      <trkpt lat="43.54742" lon="6.67754">
        <ele>275.082764</ele>
        <time>2011-01-23T12:26:59Z</time>
      </trkpt>
      <trkpt lat="43.54749" lon="6.67776">
        <ele>276.261627</ele>
        <time>2011-01-23T12:27:06Z</time>
      </trkpt>
      <trkpt lat="43.54751" lon="6.67789">
        <ele>276.937103</ele>
        <time>2011-01-23T12:27:10Z</time>
      </trkpt>
      <trkpt lat="43.54753" lon="6.67793">
        <ele>277.188782</ele>
        <time>2011-01-23T12:27:12Z</time>
      </trkpt>
      <trkpt lat="43.54757" lon="6.67812">
        <ele>278.221924</ele>
        <time>2011-01-23T12:27:18Z</time>
      </trkpt>
      <trkpt lat="43.54768" lon="6.67851">
        <ele>281.204895</ele>
        <time>2011-01-23T12:27:31Z</time>
      </trkpt>
      <trkpt lat="43.5477" lon="6.67859">
        <ele>281.939545</ele>
        <time>2011-01-23T12:27:34Z</time>
      </trkpt>
      <trkpt lat="43.54781" lon="6.67887">
        <ele>284.289917</ele>
        <time>2011-01-23T12:27:47Z</time>
      </trkpt>
      <trkpt lat="43.54785" lon="6.67902">
        <ele>285.256378</ele>
        <time>2011-01-23T12:27:53Z</time>
      </trkpt>
      <trkpt lat="43.54789" lon="6.67913">
        <ele>285.890015</ele>
        <time>2011-01-23T12:27:58Z</time>
      </trkpt>
      <trkpt lat="43.548" lon="6.67924">
        <ele>286.533081</ele>
        <time>2011-01-23T12:28:05Z</time>
      </trkpt>
      <trkpt lat="43.54826" lon="6.67941">
        <ele>288.565918</ele>
        <time>2011-01-23T12:28:21Z</time>
      </trkpt>
      <trkpt lat="43.54828" lon="6.67943">
        <ele>288.753174</ele>
        <time>2011-01-23T12:28:23Z</time>
      </trkpt>
      <trkpt lat="43.54856" lon="6.67967">
        <ele>290.568481</ele>
        <time>2011-01-23T12:28:41Z</time>
      </trkpt>
      <trkpt lat="43.54862" lon="6.67975">
        <ele>290.94516</ele>
        <time>2011-01-23T12:28:47Z</time>
      </trkpt>
      <trkpt lat="43.54877" lon="6.6801">
        <ele>292.190918</ele>
        <time>2011-01-23T12:29:04Z</time>
      </trkpt>
      <trkpt lat="43.5489" lon="6.68025">
        <ele>292.833801</ele>
        <time>2011-01-23T12:29:14Z</time>
      </trkpt>
      <trkpt lat="43.54901" lon="6.68035">
        <ele>292.216675</ele>
        <time>2011-01-23T12:29:22Z</time>
      </trkpt>
      <trkpt lat="43.54903" lon="6.68052">
        <ele>291.851227</ele>
        <time>2011-01-23T12:29:26Z</time>
      </trkpt>
      <trkpt lat="43.54901" lon="6.68076">
        <ele>291.648865</ele>
        <time>2011-01-23T12:29:31Z</time>
      </trkpt>
      <trkpt lat="43.54901" lon="6.68089">
        <ele>291.553497</ele>
        <time>2011-01-23T12:29:34Z</time>
      </trkpt>
      <trkpt lat="43.54895" lon="6.68162">
        <ele>293.224365</ele>
        <time>2011-01-23T12:29:52Z</time>
      </trkpt>
      <trkpt lat="43.54892" lon="6.68222">
        <ele>295.289001</ele>
        <time>2011-01-23T12:30:08Z</time>
      </trkpt>
      <trkpt lat="43.54886" lon="6.68327">
        <ele>299.866852</ele>
        <time>2011-01-23T12:30:40Z</time>
      </trkpt>
      <trkpt lat="43.5489" lon="6.68426">
        <ele>301.793274</ele>
        <time>2011-01-23T12:31:10Z</time>
      </trkpt>
      <trkpt lat="43.54897" lon="6.68484">
        <ele>304.244232</ele>
        <time>2011-01-23T12:31:29Z</time>
      </trkpt>
      <trkpt lat="43.54901" lon="6.68507">
        <ele>305.283051</ele>
        <time>2011-01-23T12:31:38Z</time>
      </trkpt>
      <trkpt lat="43.54905" lon="6.68529">
        <ele>306.00589</ele>
        <time>2011-01-23T12:31:46Z</time>
      </trkpt>
      <trkpt lat="43.54905" lon="6.68544">
        <ele>306.653107</ele>
        <time>2011-01-23T12:31:53Z</time>
      </trkpt>
      <trkpt lat="43.54905" lon="6.68559">
        <ele>307.306824</ele>
        <time>2011-01-23T12:31:59Z</time>
      </trkpt>
      <trkpt lat="43.5491" lon="6.68574">
        <ele>307.6492</ele>
        <time>2011-01-23T12:32:05Z</time>
      </trkpt>
      <trkpt lat="43.5491" lon="6.68582">
        <ele>307.996826</ele>
        <time>2011-01-23T12:32:10Z</time>
      </trkpt>
      <trkpt lat="43.54901" lon="6.68578">
        <ele>308.461609</ele>
        <time>2011-01-23T12:32:18Z</time>
      </trkpt>
      <trkpt lat="43.54901" lon="6.68578">
        <ele>308.461609</ele>
        <time>2011-01-23T12:32:23Z</time>
      </trkpt>
      <trkpt lat="43.54901" lon="6.68578">
        <ele>308.461609</ele>
        <time>2011-01-23T12:32:46Z</time>
      </trkpt>
      <trkpt lat="43.54905" lon="6.68582">
        <ele>308.339539</ele>
        <time>2011-01-23T12:32:48Z</time>
      </trkpt>
      <trkpt lat="43.5491" lon="6.68589">
        <ele>308.261993</ele>
        <time>2011-01-23T12:32:51Z</time>
      </trkpt>
      <trkpt lat="43.54914" lon="6.68597">
        <ele>307.821747</ele>
        <time>2011-01-23T12:32:54Z</time>
      </trkpt>
      <trkpt lat="43.54918" lon="6.68604">
        <ele>307.352203</ele>
        <time>2011-01-23T12:32:56Z</time>
      </trkpt>
      <trkpt lat="43.5492" lon="6.68612">
        <ele>307.433929</ele>
        <time>2011-01-23T12:32:58Z</time>
      </trkpt>
      <trkpt lat="43.54927" lon="6.6863">
        <ele>307.402496</ele>
        <time>2011-01-23T12:33:04Z</time>
      </trkpt>
      <trkpt lat="43.54938" lon="6.68733">
        <ele>311.537781</ele>
        <time>2011-01-23T12:33:34Z</time>
      </trkpt>
      <trkpt lat="43.54942" lon="6.68767">
        <ele>312.564331</ele>
        <time>2011-01-23T12:33:44Z</time>
      </trkpt>
      <trkpt lat="43.5494" lon="6.68784">
        <ele>312.859863</ele>
        <time>2011-01-23T12:33:50Z</time>
      </trkpt>
      <trkpt lat="43.5494" lon="6.68793">
        <ele>312.813751</ele>
        <time>2011-01-23T12:33:52Z</time>
      </trkpt>
      <trkpt lat="43.54923" lon="6.68879">
        <ele>312.797791</ele>
        <time>2011-01-23T12:34:13Z</time>
      </trkpt>
      <trkpt lat="43.54923" lon="6.68891">
        <ele>312.284546</ele>
        <time>2011-01-23T12:34:15Z</time>
      </trkpt>
      <trkpt lat="43.54914" lon="6.68939">
        <ele>312.403046</ele>
        <time>2011-01-23T12:34:21Z</time>
      </trkpt>
      <trkpt lat="43.5491" lon="6.69018">
        <ele>315.977386</ele>
        <time>2011-01-23T12:34:35Z</time>
      </trkpt>
      <trkpt lat="43.54905" lon="6.6907">
        <ele>318.594177</ele>
        <time>2011-01-23T12:34:51Z</time>
      </trkpt>
      <trkpt lat="43.54903" lon="6.69095">
        <ele>319.708923</ele>
        <time>2011-01-23T12:34:59Z</time>
      </trkpt>
      <trkpt lat="43.54903" lon="6.69155">
        <ele>322.366333</ele>
        <time>2011-01-23T12:35:20Z</time>
      </trkpt>
      <trkpt lat="43.54905" lon="6.69198">
        <ele>325.648651</ele>
        <time>2011-01-23T12:35:35Z</time>
      </trkpt>
      <trkpt lat="43.54905" lon="6.69218">
        <ele>326.639832</ele>
        <time>2011-01-23T12:35:41Z</time>
      </trkpt>
      <trkpt lat="43.5491" lon="6.69226">
        <ele>326.510651</ele>
        <time>2011-01-23T12:35:45Z</time>
      </trkpt>
      <trkpt lat="43.54912" lon="6.69235">
        <ele>326.727753</ele>
        <time>2011-01-23T12:35:48Z</time>
      </trkpt>
      <trkpt lat="43.54916" lon="6.69282">
        <ele>327.565247</ele>
        <time>2011-01-23T12:36:06Z</time>
      </trkpt>
      <trkpt lat="43.54916" lon="6.69297">
        <ele>327.268646</ele>
        <time>2011-01-23T12:36:10Z</time>
      </trkpt>
      <trkpt lat="43.5492" lon="6.69426">
        <ele>327.970245</ele>
        <time>2011-01-23T12:36:41Z</time>
      </trkpt>
      <trkpt lat="43.5492" lon="6.69451">
        <ele>327.825531</ele>
        <time>2011-01-23T12:36:47Z</time>
      </trkpt>
      <trkpt lat="43.5492" lon="6.69449">
        <ele>327.780121</ele>
        <time>2011-01-23T12:37:18Z</time>
      </trkpt>
      <trkpt lat="43.54925" lon="6.69449">
        <ele>326.716492</ele>
        <time>2011-01-23T12:38:35Z</time>
      </trkpt>
      <trkpt lat="43.54927" lon="6.69466">
        <ele>326.419098</ele>
        <time>2011-01-23T12:38:40Z</time>
      </trkpt>
      <trkpt lat="43.54927" lon="6.69482">
        <ele>326.602203</ele>
        <time>2011-01-23T12:38:46Z</time>
      </trkpt>
      <trkpt lat="43.54914" lon="6.69559">
        <ele>329.202057</ele>
        <time>2011-01-23T12:39:15Z</time>
      </trkpt>
      <trkpt lat="43.54912" lon="6.69565">
        <ele>329.12854</ele>
        <time>2011-01-23T12:39:18Z</time>
      </trkpt>
      <trkpt lat="43.54912" lon="6.69574">
        <ele>329.09845</ele>
        <time>2011-01-23T12:39:21Z</time>
      </trkpt>
      <trkpt lat="43.54912" lon="6.69591">
        <ele>329.360474</ele>
        <time>2011-01-23T12:39:28Z</time>
      </trkpt>
      <trkpt lat="43.54914" lon="6.69612">
        <ele>329.314148</ele>
        <time>2011-01-23T12:39:37Z</time>
      </trkpt>
      <trkpt lat="43.54914" lon="6.69653">
        <ele>331.356354</ele>
        <time>2011-01-23T12:39:52Z</time>
      </trkpt>
      <trkpt lat="43.54903" lon="6.69754">
        <ele>338.124023</ele>
        <time>2011-01-23T12:40:27Z</time>
      </trkpt>
      <trkpt lat="43.54901" lon="6.69769">
        <ele>338.599823</ele>
        <time>2011-01-23T12:40:33Z</time>
      </trkpt>
      <trkpt lat="43.54892" lon="6.69791">
        <ele>340.139954</ele>
        <time>2011-01-23T12:40:44Z</time>
      </trkpt>
      <trkpt lat="43.54886" lon="6.69816">
        <ele>342.2565</ele>
        <time>2011-01-23T12:40:56Z</time>
      </trkpt>
      <trkpt lat="43.54886" lon="6.69818">
        <ele>342.308563</ele>
        <time>2011-01-23T12:40:57Z</time>
      </trkpt>
      <trkpt lat="43.54886" lon="6.6984">
        <ele>342.713776</ele>
        <time>2011-01-23T12:41:08Z</time>
      </trkpt>
      <trkpt lat="43.54886" lon="6.69842">
        <ele>342.755035</ele>
        <time>2011-01-23T12:41:10Z</time>
      </trkpt>
      <trkpt lat="43.54886" lon="6.69861">
        <ele>343.132355</ele>
        <time>2011-01-23T12:41:22Z</time>
      </trkpt>
      <trkpt lat="43.54882" lon="6.69878">
        <ele>344.160431</ele>
        <time>2011-01-23T12:41:31Z</time>
      </trkpt>
      <trkpt lat="43.54871" lon="6.69934">
        <ele>349.060913</ele>
        <time>2011-01-23T12:41:56Z</time>
      </trkpt>
      <trkpt lat="43.54869" lon="6.69949">
        <ele>350.655182</ele>
        <time>2011-01-23T12:42:04Z</time>
      </trkpt>
      <trkpt lat="43.54867" lon="6.69979">
        <ele>353.692566</ele>
        <time>2011-01-23T12:42:17Z</time>
      </trkpt>
      <trkpt lat="43.5486" lon="6.70027">
        <ele>356.842377</ele>
        <time>2011-01-23T12:42:35Z</time>
      </trkpt>
      <trkpt lat="43.54856" lon="6.70042">
        <ele>357.999573</ele>
        <time>2011-01-23T12:42:41Z</time>
      </trkpt>
      <trkpt lat="43.54856" lon="6.70054">
        <ele>357.729187</ele>
        <time>2011-01-23T12:42:46Z</time>
      </trkpt>
      <trkpt lat="43.54856" lon="6.70072">
        <ele>357.394012</ele>
        <time>2011-01-23T12:42:52Z</time>
      </trkpt>
      <trkpt lat="43.54854" lon="6.70185">
        <ele>356.079498</ele>
        <time>2011-01-23T12:43:19Z</time>
      </trkpt>
      <trkpt lat="43.54852" lon="6.702">
        <ele>355.311615</ele>
        <time>2011-01-23T12:43:22Z</time>
      </trkpt>
      <trkpt lat="43.54847" lon="6.7025">
        <ele>351.392212</ele>
        <time>2011-01-23T12:43:33Z</time>
      </trkpt>
      <trkpt lat="43.54847" lon="6.70269">
        <ele>348.223053</ele>
        <time>2011-01-23T12:43:37Z</time>
      </trkpt>
      <trkpt lat="43.54845" lon="6.7028">
        <ele>347.171722</ele>
        <time>2011-01-23T12:43:39Z</time>
      </trkpt>
      <trkpt lat="43.54843" lon="6.70299">
        <ele>344.605347</ele>
        <time>2011-01-23T12:43:43Z</time>
      </trkpt>
      <trkpt lat="43.54839" lon="6.70318">
        <ele>343.690918</ele>
        <time>2011-01-23T12:43:47Z</time>
      </trkpt>
      <trkpt lat="43.54839" lon="6.70321">
        <ele>343.614532</ele>
        <time>2011-01-23T12:43:48Z</time>
      </trkpt>
      <trkpt lat="43.54835" lon="6.70336">
        <ele>343.216522</ele>
        <time>2011-01-23T12:43:52Z</time>
      </trkpt>
      <trkpt lat="43.54832" lon="6.70353">
        <ele>342.496826</ele>
        <time>2011-01-23T12:43:56Z</time>
      </trkpt>
      <trkpt lat="43.5483" lon="6.7037">
        <ele>341.626221</ele>
        <time>2011-01-23T12:44:00Z</time>
      </trkpt>
      <trkpt lat="43.54828" lon="6.70391">
        <ele>338.964172</ele>
        <time>2011-01-23T12:44:05Z</time>
      </trkpt>
      <trkpt lat="43.5482" lon="6.70393">
        <ele>338.477631</ele>
        <time>2011-01-23T12:44:07Z</time>
      </trkpt>
      <trkpt lat="43.54815" lon="6.70393">
        <ele>338.367432</ele>
        <time>2011-01-23T12:44:08Z</time>
      </trkpt>
      <trkpt lat="43.54785" lon="6.70396">
        <ele>337.00116</ele>
        <time>2011-01-23T12:44:14Z</time>
      </trkpt>
      <trkpt lat="43.54772" lon="6.70402">
        <ele>335.271973</ele>
        <time>2011-01-23T12:44:16Z</time>
      </trkpt>
      <trkpt lat="43.54678" lon="6.7046">
        <ele>329.545288</ele>
        <time>2011-01-23T12:44:31Z</time>
      </trkpt>
      <trkpt lat="43.54584" lon="6.70522">
        <ele>325.783112</ele>
        <time>2011-01-23T12:44:46Z</time>
      </trkpt>
      <trkpt lat="43.54532" lon="6.70535">
        <ele>323.164459</ele>
        <time>2011-01-23T12:44:53Z</time>
      </trkpt>
      <trkpt lat="43.54463" lon="6.70561">
        <ele>317.988068</ele>
        <time>2011-01-23T12:45:02Z</time>
      </trkpt>
      <trkpt lat="43.5444" lon="6.70567">
        <ele>316.284668</ele>
        <time>2011-01-23T12:45:05Z</time>
      </trkpt>
      <trkpt lat="43.54386" lon="6.70552">
        <ele>313.888733</ele>
        <time>2011-01-23T12:45:12Z</time>
      </trkpt>
      <trkpt lat="43.54347" lon="6.70552">
        <ele>311.693787</ele>
        <time>2011-01-23T12:45:17Z</time>
      </trkpt>
      <trkpt lat="43.54339" lon="6.70552">
        <ele>311.238129</ele>
        <time>2011-01-23T12:45:18Z</time>
      </trkpt>
      <trkpt lat="43.54251" lon="6.70552">
        <ele>306.285828</ele>
        <time>2011-01-23T12:45:28Z</time>
      </trkpt>
      <trkpt lat="43.54255" lon="6.70527">
        <ele>309.071777</ele>
        <time>2011-01-23T12:45:31Z</time>
      </trkpt>
      <trkpt lat="43.54272" lon="6.70426">
        <ele>310.312408</ele>
        <time>2011-01-23T12:45:46Z</time>
      </trkpt>
      <trkpt lat="43.54281" lon="6.70381">
        <ele>309.565491</ele>
        <time>2011-01-23T12:45:53Z</time>
      </trkpt>
      <trkpt lat="43.5429" lon="6.70303">
        <ele>310.594635</ele>
        <time>2011-01-23T12:46:05Z</time>
      </trkpt>
      <trkpt lat="43.54335" lon="6.7017">
        <ele>311.843323</ele>
        <time>2011-01-23T12:46:29Z</time>
      </trkpt>
      <trkpt lat="43.54345" lon="6.70138">
        <ele>311.729248</ele>
        <time>2011-01-23T12:46:35Z</time>
      </trkpt>
      <trkpt lat="43.54354" lon="6.70108">
        <ele>311.943298</ele>
        <time>2011-01-23T12:46:41Z</time>
      </trkpt>
      <trkpt lat="43.54337" lon="6.70087">
        <ele>311.25531</ele>
        <time>2011-01-23T12:46:48Z</time>
      </trkpt>
      <trkpt lat="43.54335" lon="6.70084">
        <ele>311.156097</ele>
        <time>2011-01-23T12:46:49Z</time>
      </trkpt>
      <trkpt lat="43.5432" lon="6.7008">
        <ele>310.512634</ele>
        <time>2011-01-23T12:46:53Z</time>
      </trkpt>
      <trkpt lat="43.54275" lon="6.70065">
        <ele>304.986389</ele>
        <time>2011-01-23T12:47:02Z</time>
      </trkpt>
      <trkpt lat="43.54257" lon="6.70057">
        <ele>302.605835</ele>
        <time>2011-01-23T12:47:05Z</time>
      </trkpt>
      <trkpt lat="43.54244" lon="6.70054">
        <ele>300.735718</ele>
        <time>2011-01-23T12:47:07Z</time>
      </trkpt>
      <trkpt lat="43.54219" lon="6.70046">
        <ele>297.150421</ele>
        <time>2011-01-23T12:47:12Z</time>
      </trkpt>
      <trkpt lat="43.54214" lon="6.70044">
        <ele>296.41275</ele>
        <time>2011-01-23T12:47:13Z</time>
      </trkpt>
      <trkpt lat="43.54187" lon="6.70037">
        <ele>291.357574</ele>
        <time>2011-01-23T12:47:19Z</time>
      </trkpt>
      <trkpt lat="43.54178" lon="6.70033">
        <ele>289.949677</ele>
        <time>2011-01-23T12:47:21Z</time>
      </trkpt>
      <trkpt lat="43.54139" lon="6.70024">
        <ele>274.351196</ele>
        <time>2011-01-23T12:47:29Z</time>
      </trkpt>
      <trkpt lat="43.54161" lon="6.69992">
        <ele>286.302551</ele>
        <time>2011-01-23T12:47:38Z</time>
      </trkpt>
      <trkpt lat="43.54161" lon="6.6999">
        <ele>286.423767</ele>
        <time>2011-01-23T12:47:41Z</time>
      </trkpt>
      <trkpt lat="43.54163" lon="6.69988">
        <ele>287.303284</ele>
        <time>2011-01-23T12:47:55Z</time>
      </trkpt>
    </trkseg>
  </trk>
</gpx>